<?xml version="1.0" encoding="UTF-8" standalone="no" ?>
<gpx xmlns="http://www.topografix.com/GPX/1/1" xmlns:xsi="http://www.w3.org/2001/XMLSchema-instance" xsi:schemaLocation="http://www.topografix.com/GPX/1/1 http://www.topografix.com/GPX/1/1/gpx.xsd" version="1.1" creator="VisuGPX - https://www.visugpx.com">
  <metadata>
    <name>Tour du Sommet de Tignous</name>
    <desc><![CDATA[Trajet proposé par Guy. Petite balade sympa par excellente neige. L'intérêt étant de naviguer hors sentiers sur la montée. ]]></desc>
  </metadata>
  <trk>
    <name><![CDATA[Current Track: 26 NOV 2013 08:26]]></name>
    <trkseg>
      <trkpt lat="42.94335" lon="0.28629">
        <ele>1046.53</ele>
        <time>2013-11-26T08:26:04Z</time>
      </trkpt>
      <trkpt lat="42.94335" lon="0.28629">
        <ele>1044.61</ele>
        <time>2013-11-26T08:26:23Z</time>
      </trkpt>
      <trkpt lat="42.94335" lon="0.28629">
        <ele>1044.13</ele>
        <time>2013-11-26T08:26:40Z</time>
      </trkpt>
      <trkpt lat="42.94337" lon="0.28629">
        <ele>1045.09</ele>
        <time>2013-11-26T08:26:55Z</time>
      </trkpt>
      <trkpt lat="42.94335" lon="0.28629">
        <ele>1046.05</ele>
        <time>2013-11-26T08:27:13Z</time>
      </trkpt>
      <trkpt lat="42.94335" lon="0.2863">
        <ele>1045.57</ele>
        <time>2013-11-26T08:27:15Z</time>
      </trkpt>
      <trkpt lat="42.94336" lon="0.28629">
        <ele>1046.05</ele>
        <time>2013-11-26T08:27:26Z</time>
      </trkpt>
      <trkpt lat="42.94336" lon="0.28626">
        <ele>1045.57</ele>
        <time>2013-11-26T08:27:37Z</time>
      </trkpt>
      <trkpt lat="42.94337" lon="0.28626">
        <ele>1045.09</ele>
        <time>2013-11-26T08:27:48Z</time>
      </trkpt>
      <trkpt lat="42.94337" lon="0.28626">
        <ele>1045.09</ele>
        <time>2013-11-26T08:28:09Z</time>
      </trkpt>
      <trkpt lat="42.94337" lon="0.28627">
        <ele>1045.57</ele>
        <time>2013-11-26T08:28:24Z</time>
      </trkpt>
      <trkpt lat="42.94335" lon="0.28628">
        <ele>1046.05</ele>
        <time>2013-11-26T08:28:37Z</time>
      </trkpt>
      <trkpt lat="42.94335" lon="0.28628">
        <ele>1046.05</ele>
        <time>2013-11-26T08:28:52Z</time>
      </trkpt>
      <trkpt lat="42.94335" lon="0.28628">
        <ele>1046.05</ele>
        <time>2013-11-26T08:29:08Z</time>
      </trkpt>
      <trkpt lat="42.94335" lon="0.28629">
        <ele>1046.53</ele>
        <time>2013-11-26T08:29:18Z</time>
      </trkpt>
      <trkpt lat="42.94336" lon="0.28628">
        <ele>1046.05</ele>
        <time>2013-11-26T08:29:29Z</time>
      </trkpt>
      <trkpt lat="42.94336" lon="0.28628">
        <ele>1046.05</ele>
        <time>2013-11-26T08:29:53Z</time>
      </trkpt>
      <trkpt lat="42.94336" lon="0.28628">
        <ele>1046.53</ele>
        <time>2013-11-26T08:30:13Z</time>
      </trkpt>
      <trkpt lat="42.94335" lon="0.28628">
        <ele>1047.01</ele>
        <time>2013-11-26T08:30:25Z</time>
      </trkpt>
      <trkpt lat="42.94335" lon="0.28627">
        <ele>1047.97</ele>
        <time>2013-11-26T08:30:37Z</time>
      </trkpt>
      <trkpt lat="42.94335" lon="0.28629">
        <ele>1047.97</ele>
        <time>2013-11-26T08:30:40Z</time>
      </trkpt>
      <trkpt lat="42.9434" lon="0.28634">
        <ele>1048.94</ele>
        <time>2013-11-26T08:30:45Z</time>
      </trkpt>
      <trkpt lat="42.94355" lon="0.28662">
        <ele>1050.38</ele>
        <time>2013-11-26T08:31:03Z</time>
      </trkpt>
      <trkpt lat="42.9437" lon="0.28689">
        <ele>1049.9</ele>
        <time>2013-11-26T08:31:20Z</time>
      </trkpt>
      <trkpt lat="42.94388" lon="0.2872">
        <ele>1051.34</ele>
        <time>2013-11-26T08:31:39Z</time>
      </trkpt>
      <trkpt lat="42.94404" lon="0.28749">
        <ele>1053.74</ele>
        <time>2013-11-26T08:31:56Z</time>
      </trkpt>
      <trkpt lat="42.94406" lon="0.28751">
        <ele>1053.74</ele>
        <time>2013-11-26T08:31:58Z</time>
      </trkpt>
      <trkpt lat="42.94412" lon="0.28755">
        <ele>1053.74</ele>
        <time>2013-11-26T08:32:03Z</time>
      </trkpt>
      <trkpt lat="42.94426" lon="0.28789">
        <ele>1055.67</ele>
        <time>2013-11-26T08:32:23Z</time>
      </trkpt>
      <trkpt lat="42.94432" lon="0.28801">
        <ele>1054.7</ele>
        <time>2013-11-26T08:32:32Z</time>
      </trkpt>
      <trkpt lat="42.94443" lon="0.28802">
        <ele>1055.18</ele>
        <time>2013-11-26T08:32:44Z</time>
      </trkpt>
      <trkpt lat="42.94451" lon="0.28808">
        <ele>1055.18</ele>
        <time>2013-11-26T08:32:53Z</time>
      </trkpt>
      <trkpt lat="42.94452" lon="0.2881">
        <ele>1055.18</ele>
        <time>2013-11-26T08:32:55Z</time>
      </trkpt>
      <trkpt lat="42.94469" lon="0.28817">
        <ele>1054.22</ele>
        <time>2013-11-26T08:33:09Z</time>
      </trkpt>
      <trkpt lat="42.94474" lon="0.28819">
        <ele>1054.7</ele>
        <time>2013-11-26T08:33:23Z</time>
      </trkpt>
      <trkpt lat="42.94474" lon="0.28819">
        <ele>1054.22</ele>
        <time>2013-11-26T08:33:34Z</time>
      </trkpt>
      <trkpt lat="42.94474" lon="0.28819">
        <ele>1054.22</ele>
        <time>2013-11-26T08:33:46Z</time>
      </trkpt>
      <trkpt lat="42.94475" lon="0.28819">
        <ele>1053.26</ele>
        <time>2013-11-26T08:34:01Z</time>
      </trkpt>
      <trkpt lat="42.94475" lon="0.28819">
        <ele>1053.26</ele>
        <time>2013-11-26T08:34:17Z</time>
      </trkpt>
      <trkpt lat="42.94475" lon="0.28819">
        <ele>1052.3</ele>
        <time>2013-11-26T08:34:40Z</time>
      </trkpt>
      <trkpt lat="42.94475" lon="0.28818">
        <ele>1052.78</ele>
        <time>2013-11-26T08:34:58Z</time>
      </trkpt>
      <trkpt lat="42.94476" lon="0.28818">
        <ele>1052.78</ele>
        <time>2013-11-26T08:35:07Z</time>
      </trkpt>
      <trkpt lat="42.94476" lon="0.28818">
        <ele>1052.78</ele>
        <time>2013-11-26T08:35:23Z</time>
      </trkpt>
      <trkpt lat="42.94476" lon="0.28818">
        <ele>1052.78</ele>
        <time>2013-11-26T08:35:46Z</time>
      </trkpt>
      <trkpt lat="42.94475" lon="0.28818">
        <ele>1052.3</ele>
        <time>2013-11-26T08:36:05Z</time>
      </trkpt>
      <trkpt lat="42.94475" lon="0.28819">
        <ele>1052.3</ele>
        <time>2013-11-26T08:36:21Z</time>
      </trkpt>
      <trkpt lat="42.94474" lon="0.28818">
        <ele>1052.3</ele>
        <time>2013-11-26T08:36:33Z</time>
      </trkpt>
      <trkpt lat="42.94473" lon="0.28818">
        <ele>1052.3</ele>
        <time>2013-11-26T08:36:55Z</time>
      </trkpt>
      <trkpt lat="42.94474" lon="0.28818">
        <ele>1053.74</ele>
        <time>2013-11-26T08:37:12Z</time>
      </trkpt>
      <trkpt lat="42.94474" lon="0.28818">
        <ele>1053.74</ele>
        <time>2013-11-26T08:37:34Z</time>
      </trkpt>
      <trkpt lat="42.94475" lon="0.28818">
        <ele>1054.7</ele>
        <time>2013-11-26T08:37:54Z</time>
      </trkpt>
      <trkpt lat="42.94475" lon="0.28818">
        <ele>1055.18</ele>
        <time>2013-11-26T08:38:14Z</time>
      </trkpt>
      <trkpt lat="42.94475" lon="0.28818">
        <ele>1055.18</ele>
        <time>2013-11-26T08:38:42Z</time>
      </trkpt>
      <trkpt lat="42.94475" lon="0.28818">
        <ele>1055.67</ele>
        <time>2013-11-26T08:39:06Z</time>
      </trkpt>
      <trkpt lat="42.94475" lon="0.28818">
        <ele>1055.67</ele>
        <time>2013-11-26T08:39:23Z</time>
      </trkpt>
      <trkpt lat="42.94475" lon="0.28818">
        <ele>1055.67</ele>
        <time>2013-11-26T08:39:26Z</time>
      </trkpt>
      <trkpt lat="42.94483" lon="0.28816">
        <ele>1056.15</ele>
        <time>2013-11-26T08:39:32Z</time>
      </trkpt>
      <trkpt lat="42.94491" lon="0.28823">
        <ele>1057.11</ele>
        <time>2013-11-26T08:39:39Z</time>
      </trkpt>
      <trkpt lat="42.94498" lon="0.28827">
        <ele>1056.15</ele>
        <time>2013-11-26T08:39:52Z</time>
      </trkpt>
      <trkpt lat="42.94498" lon="0.28827">
        <ele>1056.15</ele>
        <time>2013-11-26T08:40:14Z</time>
      </trkpt>
      <trkpt lat="42.94497" lon="0.28828">
        <ele>1056.63</ele>
        <time>2013-11-26T08:40:37Z</time>
      </trkpt>
      <trkpt lat="42.94497" lon="0.28828">
        <ele>1056.63</ele>
        <time>2013-11-26T08:40:56Z</time>
      </trkpt>
      <trkpt lat="42.94497" lon="0.28827">
        <ele>1057.59</ele>
        <time>2013-11-26T08:41:23Z</time>
      </trkpt>
      <trkpt lat="42.94497" lon="0.28827">
        <ele>1057.11</ele>
        <time>2013-11-26T08:41:42Z</time>
      </trkpt>
      <trkpt lat="42.94497" lon="0.28827">
        <ele>1057.11</ele>
        <time>2013-11-26T08:42:05Z</time>
      </trkpt>
      <trkpt lat="42.94494" lon="0.28822">
        <ele>1057.59</ele>
        <time>2013-11-26T08:42:20Z</time>
      </trkpt>
      <trkpt lat="42.94492" lon="0.28821">
        <ele>1058.07</ele>
        <time>2013-11-26T08:42:38Z</time>
      </trkpt>
      <trkpt lat="42.94491" lon="0.28819">
        <ele>1058.07</ele>
        <time>2013-11-26T08:42:49Z</time>
      </trkpt>
      <trkpt lat="42.94495" lon="0.28826">
        <ele>1058.07</ele>
        <time>2013-11-26T08:43:06Z</time>
      </trkpt>
      <trkpt lat="42.94496" lon="0.28827">
        <ele>1058.07</ele>
        <time>2013-11-26T08:43:07Z</time>
      </trkpt>
      <trkpt lat="42.94498" lon="0.28829">
        <ele>1058.07</ele>
        <time>2013-11-26T08:43:10Z</time>
      </trkpt>
      <trkpt lat="42.94503" lon="0.28833">
        <ele>1059.03</ele>
        <time>2013-11-26T08:43:22Z</time>
      </trkpt>
      <trkpt lat="42.94508" lon="0.28831">
        <ele>1059.03</ele>
        <time>2013-11-26T08:43:34Z</time>
      </trkpt>
      <trkpt lat="42.94509" lon="0.28829">
        <ele>1059.03</ele>
        <time>2013-11-26T08:43:36Z</time>
      </trkpt>
      <trkpt lat="42.94515" lon="0.28818">
        <ele>1059.51</ele>
        <time>2013-11-26T08:43:50Z</time>
      </trkpt>
      <trkpt lat="42.94522" lon="0.28809">
        <ele>1061.43</ele>
        <time>2013-11-26T08:44:05Z</time>
      </trkpt>
      <trkpt lat="42.94528" lon="0.28805">
        <ele>1063.36</ele>
        <time>2013-11-26T08:44:19Z</time>
      </trkpt>
      <trkpt lat="42.94529" lon="0.28804">
        <ele>1063.36</ele>
        <time>2013-11-26T08:44:22Z</time>
      </trkpt>
      <trkpt lat="42.94536" lon="0.28799">
        <ele>1064.32</ele>
        <time>2013-11-26T08:44:35Z</time>
      </trkpt>
      <trkpt lat="42.94536" lon="0.28799">
        <ele>1064.32</ele>
        <time>2013-11-26T08:44:54Z</time>
      </trkpt>
      <trkpt lat="42.94537" lon="0.28799">
        <ele>1064.32</ele>
        <time>2013-11-26T08:45:15Z</time>
      </trkpt>
      <trkpt lat="42.94537" lon="0.28798">
        <ele>1065.28</ele>
        <time>2013-11-26T08:45:17Z</time>
      </trkpt>
      <trkpt lat="42.94541" lon="0.28788">
        <ele>1065.28</ele>
        <time>2013-11-26T08:45:24Z</time>
      </trkpt>
      <trkpt lat="42.94537" lon="0.28771">
        <ele>1065.28</ele>
        <time>2013-11-26T08:45:35Z</time>
      </trkpt>
      <trkpt lat="42.94531" lon="0.28751">
        <ele>1067.68</ele>
        <time>2013-11-26T08:45:49Z</time>
      </trkpt>
      <trkpt lat="42.94528" lon="0.28747">
        <ele>1068.64</ele>
        <time>2013-11-26T08:45:53Z</time>
      </trkpt>
      <trkpt lat="42.94526" lon="0.28739">
        <ele>1069.6</ele>
        <time>2013-11-26T08:45:58Z</time>
      </trkpt>
      <trkpt lat="42.94526" lon="0.28728">
        <ele>1070.08</ele>
        <time>2013-11-26T08:46:06Z</time>
      </trkpt>
      <trkpt lat="42.94534" lon="0.28714">
        <ele>1071.05</ele>
        <time>2013-11-26T08:46:20Z</time>
      </trkpt>
      <trkpt lat="42.94537" lon="0.28706">
        <ele>1071.53</ele>
        <time>2013-11-26T08:46:33Z</time>
      </trkpt>
      <trkpt lat="42.94543" lon="0.287">
        <ele>1072.49</ele>
        <time>2013-11-26T08:46:49Z</time>
      </trkpt>
      <trkpt lat="42.94545" lon="0.28698">
        <ele>1072.97</ele>
        <time>2013-11-26T08:47:03Z</time>
      </trkpt>
      <trkpt lat="42.94549" lon="0.28696">
        <ele>1073.93</ele>
        <time>2013-11-26T08:47:14Z</time>
      </trkpt>
      <trkpt lat="42.94556" lon="0.28693">
        <ele>1075.37</ele>
        <time>2013-11-26T08:47:24Z</time>
      </trkpt>
      <trkpt lat="42.94567" lon="0.28681">
        <ele>1075.85</ele>
        <time>2013-11-26T08:47:39Z</time>
      </trkpt>
      <trkpt lat="42.94572" lon="0.28673">
        <ele>1077.29</ele>
        <time>2013-11-26T08:47:53Z</time>
      </trkpt>
      <trkpt lat="42.94579" lon="0.28659">
        <ele>1080.66</ele>
        <time>2013-11-26T08:48:12Z</time>
      </trkpt>
      <trkpt lat="42.94583" lon="0.28651">
        <ele>1080.66</ele>
        <time>2013-11-26T08:48:25Z</time>
      </trkpt>
      <trkpt lat="42.94586" lon="0.28645">
        <ele>1082.1</ele>
        <time>2013-11-26T08:48:41Z</time>
      </trkpt>
      <trkpt lat="42.94586" lon="0.28644">
        <ele>1082.1</ele>
        <time>2013-11-26T08:48:42Z</time>
      </trkpt>
      <trkpt lat="42.94586" lon="0.28637">
        <ele>1082.58</ele>
        <time>2013-11-26T08:48:54Z</time>
      </trkpt>
      <trkpt lat="42.94587" lon="0.28632">
        <ele>1082.58</ele>
        <time>2013-11-26T08:49:06Z</time>
      </trkpt>
      <trkpt lat="42.94587" lon="0.28633">
        <ele>1082.58</ele>
        <time>2013-11-26T08:49:21Z</time>
      </trkpt>
      <trkpt lat="42.94587" lon="0.28633">
        <ele>1082.58</ele>
        <time>2013-11-26T08:49:52Z</time>
      </trkpt>
      <trkpt lat="42.94587" lon="0.28633">
        <ele>1083.06</ele>
        <time>2013-11-26T08:50:12Z</time>
      </trkpt>
      <trkpt lat="42.94585" lon="0.28625">
        <ele>1084.5</ele>
        <time>2013-11-26T08:50:28Z</time>
      </trkpt>
      <trkpt lat="42.94583" lon="0.28624">
        <ele>1084.5</ele>
        <time>2013-11-26T08:50:30Z</time>
      </trkpt>
      <trkpt lat="42.94578" lon="0.28623">
        <ele>1084.99</ele>
        <time>2013-11-26T08:50:46Z</time>
      </trkpt>
      <trkpt lat="42.94578" lon="0.28623">
        <ele>1084.99</ele>
        <time>2013-11-26T08:51:16Z</time>
      </trkpt>
      <trkpt lat="42.94576" lon="0.28621">
        <ele>1085.47</ele>
        <time>2013-11-26T08:51:43Z</time>
      </trkpt>
      <trkpt lat="42.94566" lon="0.28621">
        <ele>1084.5</ele>
        <time>2013-11-26T08:51:55Z</time>
      </trkpt>
      <trkpt lat="42.94564" lon="0.28621">
        <ele>1084.02</ele>
        <time>2013-11-26T08:51:58Z</time>
      </trkpt>
      <trkpt lat="42.94554" lon="0.28623">
        <ele>1084.02</ele>
        <time>2013-11-26T08:52:10Z</time>
      </trkpt>
      <trkpt lat="42.94546" lon="0.28619">
        <ele>1084.5</ele>
        <time>2013-11-26T08:52:23Z</time>
      </trkpt>
      <trkpt lat="42.94539" lon="0.28618">
        <ele>1085.47</ele>
        <time>2013-11-26T08:52:37Z</time>
      </trkpt>
      <trkpt lat="42.94532" lon="0.28615">
        <ele>1088.83</ele>
        <time>2013-11-26T08:52:49Z</time>
      </trkpt>
      <trkpt lat="42.94521" lon="0.28611">
        <ele>1090.75</ele>
        <time>2013-11-26T08:53:03Z</time>
      </trkpt>
      <trkpt lat="42.94512" lon="0.28604">
        <ele>1089.31</ele>
        <time>2013-11-26T08:53:18Z</time>
      </trkpt>
      <trkpt lat="42.94504" lon="0.286">
        <ele>1094.6</ele>
        <time>2013-11-26T08:53:31Z</time>
      </trkpt>
      <trkpt lat="42.94498" lon="0.28599">
        <ele>1098.92</ele>
        <time>2013-11-26T08:53:43Z</time>
      </trkpt>
      <trkpt lat="42.94496" lon="0.28599">
        <ele>1099.89</ele>
        <time>2013-11-26T08:53:58Z</time>
      </trkpt>
      <trkpt lat="42.94489" lon="0.28597">
        <ele>1101.33</ele>
        <time>2013-11-26T08:54:13Z</time>
      </trkpt>
      <trkpt lat="42.94481" lon="0.28592">
        <ele>1102.77</ele>
        <time>2013-11-26T08:54:27Z</time>
      </trkpt>
      <trkpt lat="42.94471" lon="0.28587">
        <ele>1104.21</ele>
        <time>2013-11-26T08:54:42Z</time>
      </trkpt>
      <trkpt lat="42.94471" lon="0.28587">
        <ele>1104.21</ele>
        <time>2013-11-26T08:54:43Z</time>
      </trkpt>
      <trkpt lat="42.94464" lon="0.28581">
        <ele>1104.69</ele>
        <time>2013-11-26T08:54:59Z</time>
      </trkpt>
      <trkpt lat="42.94462" lon="0.28576">
        <ele>1105.65</ele>
        <time>2013-11-26T08:55:10Z</time>
      </trkpt>
      <trkpt lat="42.94456" lon="0.28571">
        <ele>1107.1</ele>
        <time>2013-11-26T08:55:22Z</time>
      </trkpt>
      <trkpt lat="42.94453" lon="0.28566">
        <ele>1108.54</ele>
        <time>2013-11-26T08:55:35Z</time>
      </trkpt>
      <trkpt lat="42.94448" lon="0.28559">
        <ele>1109.5</ele>
        <time>2013-11-26T08:55:50Z</time>
      </trkpt>
      <trkpt lat="42.94448" lon="0.28554">
        <ele>1109.98</ele>
        <time>2013-11-26T08:56:02Z</time>
      </trkpt>
      <trkpt lat="42.94444" lon="0.28547">
        <ele>1112.38</ele>
        <time>2013-11-26T08:56:13Z</time>
      </trkpt>
      <trkpt lat="42.94443" lon="0.28542">
        <ele>1113.34</ele>
        <time>2013-11-26T08:56:29Z</time>
      </trkpt>
      <trkpt lat="42.94439" lon="0.28533">
        <ele>1113.82</ele>
        <time>2013-11-26T08:56:45Z</time>
      </trkpt>
      <trkpt lat="42.94438" lon="0.28529">
        <ele>1113.82</ele>
        <time>2013-11-26T08:56:59Z</time>
      </trkpt>
      <trkpt lat="42.94435" lon="0.28515">
        <ele>1113.82</ele>
        <time>2013-11-26T08:57:12Z</time>
      </trkpt>
      <trkpt lat="42.94432" lon="0.28503">
        <ele>1115.27</ele>
        <time>2013-11-26T08:57:24Z</time>
      </trkpt>
      <trkpt lat="42.9443" lon="0.28493">
        <ele>1115.75</ele>
        <time>2013-11-26T08:57:37Z</time>
      </trkpt>
      <trkpt lat="42.94428" lon="0.28485">
        <ele>1116.71</ele>
        <time>2013-11-26T08:57:51Z</time>
      </trkpt>
      <trkpt lat="42.94428" lon="0.28484">
        <ele>1116.71</ele>
        <time>2013-11-26T08:58:05Z</time>
      </trkpt>
      <trkpt lat="42.94428" lon="0.28483">
        <ele>1117.19</ele>
        <time>2013-11-26T08:58:22Z</time>
      </trkpt>
      <trkpt lat="42.94428" lon="0.28481">
        <ele>1117.19</ele>
        <time>2013-11-26T08:58:39Z</time>
      </trkpt>
      <trkpt lat="42.94422" lon="0.28458">
        <ele>1118.15</ele>
        <time>2013-11-26T08:58:54Z</time>
      </trkpt>
      <trkpt lat="42.94421" lon="0.28457">
        <ele>1118.15</ele>
        <time>2013-11-26T08:58:55Z</time>
      </trkpt>
      <trkpt lat="42.9442" lon="0.28448">
        <ele>1118.63</ele>
        <time>2013-11-26T08:59:01Z</time>
      </trkpt>
      <trkpt lat="42.94419" lon="0.28441">
        <ele>1119.11</ele>
        <time>2013-11-26T08:59:06Z</time>
      </trkpt>
      <trkpt lat="42.9442" lon="0.28426">
        <ele>1121.03</ele>
        <time>2013-11-26T08:59:18Z</time>
      </trkpt>
      <trkpt lat="42.94423" lon="0.2841">
        <ele>1127.76</ele>
        <time>2013-11-26T08:59:33Z</time>
      </trkpt>
      <trkpt lat="42.94425" lon="0.284">
        <ele>1129.69</ele>
        <time>2013-11-26T08:59:43Z</time>
      </trkpt>
      <trkpt lat="42.94427" lon="0.28391">
        <ele>1132.09</ele>
        <time>2013-11-26T08:59:55Z</time>
      </trkpt>
      <trkpt lat="42.94428" lon="0.28381">
        <ele>1132.09</ele>
        <time>2013-11-26T09:00:08Z</time>
      </trkpt>
      <trkpt lat="42.94431" lon="0.28369">
        <ele>1130.65</ele>
        <time>2013-11-26T09:00:21Z</time>
      </trkpt>
      <trkpt lat="42.94434" lon="0.28365">
        <ele>1131.13</ele>
        <time>2013-11-26T09:00:33Z</time>
      </trkpt>
      <trkpt lat="42.94436" lon="0.28356">
        <ele>1132.09</ele>
        <time>2013-11-26T09:00:45Z</time>
      </trkpt>
      <trkpt lat="42.94438" lon="0.28352">
        <ele>1132.09</ele>
        <time>2013-11-26T09:00:58Z</time>
      </trkpt>
      <trkpt lat="42.94441" lon="0.28343">
        <ele>1134.97</ele>
        <time>2013-11-26T09:01:09Z</time>
      </trkpt>
      <trkpt lat="42.94445" lon="0.28337">
        <ele>1136.42</ele>
        <time>2013-11-26T09:01:21Z</time>
      </trkpt>
      <trkpt lat="42.94449" lon="0.2833">
        <ele>1134.01</ele>
        <time>2013-11-26T09:01:34Z</time>
      </trkpt>
      <trkpt lat="42.94456" lon="0.2832">
        <ele>1135.45</ele>
        <time>2013-11-26T09:01:47Z</time>
      </trkpt>
      <trkpt lat="42.94462" lon="0.2831">
        <ele>1137.38</ele>
        <time>2013-11-26T09:01:59Z</time>
      </trkpt>
      <trkpt lat="42.94469" lon="0.28303">
        <ele>1139.78</ele>
        <time>2013-11-26T09:02:10Z</time>
      </trkpt>
      <trkpt lat="42.94472" lon="0.28298">
        <ele>1140.74</ele>
        <time>2013-11-26T09:02:17Z</time>
      </trkpt>
      <trkpt lat="42.94477" lon="0.28292">
        <ele>1140.74</ele>
        <time>2013-11-26T09:02:26Z</time>
      </trkpt>
      <trkpt lat="42.94483" lon="0.28284">
        <ele>1142.66</ele>
        <time>2013-11-26T09:02:37Z</time>
      </trkpt>
      <trkpt lat="42.9449" lon="0.28273">
        <ele>1142.18</ele>
        <time>2013-11-26T09:02:49Z</time>
      </trkpt>
      <trkpt lat="42.9449" lon="0.28272">
        <ele>1141.22</ele>
        <time>2013-11-26T09:02:51Z</time>
      </trkpt>
      <trkpt lat="42.94493" lon="0.28264">
        <ele>1139.78</ele>
        <time>2013-11-26T09:03:02Z</time>
      </trkpt>
      <trkpt lat="42.94497" lon="0.28255">
        <ele>1139.3</ele>
        <time>2013-11-26T09:03:11Z</time>
      </trkpt>
      <trkpt lat="42.94505" lon="0.28244">
        <ele>1135.94</ele>
        <time>2013-11-26T09:03:23Z</time>
      </trkpt>
      <trkpt lat="42.9451" lon="0.28236">
        <ele>1134.49</ele>
        <time>2013-11-26T09:03:36Z</time>
      </trkpt>
      <trkpt lat="42.94514" lon="0.28229">
        <ele>1133.53</ele>
        <time>2013-11-26T09:03:48Z</time>
      </trkpt>
      <trkpt lat="42.94515" lon="0.28226">
        <ele>1133.53</ele>
        <time>2013-11-26T09:04:00Z</time>
      </trkpt>
      <trkpt lat="42.9452" lon="0.28218">
        <ele>1134.01</ele>
        <time>2013-11-26T09:04:15Z</time>
      </trkpt>
      <trkpt lat="42.94527" lon="0.28206">
        <ele>1131.61</ele>
        <time>2013-11-26T09:04:27Z</time>
      </trkpt>
      <trkpt lat="42.94535" lon="0.28194">
        <ele>1130.65</ele>
        <time>2013-11-26T09:04:41Z</time>
      </trkpt>
      <trkpt lat="42.94543" lon="0.28183">
        <ele>1129.69</ele>
        <time>2013-11-26T09:04:54Z</time>
      </trkpt>
      <trkpt lat="42.94552" lon="0.2817">
        <ele>1130.17</ele>
        <time>2013-11-26T09:05:09Z</time>
      </trkpt>
      <trkpt lat="42.94562" lon="0.28158">
        <ele>1129.21</ele>
        <time>2013-11-26T09:05:23Z</time>
      </trkpt>
      <trkpt lat="42.9457" lon="0.28151">
        <ele>1127.28</ele>
        <time>2013-11-26T09:05:37Z</time>
      </trkpt>
      <trkpt lat="42.94576" lon="0.28149">
        <ele>1127.28</ele>
        <time>2013-11-26T09:05:50Z</time>
      </trkpt>
      <trkpt lat="42.94582" lon="0.28144">
        <ele>1127.76</ele>
        <time>2013-11-26T09:06:03Z</time>
      </trkpt>
      <trkpt lat="42.94587" lon="0.28142">
        <ele>1128.24</ele>
        <time>2013-11-26T09:06:14Z</time>
      </trkpt>
      <trkpt lat="42.94595" lon="0.28138">
        <ele>1127.28</ele>
        <time>2013-11-26T09:06:25Z</time>
      </trkpt>
      <trkpt lat="42.94602" lon="0.28135">
        <ele>1128.73</ele>
        <time>2013-11-26T09:06:39Z</time>
      </trkpt>
      <trkpt lat="42.94605" lon="0.28133">
        <ele>1128.24</ele>
        <time>2013-11-26T09:06:44Z</time>
      </trkpt>
      <trkpt lat="42.94611" lon="0.28131">
        <ele>1128.73</ele>
        <time>2013-11-26T09:06:56Z</time>
      </trkpt>
      <trkpt lat="42.94618" lon="0.28126">
        <ele>1132.09</ele>
        <time>2013-11-26T09:07:09Z</time>
      </trkpt>
      <trkpt lat="42.94625" lon="0.28121">
        <ele>1134.97</ele>
        <time>2013-11-26T09:07:24Z</time>
      </trkpt>
      <trkpt lat="42.94632" lon="0.28118">
        <ele>1135.94</ele>
        <time>2013-11-26T09:07:35Z</time>
      </trkpt>
      <trkpt lat="42.94634" lon="0.28117">
        <ele>1136.42</ele>
        <time>2013-11-26T09:07:47Z</time>
      </trkpt>
      <trkpt lat="42.94639" lon="0.28111">
        <ele>1137.38</ele>
        <time>2013-11-26T09:07:58Z</time>
      </trkpt>
      <trkpt lat="42.94643" lon="0.28109">
        <ele>1136.9</ele>
        <time>2013-11-26T09:08:10Z</time>
      </trkpt>
      <trkpt lat="42.94653" lon="0.28104">
        <ele>1134.97</ele>
        <time>2013-11-26T09:08:22Z</time>
      </trkpt>
      <trkpt lat="42.94654" lon="0.28103">
        <ele>1134.97</ele>
        <time>2013-11-26T09:08:34Z</time>
      </trkpt>
      <trkpt lat="42.94657" lon="0.281">
        <ele>1134.97</ele>
        <time>2013-11-26T09:08:50Z</time>
      </trkpt>
      <trkpt lat="42.94661" lon="0.28097">
        <ele>1134.97</ele>
        <time>2013-11-26T09:09:01Z</time>
      </trkpt>
      <trkpt lat="42.94661" lon="0.28097">
        <ele>1134.97</ele>
        <time>2013-11-26T09:09:14Z</time>
      </trkpt>
      <trkpt lat="42.94661" lon="0.28097">
        <ele>1134.97</ele>
        <time>2013-11-26T09:09:19Z</time>
      </trkpt>
      <trkpt lat="42.94667" lon="0.28087">
        <ele>1138.34</ele>
        <time>2013-11-26T09:09:30Z</time>
      </trkpt>
      <trkpt lat="42.94665" lon="0.28078">
        <ele>1140.74</ele>
        <time>2013-11-26T09:09:43Z</time>
      </trkpt>
      <trkpt lat="42.94661" lon="0.28073">
        <ele>1140.26</ele>
        <time>2013-11-26T09:09:50Z</time>
      </trkpt>
      <trkpt lat="42.94659" lon="0.28062">
        <ele>1138.34</ele>
        <time>2013-11-26T09:10:01Z</time>
      </trkpt>
      <trkpt lat="42.94654" lon="0.28055">
        <ele>1138.34</ele>
        <time>2013-11-26T09:10:11Z</time>
      </trkpt>
      <trkpt lat="42.94648" lon="0.28045">
        <ele>1139.3</ele>
        <time>2013-11-26T09:10:25Z</time>
      </trkpt>
      <trkpt lat="42.94646" lon="0.2804">
        <ele>1138.34</ele>
        <time>2013-11-26T09:10:37Z</time>
      </trkpt>
      <trkpt lat="42.94642" lon="0.28031">
        <ele>1135.94</ele>
        <time>2013-11-26T09:10:50Z</time>
      </trkpt>
      <trkpt lat="42.94639" lon="0.28028">
        <ele>1135.45</ele>
        <time>2013-11-26T09:10:54Z</time>
      </trkpt>
      <trkpt lat="42.94631" lon="0.28017">
        <ele>1134.01</ele>
        <time>2013-11-26T09:11:11Z</time>
      </trkpt>
      <trkpt lat="42.94624" lon="0.28009">
        <ele>1135.94</ele>
        <time>2013-11-26T09:11:23Z</time>
      </trkpt>
      <trkpt lat="42.94619" lon="0.27999">
        <ele>1137.38</ele>
        <time>2013-11-26T09:11:36Z</time>
      </trkpt>
      <trkpt lat="42.94617" lon="0.27992">
        <ele>1134.97</ele>
        <time>2013-11-26T09:11:47Z</time>
      </trkpt>
      <trkpt lat="42.94615" lon="0.27986">
        <ele>1134.97</ele>
        <time>2013-11-26T09:11:58Z</time>
      </trkpt>
      <trkpt lat="42.94612" lon="0.27978">
        <ele>1136.42</ele>
        <time>2013-11-26T09:12:09Z</time>
      </trkpt>
      <trkpt lat="42.94609" lon="0.27968">
        <ele>1135.94</ele>
        <time>2013-11-26T09:12:23Z</time>
      </trkpt>
      <trkpt lat="42.94608" lon="0.27962">
        <ele>1135.94</ele>
        <time>2013-11-26T09:12:37Z</time>
      </trkpt>
      <trkpt lat="42.94607" lon="0.27952">
        <ele>1135.94</ele>
        <time>2013-11-26T09:12:47Z</time>
      </trkpt>
      <trkpt lat="42.94606" lon="0.27951">
        <ele>1136.42</ele>
        <time>2013-11-26T09:12:50Z</time>
      </trkpt>
      <trkpt lat="42.94601" lon="0.27945">
        <ele>1136.42</ele>
        <time>2013-11-26T09:13:01Z</time>
      </trkpt>
      <trkpt lat="42.94597" lon="0.27941">
        <ele>1138.82</ele>
        <time>2013-11-26T09:13:13Z</time>
      </trkpt>
      <trkpt lat="42.94595" lon="0.27938">
        <ele>1140.26</ele>
        <time>2013-11-26T09:13:25Z</time>
      </trkpt>
      <trkpt lat="42.94589" lon="0.27931">
        <ele>1143.14</ele>
        <time>2013-11-26T09:13:39Z</time>
      </trkpt>
      <trkpt lat="42.94584" lon="0.27925">
        <ele>1145.55</ele>
        <time>2013-11-26T09:13:53Z</time>
      </trkpt>
      <trkpt lat="42.9458" lon="0.27918">
        <ele>1147.95</ele>
        <time>2013-11-26T09:14:07Z</time>
      </trkpt>
      <trkpt lat="42.94579" lon="0.27916">
        <ele>1147.95</ele>
        <time>2013-11-26T09:14:19Z</time>
      </trkpt>
      <trkpt lat="42.94579" lon="0.27916">
        <ele>1147.95</ele>
        <time>2013-11-26T09:14:24Z</time>
      </trkpt>
      <trkpt lat="42.94578" lon="0.27907">
        <ele>1149.87</ele>
        <time>2013-11-26T09:14:34Z</time>
      </trkpt>
      <trkpt lat="42.94579" lon="0.27901">
        <ele>1150.35</ele>
        <time>2013-11-26T09:14:42Z</time>
      </trkpt>
      <trkpt lat="42.94585" lon="0.27888">
        <ele>1149.39</ele>
        <time>2013-11-26T09:14:56Z</time>
      </trkpt>
      <trkpt lat="42.94589" lon="0.27878">
        <ele>1151.8</ele>
        <time>2013-11-26T09:15:08Z</time>
      </trkpt>
      <trkpt lat="42.94595" lon="0.27868">
        <ele>1153.72</ele>
        <time>2013-11-26T09:15:24Z</time>
      </trkpt>
      <trkpt lat="42.94601" lon="0.27862">
        <ele>1155.16</ele>
        <time>2013-11-26T09:15:37Z</time>
      </trkpt>
      <trkpt lat="42.94604" lon="0.27861">
        <ele>1156.12</ele>
        <time>2013-11-26T09:15:51Z</time>
      </trkpt>
      <trkpt lat="42.94608" lon="0.27857">
        <ele>1157.56</ele>
        <time>2013-11-26T09:16:03Z</time>
      </trkpt>
      <trkpt lat="42.94615" lon="0.27852">
        <ele>1159.01</ele>
        <time>2013-11-26T09:16:15Z</time>
      </trkpt>
      <trkpt lat="42.94621" lon="0.2785">
        <ele>1160.93</ele>
        <time>2013-11-26T09:16:30Z</time>
      </trkpt>
      <trkpt lat="42.94625" lon="0.27848">
        <ele>1161.41</ele>
        <time>2013-11-26T09:16:44Z</time>
      </trkpt>
      <trkpt lat="42.94631" lon="0.27846">
        <ele>1163.81</ele>
        <time>2013-11-26T09:17:00Z</time>
      </trkpt>
      <trkpt lat="42.94638" lon="0.27844">
        <ele>1166.7</ele>
        <time>2013-11-26T09:17:13Z</time>
      </trkpt>
      <trkpt lat="42.94645" lon="0.27839">
        <ele>1171.02</ele>
        <time>2013-11-26T09:17:27Z</time>
      </trkpt>
      <trkpt lat="42.94652" lon="0.27838">
        <ele>1170.54</ele>
        <time>2013-11-26T09:17:39Z</time>
      </trkpt>
      <trkpt lat="42.94655" lon="0.27836">
        <ele>1170.06</ele>
        <time>2013-11-26T09:17:50Z</time>
      </trkpt>
      <trkpt lat="42.94658" lon="0.27832">
        <ele>1170.54</ele>
        <time>2013-11-26T09:18:02Z</time>
      </trkpt>
      <trkpt lat="42.94667" lon="0.27828">
        <ele>1170.06</ele>
        <time>2013-11-26T09:18:14Z</time>
      </trkpt>
      <trkpt lat="42.94671" lon="0.27828">
        <ele>1169.58</ele>
        <time>2013-11-26T09:18:27Z</time>
      </trkpt>
      <trkpt lat="42.94678" lon="0.27827">
        <ele>1170.06</ele>
        <time>2013-11-26T09:18:39Z</time>
      </trkpt>
      <trkpt lat="42.94685" lon="0.27823">
        <ele>1172.95</ele>
        <time>2013-11-26T09:18:52Z</time>
      </trkpt>
      <trkpt lat="42.94688" lon="0.27821">
        <ele>1172.95</ele>
        <time>2013-11-26T09:19:10Z</time>
      </trkpt>
      <trkpt lat="42.94696" lon="0.27818">
        <ele>1172.47</ele>
        <time>2013-11-26T09:19:21Z</time>
      </trkpt>
      <trkpt lat="42.94703" lon="0.27814">
        <ele>1174.39</ele>
        <time>2013-11-26T09:19:33Z</time>
      </trkpt>
      <trkpt lat="42.94706" lon="0.27811">
        <ele>1173.91</ele>
        <time>2013-11-26T09:19:39Z</time>
      </trkpt>
      <trkpt lat="42.94714" lon="0.27807">
        <ele>1176.79</ele>
        <time>2013-11-26T09:19:53Z</time>
      </trkpt>
      <trkpt lat="42.94722" lon="0.27802">
        <ele>1176.31</ele>
        <time>2013-11-26T09:20:05Z</time>
      </trkpt>
      <trkpt lat="42.94727" lon="0.27796">
        <ele>1178.23</ele>
        <time>2013-11-26T09:20:17Z</time>
      </trkpt>
      <trkpt lat="42.94731" lon="0.2779">
        <ele>1178.23</ele>
        <time>2013-11-26T09:20:29Z</time>
      </trkpt>
      <trkpt lat="42.94736" lon="0.27785">
        <ele>1177.27</ele>
        <time>2013-11-26T09:20:42Z</time>
      </trkpt>
      <trkpt lat="42.94743" lon="0.27778">
        <ele>1176.31</ele>
        <time>2013-11-26T09:20:55Z</time>
      </trkpt>
      <trkpt lat="42.94746" lon="0.27774">
        <ele>1175.35</ele>
        <time>2013-11-26T09:21:07Z</time>
      </trkpt>
      <trkpt lat="42.94747" lon="0.27772">
        <ele>1174.87</ele>
        <time>2013-11-26T09:21:18Z</time>
      </trkpt>
      <trkpt lat="42.94751" lon="0.27766">
        <ele>1173.91</ele>
        <time>2013-11-26T09:21:25Z</time>
      </trkpt>
      <trkpt lat="42.94758" lon="0.27756">
        <ele>1172.47</ele>
        <time>2013-11-26T09:21:38Z</time>
      </trkpt>
      <trkpt lat="42.94759" lon="0.27753">
        <ele>1172.95</ele>
        <time>2013-11-26T09:21:41Z</time>
      </trkpt>
      <trkpt lat="42.94762" lon="0.27747">
        <ele>1171.98</ele>
        <time>2013-11-26T09:21:53Z</time>
      </trkpt>
      <trkpt lat="42.94767" lon="0.27739">
        <ele>1169.58</ele>
        <time>2013-11-26T09:22:06Z</time>
      </trkpt>
      <trkpt lat="42.94771" lon="0.27732">
        <ele>1169.58</ele>
        <time>2013-11-26T09:22:18Z</time>
      </trkpt>
      <trkpt lat="42.94776" lon="0.27729">
        <ele>1168.14</ele>
        <time>2013-11-26T09:22:30Z</time>
      </trkpt>
      <trkpt lat="42.9478" lon="0.27723">
        <ele>1167.66</ele>
        <time>2013-11-26T09:22:42Z</time>
      </trkpt>
      <trkpt lat="42.94783" lon="0.27719">
        <ele>1167.66</ele>
        <time>2013-11-26T09:22:53Z</time>
      </trkpt>
      <trkpt lat="42.94787" lon="0.27713">
        <ele>1167.18</ele>
        <time>2013-11-26T09:23:07Z</time>
      </trkpt>
      <trkpt lat="42.94789" lon="0.2771">
        <ele>1166.7</ele>
        <time>2013-11-26T09:23:19Z</time>
      </trkpt>
      <trkpt lat="42.94793" lon="0.27707">
        <ele>1166.22</ele>
        <time>2013-11-26T09:23:30Z</time>
      </trkpt>
      <trkpt lat="42.94801" lon="0.27698">
        <ele>1164.77</ele>
        <time>2013-11-26T09:23:42Z</time>
      </trkpt>
      <trkpt lat="42.94808" lon="0.27691">
        <ele>1163.81</ele>
        <time>2013-11-26T09:23:51Z</time>
      </trkpt>
      <trkpt lat="42.94815" lon="0.2768">
        <ele>1163.81</ele>
        <time>2013-11-26T09:24:03Z</time>
      </trkpt>
      <trkpt lat="42.9482" lon="0.27672">
        <ele>1164.77</ele>
        <time>2013-11-26T09:24:15Z</time>
      </trkpt>
      <trkpt lat="42.94822" lon="0.27669">
        <ele>1165.26</ele>
        <time>2013-11-26T09:24:19Z</time>
      </trkpt>
      <trkpt lat="42.94827" lon="0.27655">
        <ele>1167.18</ele>
        <time>2013-11-26T09:24:33Z</time>
      </trkpt>
      <trkpt lat="42.94829" lon="0.27644">
        <ele>1168.62</ele>
        <time>2013-11-26T09:24:46Z</time>
      </trkpt>
      <trkpt lat="42.94827" lon="0.27638">
        <ele>1167.66</ele>
        <time>2013-11-26T09:24:58Z</time>
      </trkpt>
      <trkpt lat="42.94827" lon="0.27629">
        <ele>1165.26</ele>
        <time>2013-11-26T09:25:10Z</time>
      </trkpt>
      <trkpt lat="42.94827" lon="0.27627">
        <ele>1164.77</ele>
        <time>2013-11-26T09:25:27Z</time>
      </trkpt>
      <trkpt lat="42.94826" lon="0.27625">
        <ele>1163.33</ele>
        <time>2013-11-26T09:25:37Z</time>
      </trkpt>
      <trkpt lat="42.94826" lon="0.27623">
        <ele>1163.33</ele>
        <time>2013-11-26T09:25:55Z</time>
      </trkpt>
      <trkpt lat="42.94825" lon="0.2762">
        <ele>1163.81</ele>
        <time>2013-11-26T09:26:06Z</time>
      </trkpt>
      <trkpt lat="42.94824" lon="0.27614">
        <ele>1162.85</ele>
        <time>2013-11-26T09:26:20Z</time>
      </trkpt>
      <trkpt lat="42.94824" lon="0.27608">
        <ele>1162.37</ele>
        <time>2013-11-26T09:26:27Z</time>
      </trkpt>
      <trkpt lat="42.94822" lon="0.27596">
        <ele>1163.33</ele>
        <time>2013-11-26T09:26:38Z</time>
      </trkpt>
      <trkpt lat="42.9482" lon="0.27583">
        <ele>1164.77</ele>
        <time>2013-11-26T09:26:50Z</time>
      </trkpt>
      <trkpt lat="42.94818" lon="0.27573">
        <ele>1163.33</ele>
        <time>2013-11-26T09:27:00Z</time>
      </trkpt>
      <trkpt lat="42.94821" lon="0.27568">
        <ele>1161.89</ele>
        <time>2013-11-26T09:27:10Z</time>
      </trkpt>
      <trkpt lat="42.9482" lon="0.27561">
        <ele>1162.37</ele>
        <time>2013-11-26T09:27:19Z</time>
      </trkpt>
      <trkpt lat="42.9482" lon="0.27557">
        <ele>1162.85</ele>
        <time>2013-11-26T09:27:34Z</time>
      </trkpt>
      <trkpt lat="42.94819" lon="0.27555">
        <ele>1162.85</ele>
        <time>2013-11-26T09:27:52Z</time>
      </trkpt>
      <trkpt lat="42.94819" lon="0.27552">
        <ele>1161.89</ele>
        <time>2013-11-26T09:28:05Z</time>
      </trkpt>
      <trkpt lat="42.94819" lon="0.27549">
        <ele>1161.89</ele>
        <time>2013-11-26T09:28:25Z</time>
      </trkpt>
      <trkpt lat="42.94818" lon="0.27546">
        <ele>1161.41</ele>
        <time>2013-11-26T09:28:45Z</time>
      </trkpt>
      <trkpt lat="42.94817" lon="0.27543">
        <ele>1161.41</ele>
        <time>2013-11-26T09:29:02Z</time>
      </trkpt>
      <trkpt lat="42.94815" lon="0.27541">
        <ele>1161.41</ele>
        <time>2013-11-26T09:29:28Z</time>
      </trkpt>
      <trkpt lat="42.94814" lon="0.27539">
        <ele>1161.41</ele>
        <time>2013-11-26T09:29:44Z</time>
      </trkpt>
      <trkpt lat="42.94814" lon="0.27538">
        <ele>1161.41</ele>
        <time>2013-11-26T09:29:55Z</time>
      </trkpt>
      <trkpt lat="42.94813" lon="0.27536">
        <ele>1161.41</ele>
        <time>2013-11-26T09:30:19Z</time>
      </trkpt>
      <trkpt lat="42.9481" lon="0.27527">
        <ele>1162.37</ele>
        <time>2013-11-26T09:30:28Z</time>
      </trkpt>
      <trkpt lat="42.94804" lon="0.27513">
        <ele>1163.81</ele>
        <time>2013-11-26T09:30:41Z</time>
      </trkpt>
      <trkpt lat="42.94803" lon="0.2751">
        <ele>1163.81</ele>
        <time>2013-11-26T09:30:44Z</time>
      </trkpt>
      <trkpt lat="42.94796" lon="0.27497">
        <ele>1162.37</ele>
        <time>2013-11-26T09:30:58Z</time>
      </trkpt>
      <trkpt lat="42.94797" lon="0.27488">
        <ele>1163.81</ele>
        <time>2013-11-26T09:31:12Z</time>
      </trkpt>
      <trkpt lat="42.94797" lon="0.27482">
        <ele>1162.85</ele>
        <time>2013-11-26T09:31:26Z</time>
      </trkpt>
      <trkpt lat="42.94797" lon="0.27481">
        <ele>1161.41</ele>
        <time>2013-11-26T09:31:42Z</time>
      </trkpt>
      <trkpt lat="42.94797" lon="0.27481">
        <ele>1161.41</ele>
        <time>2013-11-26T09:32:14Z</time>
      </trkpt>
      <trkpt lat="42.94797" lon="0.27481">
        <ele>1160.93</ele>
        <time>2013-11-26T09:32:43Z</time>
      </trkpt>
      <trkpt lat="42.94797" lon="0.27482">
        <ele>1160.45</ele>
        <time>2013-11-26T09:32:59Z</time>
      </trkpt>
      <trkpt lat="42.94797" lon="0.27482">
        <ele>1160.93</ele>
        <time>2013-11-26T09:33:14Z</time>
      </trkpt>
      <trkpt lat="42.94796" lon="0.27484">
        <ele>1160.93</ele>
        <time>2013-11-26T09:33:22Z</time>
      </trkpt>
      <trkpt lat="42.94797" lon="0.27487">
        <ele>1161.41</ele>
        <time>2013-11-26T09:33:37Z</time>
      </trkpt>
      <trkpt lat="42.94798" lon="0.27483">
        <ele>1160.93</ele>
        <time>2013-11-26T09:33:50Z</time>
      </trkpt>
      <trkpt lat="42.94797" lon="0.27482">
        <ele>1160.93</ele>
        <time>2013-11-26T09:34:02Z</time>
      </trkpt>
      <trkpt lat="42.94797" lon="0.27482">
        <ele>1160.93</ele>
        <time>2013-11-26T09:34:18Z</time>
      </trkpt>
      <trkpt lat="42.94797" lon="0.27481">
        <ele>1160.93</ele>
        <time>2013-11-26T09:34:34Z</time>
      </trkpt>
      <trkpt lat="42.94798" lon="0.27482">
        <ele>1160.93</ele>
        <time>2013-11-26T09:35:04Z</time>
      </trkpt>
      <trkpt lat="42.94798" lon="0.27482">
        <ele>1160.93</ele>
        <time>2013-11-26T09:35:33Z</time>
      </trkpt>
      <trkpt lat="42.94798" lon="0.27482">
        <ele>1160.93</ele>
        <time>2013-11-26T09:35:55Z</time>
      </trkpt>
      <trkpt lat="42.94798" lon="0.27481">
        <ele>1160.93</ele>
        <time>2013-11-26T09:36:20Z</time>
      </trkpt>
      <trkpt lat="42.94798" lon="0.27481">
        <ele>1160.93</ele>
        <time>2013-11-26T09:36:46Z</time>
      </trkpt>
      <trkpt lat="42.94798" lon="0.27481">
        <ele>1160.93</ele>
        <time>2013-11-26T09:37:08Z</time>
      </trkpt>
      <trkpt lat="42.94798" lon="0.27481">
        <ele>1160.93</ele>
        <time>2013-11-26T09:37:32Z</time>
      </trkpt>
      <trkpt lat="42.94798" lon="0.27481">
        <ele>1160.93</ele>
        <time>2013-11-26T09:37:50Z</time>
      </trkpt>
      <trkpt lat="42.94798" lon="0.27479">
        <ele>1160.45</ele>
        <time>2013-11-26T09:38:17Z</time>
      </trkpt>
      <trkpt lat="42.94798" lon="0.27471">
        <ele>1160.93</ele>
        <time>2013-11-26T09:38:29Z</time>
      </trkpt>
      <trkpt lat="42.94799" lon="0.27465">
        <ele>1160.45</ele>
        <time>2013-11-26T09:38:41Z</time>
      </trkpt>
      <trkpt lat="42.948" lon="0.2746">
        <ele>1159.97</ele>
        <time>2013-11-26T09:38:55Z</time>
      </trkpt>
      <trkpt lat="42.948" lon="0.27455">
        <ele>1159.97</ele>
        <time>2013-11-26T09:39:07Z</time>
      </trkpt>
      <trkpt lat="42.94802" lon="0.27454">
        <ele>1159.97</ele>
        <time>2013-11-26T09:39:19Z</time>
      </trkpt>
      <trkpt lat="42.94808" lon="0.27449">
        <ele>1160.93</ele>
        <time>2013-11-26T09:39:31Z</time>
      </trkpt>
      <trkpt lat="42.94811" lon="0.27451">
        <ele>1163.33</ele>
        <time>2013-11-26T09:39:45Z</time>
      </trkpt>
      <trkpt lat="42.94812" lon="0.27457">
        <ele>1164.77</ele>
        <time>2013-11-26T09:39:54Z</time>
      </trkpt>
      <trkpt lat="42.94814" lon="0.27465">
        <ele>1166.7</ele>
        <time>2013-11-26T09:40:06Z</time>
      </trkpt>
      <trkpt lat="42.94818" lon="0.27464">
        <ele>1167.18</ele>
        <time>2013-11-26T09:40:20Z</time>
      </trkpt>
      <trkpt lat="42.9482" lon="0.27464">
        <ele>1167.66</ele>
        <time>2013-11-26T09:40:35Z</time>
      </trkpt>
      <trkpt lat="42.94822" lon="0.27463">
        <ele>1168.14</ele>
        <time>2013-11-26T09:40:52Z</time>
      </trkpt>
      <trkpt lat="42.94831" lon="0.27465">
        <ele>1170.54</ele>
        <time>2013-11-26T09:41:05Z</time>
      </trkpt>
      <trkpt lat="42.94836" lon="0.27469">
        <ele>1171.98</ele>
        <time>2013-11-26T09:41:17Z</time>
      </trkpt>
      <trkpt lat="42.94842" lon="0.27475">
        <ele>1173.91</ele>
        <time>2013-11-26T09:41:30Z</time>
      </trkpt>
      <trkpt lat="42.94844" lon="0.27477">
        <ele>1173.91</ele>
        <time>2013-11-26T09:41:41Z</time>
      </trkpt>
      <trkpt lat="42.94847" lon="0.2748">
        <ele>1175.35</ele>
        <time>2013-11-26T09:41:52Z</time>
      </trkpt>
      <trkpt lat="42.94848" lon="0.27481">
        <ele>1176.31</ele>
        <time>2013-11-26T09:42:00Z</time>
      </trkpt>
      <trkpt lat="42.94853" lon="0.27486">
        <ele>1178.23</ele>
        <time>2013-11-26T09:42:11Z</time>
      </trkpt>
      <trkpt lat="42.94859" lon="0.27492">
        <ele>1179.67</ele>
        <time>2013-11-26T09:42:29Z</time>
      </trkpt>
      <trkpt lat="42.9486" lon="0.27493">
        <ele>1180.64</ele>
        <time>2013-11-26T09:42:44Z</time>
      </trkpt>
      <trkpt lat="42.94867" lon="0.275">
        <ele>1182.08</ele>
        <time>2013-11-26T09:42:56Z</time>
      </trkpt>
      <trkpt lat="42.94868" lon="0.27508">
        <ele>1184</ele>
        <time>2013-11-26T09:43:10Z</time>
      </trkpt>
      <trkpt lat="42.94872" lon="0.27509">
        <ele>1185.44</ele>
        <time>2013-11-26T09:43:28Z</time>
      </trkpt>
      <trkpt lat="42.94873" lon="0.27518">
        <ele>1187.37</ele>
        <time>2013-11-26T09:43:41Z</time>
      </trkpt>
      <trkpt lat="42.94877" lon="0.27519">
        <ele>1187.37</ele>
        <time>2013-11-26T09:43:55Z</time>
      </trkpt>
      <trkpt lat="42.94877" lon="0.27519">
        <ele>1187.37</ele>
        <time>2013-11-26T09:44:08Z</time>
      </trkpt>
      <trkpt lat="42.94877" lon="0.27519">
        <ele>1187.37</ele>
        <time>2013-11-26T09:44:35Z</time>
      </trkpt>
      <trkpt lat="42.9488" lon="0.2752">
        <ele>1188.33</ele>
        <time>2013-11-26T09:44:49Z</time>
      </trkpt>
      <trkpt lat="42.94884" lon="0.2753">
        <ele>1189.29</ele>
        <time>2013-11-26T09:45:01Z</time>
      </trkpt>
      <trkpt lat="42.94893" lon="0.27528">
        <ele>1191.21</ele>
        <time>2013-11-26T09:45:13Z</time>
      </trkpt>
      <trkpt lat="42.94898" lon="0.27535">
        <ele>1192.65</ele>
        <time>2013-11-26T09:45:24Z</time>
      </trkpt>
      <trkpt lat="42.949" lon="0.27542">
        <ele>1194.09</ele>
        <time>2013-11-26T09:45:37Z</time>
      </trkpt>
      <trkpt lat="42.94899" lon="0.27548">
        <ele>1195.06</ele>
        <time>2013-11-26T09:45:43Z</time>
      </trkpt>
      <trkpt lat="42.94899" lon="0.27553">
        <ele>1195.06</ele>
        <time>2013-11-26T09:45:55Z</time>
      </trkpt>
      <trkpt lat="42.949" lon="0.27553">
        <ele>1194.58</ele>
        <time>2013-11-26T09:46:10Z</time>
      </trkpt>
      <trkpt lat="42.94901" lon="0.27552">
        <ele>1194.58</ele>
        <time>2013-11-26T09:46:26Z</time>
      </trkpt>
      <trkpt lat="42.94904" lon="0.27546">
        <ele>1194.58</ele>
        <time>2013-11-26T09:46:35Z</time>
      </trkpt>
      <trkpt lat="42.94908" lon="0.27548">
        <ele>1195.06</ele>
        <time>2013-11-26T09:46:39Z</time>
      </trkpt>
      <trkpt lat="42.94915" lon="0.27553">
        <ele>1197.94</ele>
        <time>2013-11-26T09:46:50Z</time>
      </trkpt>
      <trkpt lat="42.94915" lon="0.27561">
        <ele>1199.38</ele>
        <time>2013-11-26T09:46:56Z</time>
      </trkpt>
      <trkpt lat="42.94923" lon="0.27566">
        <ele>1201.3</ele>
        <time>2013-11-26T09:47:09Z</time>
      </trkpt>
      <trkpt lat="42.94924" lon="0.27566">
        <ele>1201.79</ele>
        <time>2013-11-26T09:47:11Z</time>
      </trkpt>
      <trkpt lat="42.9493" lon="0.27571">
        <ele>1203.23</ele>
        <time>2013-11-26T09:47:24Z</time>
      </trkpt>
      <trkpt lat="42.94936" lon="0.27576">
        <ele>1204.67</ele>
        <time>2013-11-26T09:47:37Z</time>
      </trkpt>
      <trkpt lat="42.94939" lon="0.27583">
        <ele>1206.59</ele>
        <time>2013-11-26T09:47:49Z</time>
      </trkpt>
      <trkpt lat="42.94939" lon="0.27594">
        <ele>1207.07</ele>
        <time>2013-11-26T09:48:02Z</time>
      </trkpt>
      <trkpt lat="42.94943" lon="0.27601">
        <ele>1208.03</ele>
        <time>2013-11-26T09:48:14Z</time>
      </trkpt>
      <trkpt lat="42.94952" lon="0.276">
        <ele>1209.48</ele>
        <time>2013-11-26T09:48:28Z</time>
      </trkpt>
      <trkpt lat="42.94957" lon="0.27599">
        <ele>1210.92</ele>
        <time>2013-11-26T09:48:40Z</time>
      </trkpt>
      <trkpt lat="42.94959" lon="0.27599">
        <ele>1210.92</ele>
        <time>2013-11-26T09:48:51Z</time>
      </trkpt>
      <trkpt lat="42.94959" lon="0.27605">
        <ele>1210.92</ele>
        <time>2013-11-26T09:48:59Z</time>
      </trkpt>
      <trkpt lat="42.94959" lon="0.27611">
        <ele>1212.36</ele>
        <time>2013-11-26T09:49:12Z</time>
      </trkpt>
      <trkpt lat="42.94965" lon="0.27613">
        <ele>1213.32</ele>
        <time>2013-11-26T09:49:28Z</time>
      </trkpt>
      <trkpt lat="42.94968" lon="0.27619">
        <ele>1214.28</ele>
        <time>2013-11-26T09:49:39Z</time>
      </trkpt>
      <trkpt lat="42.94973" lon="0.27621">
        <ele>1215.24</ele>
        <time>2013-11-26T09:49:53Z</time>
      </trkpt>
      <trkpt lat="42.94976" lon="0.2762">
        <ele>1216.21</ele>
        <time>2013-11-26T09:50:08Z</time>
      </trkpt>
      <trkpt lat="42.94978" lon="0.27623">
        <ele>1216.69</ele>
        <time>2013-11-26T09:50:20Z</time>
      </trkpt>
      <trkpt lat="42.94977" lon="0.27633">
        <ele>1219.09</ele>
        <time>2013-11-26T09:50:32Z</time>
      </trkpt>
      <trkpt lat="42.94981" lon="0.27639">
        <ele>1221.49</ele>
        <time>2013-11-26T09:50:44Z</time>
      </trkpt>
      <trkpt lat="42.9499" lon="0.2764">
        <ele>1222.45</ele>
        <time>2013-11-26T09:50:58Z</time>
      </trkpt>
      <trkpt lat="42.9499" lon="0.2765">
        <ele>1223.9</ele>
        <time>2013-11-26T09:51:12Z</time>
      </trkpt>
      <trkpt lat="42.94989" lon="0.27656">
        <ele>1225.34</ele>
        <time>2013-11-26T09:51:24Z</time>
      </trkpt>
      <trkpt lat="42.94991" lon="0.27659">
        <ele>1225.82</ele>
        <time>2013-11-26T09:51:38Z</time>
      </trkpt>
      <trkpt lat="42.94991" lon="0.27659">
        <ele>1225.82</ele>
        <time>2013-11-26T09:52:02Z</time>
      </trkpt>
      <trkpt lat="42.94991" lon="0.27664">
        <ele>1226.78</ele>
        <time>2013-11-26T09:52:18Z</time>
      </trkpt>
      <trkpt lat="42.94991" lon="0.27664">
        <ele>1226.78</ele>
        <time>2013-11-26T09:52:42Z</time>
      </trkpt>
      <trkpt lat="42.94991" lon="0.27665">
        <ele>1226.78</ele>
        <time>2013-11-26T09:53:05Z</time>
      </trkpt>
      <trkpt lat="42.9499" lon="0.27665">
        <ele>1226.3</ele>
        <time>2013-11-26T09:53:23Z</time>
      </trkpt>
      <trkpt lat="42.9499" lon="0.27665">
        <ele>1225.82</ele>
        <time>2013-11-26T09:53:44Z</time>
      </trkpt>
      <trkpt lat="42.9499" lon="0.27665">
        <ele>1225.82</ele>
        <time>2013-11-26T09:54:16Z</time>
      </trkpt>
      <trkpt lat="42.94991" lon="0.27666">
        <ele>1225.82</ele>
        <time>2013-11-26T09:54:29Z</time>
      </trkpt>
      <trkpt lat="42.94991" lon="0.27666">
        <ele>1225.82</ele>
        <time>2013-11-26T09:54:50Z</time>
      </trkpt>
      <trkpt lat="42.94991" lon="0.27667">
        <ele>1225.82</ele>
        <time>2013-11-26T09:55:07Z</time>
      </trkpt>
      <trkpt lat="42.94993" lon="0.27669">
        <ele>1226.78</ele>
        <time>2013-11-26T09:55:19Z</time>
      </trkpt>
      <trkpt lat="42.94997" lon="0.27668">
        <ele>1226.78</ele>
        <time>2013-11-26T09:55:31Z</time>
      </trkpt>
      <trkpt lat="42.95" lon="0.27668">
        <ele>1227.74</ele>
        <time>2013-11-26T09:55:41Z</time>
      </trkpt>
      <trkpt lat="42.95003" lon="0.2767">
        <ele>1228.22</ele>
        <time>2013-11-26T09:55:53Z</time>
      </trkpt>
      <trkpt lat="42.95006" lon="0.27672">
        <ele>1229.18</ele>
        <time>2013-11-26T09:56:05Z</time>
      </trkpt>
      <trkpt lat="42.95011" lon="0.27674">
        <ele>1230.62</ele>
        <time>2013-11-26T09:56:16Z</time>
      </trkpt>
      <trkpt lat="42.9501" lon="0.27676">
        <ele>1231.59</ele>
        <time>2013-11-26T09:56:27Z</time>
      </trkpt>
      <trkpt lat="42.9501" lon="0.27678">
        <ele>1233.03</ele>
        <time>2013-11-26T09:56:40Z</time>
      </trkpt>
      <trkpt lat="42.95011" lon="0.2768">
        <ele>1233.03</ele>
        <time>2013-11-26T09:56:57Z</time>
      </trkpt>
      <trkpt lat="42.95014" lon="0.27684">
        <ele>1233.03</ele>
        <time>2013-11-26T09:57:13Z</time>
      </trkpt>
      <trkpt lat="42.95015" lon="0.27686">
        <ele>1233.51</ele>
        <time>2013-11-26T09:57:28Z</time>
      </trkpt>
      <trkpt lat="42.95017" lon="0.27688">
        <ele>1234.47</ele>
        <time>2013-11-26T09:57:44Z</time>
      </trkpt>
      <trkpt lat="42.95018" lon="0.2769">
        <ele>1235.43</ele>
        <time>2013-11-26T09:57:59Z</time>
      </trkpt>
      <trkpt lat="42.95019" lon="0.27694">
        <ele>1236.39</ele>
        <time>2013-11-26T09:58:16Z</time>
      </trkpt>
      <trkpt lat="42.9502" lon="0.27696">
        <ele>1236.39</ele>
        <time>2013-11-26T09:58:29Z</time>
      </trkpt>
      <trkpt lat="42.95022" lon="0.277">
        <ele>1237.35</ele>
        <time>2013-11-26T09:58:41Z</time>
      </trkpt>
      <trkpt lat="42.95022" lon="0.27705">
        <ele>1238.8</ele>
        <time>2013-11-26T09:58:54Z</time>
      </trkpt>
      <trkpt lat="42.95022" lon="0.27715">
        <ele>1240.24</ele>
        <time>2013-11-26T09:59:07Z</time>
      </trkpt>
      <trkpt lat="42.95024" lon="0.27718">
        <ele>1240.24</ele>
        <time>2013-11-26T09:59:19Z</time>
      </trkpt>
      <trkpt lat="42.95025" lon="0.27722">
        <ele>1241.2</ele>
        <time>2013-11-26T09:59:31Z</time>
      </trkpt>
      <trkpt lat="42.95026" lon="0.27729">
        <ele>1242.64</ele>
        <time>2013-11-26T09:59:43Z</time>
      </trkpt>
      <trkpt lat="42.95029" lon="0.2773">
        <ele>1242.64</ele>
        <time>2013-11-26T09:59:57Z</time>
      </trkpt>
      <trkpt lat="42.95031" lon="0.27734">
        <ele>1243.12</ele>
        <time>2013-11-26T10:00:09Z</time>
      </trkpt>
      <trkpt lat="42.95033" lon="0.27737">
        <ele>1244.08</ele>
        <time>2013-11-26T10:00:23Z</time>
      </trkpt>
      <trkpt lat="42.95037" lon="0.27739">
        <ele>1244.56</ele>
        <time>2013-11-26T10:00:35Z</time>
      </trkpt>
      <trkpt lat="42.95041" lon="0.27739">
        <ele>1245.04</ele>
        <time>2013-11-26T10:00:45Z</time>
      </trkpt>
      <trkpt lat="42.95045" lon="0.27741">
        <ele>1245.53</ele>
        <time>2013-11-26T10:00:57Z</time>
      </trkpt>
      <trkpt lat="42.95049" lon="0.27742">
        <ele>1246.97</ele>
        <time>2013-11-26T10:01:09Z</time>
      </trkpt>
      <trkpt lat="42.95052" lon="0.27744">
        <ele>1248.41</ele>
        <time>2013-11-26T10:01:28Z</time>
      </trkpt>
      <trkpt lat="42.95055" lon="0.27751">
        <ele>1250.33</ele>
        <time>2013-11-26T10:01:40Z</time>
      </trkpt>
      <trkpt lat="42.95055" lon="0.27754">
        <ele>1252.25</ele>
        <time>2013-11-26T10:01:53Z</time>
      </trkpt>
      <trkpt lat="42.95055" lon="0.27759">
        <ele>1253.7</ele>
        <time>2013-11-26T10:02:04Z</time>
      </trkpt>
      <trkpt lat="42.95055" lon="0.27761">
        <ele>1254.66</ele>
        <time>2013-11-26T10:02:15Z</time>
      </trkpt>
      <trkpt lat="42.95056" lon="0.27764">
        <ele>1256.1</ele>
        <time>2013-11-26T10:02:31Z</time>
      </trkpt>
      <trkpt lat="42.95057" lon="0.27764">
        <ele>1256.1</ele>
        <time>2013-11-26T10:02:33Z</time>
      </trkpt>
      <trkpt lat="42.95059" lon="0.27769">
        <ele>1257.54</ele>
        <time>2013-11-26T10:02:46Z</time>
      </trkpt>
      <trkpt lat="42.95057" lon="0.27774">
        <ele>1258.02</ele>
        <time>2013-11-26T10:02:58Z</time>
      </trkpt>
      <trkpt lat="42.95056" lon="0.27774">
        <ele>1258.5</ele>
        <time>2013-11-26T10:03:12Z</time>
      </trkpt>
      <trkpt lat="42.95055" lon="0.27775">
        <ele>1258.5</ele>
        <time>2013-11-26T10:03:28Z</time>
      </trkpt>
      <trkpt lat="42.95051" lon="0.27779">
        <ele>1258.02</ele>
        <time>2013-11-26T10:03:43Z</time>
      </trkpt>
      <trkpt lat="42.9505" lon="0.27785">
        <ele>1260.43</ele>
        <time>2013-11-26T10:03:57Z</time>
      </trkpt>
      <trkpt lat="42.95049" lon="0.2779">
        <ele>1261.39</ele>
        <time>2013-11-26T10:04:17Z</time>
      </trkpt>
      <trkpt lat="42.95048" lon="0.27796">
        <ele>1262.35</ele>
        <time>2013-11-26T10:04:30Z</time>
      </trkpt>
      <trkpt lat="42.95048" lon="0.278">
        <ele>1263.31</ele>
        <time>2013-11-26T10:04:48Z</time>
      </trkpt>
      <trkpt lat="42.95047" lon="0.27801">
        <ele>1263.31</ele>
        <time>2013-11-26T10:04:50Z</time>
      </trkpt>
      <trkpt lat="42.95045" lon="0.27806">
        <ele>1264.27</ele>
        <time>2013-11-26T10:04:57Z</time>
      </trkpt>
      <trkpt lat="42.95046" lon="0.2781">
        <ele>1263.31</ele>
        <time>2013-11-26T10:05:09Z</time>
      </trkpt>
      <trkpt lat="42.95046" lon="0.2781">
        <ele>1263.31</ele>
        <time>2013-11-26T10:05:26Z</time>
      </trkpt>
      <trkpt lat="42.95045" lon="0.27809">
        <ele>1263.79</ele>
        <time>2013-11-26T10:05:42Z</time>
      </trkpt>
      <trkpt lat="42.95042" lon="0.27814">
        <ele>1264.75</ele>
        <time>2013-11-26T10:05:54Z</time>
      </trkpt>
      <trkpt lat="42.95042" lon="0.27817">
        <ele>1264.75</ele>
        <time>2013-11-26T10:06:06Z</time>
      </trkpt>
      <trkpt lat="42.95042" lon="0.27817">
        <ele>1264.75</ele>
        <time>2013-11-26T10:06:28Z</time>
      </trkpt>
      <trkpt lat="42.95042" lon="0.27818">
        <ele>1264.75</ele>
        <time>2013-11-26T10:06:45Z</time>
      </trkpt>
      <trkpt lat="42.95041" lon="0.2782">
        <ele>1265.23</ele>
        <time>2013-11-26T10:06:55Z</time>
      </trkpt>
      <trkpt lat="42.95041" lon="0.2782">
        <ele>1265.23</ele>
        <time>2013-11-26T10:06:56Z</time>
      </trkpt>
      <trkpt lat="42.9504" lon="0.27826">
        <ele>1266.19</ele>
        <time>2013-11-26T10:07:07Z</time>
      </trkpt>
      <trkpt lat="42.95041" lon="0.2783">
        <ele>1266.67</ele>
        <time>2013-11-26T10:07:19Z</time>
      </trkpt>
      <trkpt lat="42.95041" lon="0.2783">
        <ele>1266.67</ele>
        <time>2013-11-26T10:07:36Z</time>
      </trkpt>
      <trkpt lat="42.95041" lon="0.2783">
        <ele>1266.67</ele>
        <time>2013-11-26T10:07:52Z</time>
      </trkpt>
      <trkpt lat="42.95042" lon="0.27831">
        <ele>1266.67</ele>
        <time>2013-11-26T10:08:08Z</time>
      </trkpt>
      <trkpt lat="42.95044" lon="0.27831">
        <ele>1267.16</ele>
        <time>2013-11-26T10:08:18Z</time>
      </trkpt>
      <trkpt lat="42.95045" lon="0.27833">
        <ele>1267.16</ele>
        <time>2013-11-26T10:08:37Z</time>
      </trkpt>
      <trkpt lat="42.95046" lon="0.27838">
        <ele>1267.64</ele>
        <time>2013-11-26T10:08:43Z</time>
      </trkpt>
      <trkpt lat="42.95049" lon="0.27846">
        <ele>1268.12</ele>
        <time>2013-11-26T10:08:58Z</time>
      </trkpt>
      <trkpt lat="42.95049" lon="0.27851">
        <ele>1269.08</ele>
        <time>2013-11-26T10:09:14Z</time>
      </trkpt>
      <trkpt lat="42.95049" lon="0.27861">
        <ele>1270.04</ele>
        <time>2013-11-26T10:09:25Z</time>
      </trkpt>
      <trkpt lat="42.95059" lon="0.27868">
        <ele>1267.64</ele>
        <time>2013-11-26T10:09:37Z</time>
      </trkpt>
      <trkpt lat="42.95059" lon="0.27872">
        <ele>1267.16</ele>
        <time>2013-11-26T10:09:40Z</time>
      </trkpt>
      <trkpt lat="42.95056" lon="0.27884">
        <ele>1268.6</ele>
        <time>2013-11-26T10:09:55Z</time>
      </trkpt>
      <trkpt lat="42.95056" lon="0.27894">
        <ele>1268.6</ele>
        <time>2013-11-26T10:10:07Z</time>
      </trkpt>
      <trkpt lat="42.95055" lon="0.27896">
        <ele>1269.08</ele>
        <time>2013-11-26T10:10:22Z</time>
      </trkpt>
      <trkpt lat="42.95055" lon="0.27907">
        <ele>1270.04</ele>
        <time>2013-11-26T10:10:37Z</time>
      </trkpt>
      <trkpt lat="42.95055" lon="0.27909">
        <ele>1270.04</ele>
        <time>2013-11-26T10:10:38Z</time>
      </trkpt>
      <trkpt lat="42.95057" lon="0.27923">
        <ele>1271</ele>
        <time>2013-11-26T10:10:50Z</time>
      </trkpt>
      <trkpt lat="42.95059" lon="0.27934">
        <ele>1272.92</ele>
        <time>2013-11-26T10:11:03Z</time>
      </trkpt>
      <trkpt lat="42.9506" lon="0.27943">
        <ele>1274.36</ele>
        <time>2013-11-26T10:11:17Z</time>
      </trkpt>
      <trkpt lat="42.95063" lon="0.27948">
        <ele>1273.88</ele>
        <time>2013-11-26T10:11:31Z</time>
      </trkpt>
      <trkpt lat="42.95063" lon="0.27948">
        <ele>1273.88</ele>
        <time>2013-11-26T10:11:46Z</time>
      </trkpt>
      <trkpt lat="42.95065" lon="0.27947">
        <ele>1273.4</ele>
        <time>2013-11-26T10:11:59Z</time>
      </trkpt>
      <trkpt lat="42.95068" lon="0.27946">
        <ele>1273.88</ele>
        <time>2013-11-26T10:12:03Z</time>
      </trkpt>
      <trkpt lat="42.95072" lon="0.27938">
        <ele>1271.96</ele>
        <time>2013-11-26T10:12:15Z</time>
      </trkpt>
      <trkpt lat="42.95072" lon="0.27937">
        <ele>1271.96</ele>
        <time>2013-11-26T10:12:28Z</time>
      </trkpt>
      <trkpt lat="42.95071" lon="0.27945">
        <ele>1273.88</ele>
        <time>2013-11-26T10:12:38Z</time>
      </trkpt>
      <trkpt lat="42.95064" lon="0.27948">
        <ele>1273.4</ele>
        <time>2013-11-26T10:12:53Z</time>
      </trkpt>
      <trkpt lat="42.95064" lon="0.2795">
        <ele>1273.88</ele>
        <time>2013-11-26T10:13:09Z</time>
      </trkpt>
      <trkpt lat="42.95064" lon="0.2795">
        <ele>1273.88</ele>
        <time>2013-11-26T10:13:29Z</time>
      </trkpt>
      <trkpt lat="42.95067" lon="0.27957">
        <ele>1273.88</ele>
        <time>2013-11-26T10:13:55Z</time>
      </trkpt>
      <trkpt lat="42.95071" lon="0.27968">
        <ele>1274.85</ele>
        <time>2013-11-26T10:14:09Z</time>
      </trkpt>
      <trkpt lat="42.95073" lon="0.27977">
        <ele>1276.29</ele>
        <time>2013-11-26T10:14:20Z</time>
      </trkpt>
      <trkpt lat="42.95076" lon="0.27983">
        <ele>1277.25</ele>
        <time>2013-11-26T10:14:30Z</time>
      </trkpt>
      <trkpt lat="42.9508" lon="0.27988">
        <ele>1278.21</ele>
        <time>2013-11-26T10:14:42Z</time>
      </trkpt>
      <trkpt lat="42.95086" lon="0.27992">
        <ele>1277.73</ele>
        <time>2013-11-26T10:14:53Z</time>
      </trkpt>
      <trkpt lat="42.9509" lon="0.27997">
        <ele>1278.69</ele>
        <time>2013-11-26T10:15:04Z</time>
      </trkpt>
      <trkpt lat="42.95094" lon="0.28002">
        <ele>1279.65</ele>
        <time>2013-11-26T10:15:17Z</time>
      </trkpt>
      <trkpt lat="42.95097" lon="0.28007">
        <ele>1280.61</ele>
        <time>2013-11-26T10:15:30Z</time>
      </trkpt>
      <trkpt lat="42.95101" lon="0.28014">
        <ele>1282.54</ele>
        <time>2013-11-26T10:15:44Z</time>
      </trkpt>
      <trkpt lat="42.95104" lon="0.28022">
        <ele>1283.98</ele>
        <time>2013-11-26T10:15:59Z</time>
      </trkpt>
      <trkpt lat="42.95106" lon="0.28029">
        <ele>1284.46</ele>
        <time>2013-11-26T10:16:10Z</time>
      </trkpt>
      <trkpt lat="42.95107" lon="0.28034">
        <ele>1285.9</ele>
        <time>2013-11-26T10:16:20Z</time>
      </trkpt>
      <trkpt lat="42.95109" lon="0.28041">
        <ele>1287.34</ele>
        <time>2013-11-26T10:16:33Z</time>
      </trkpt>
      <trkpt lat="42.9511" lon="0.28049">
        <ele>1287.82</ele>
        <time>2013-11-26T10:16:46Z</time>
      </trkpt>
      <trkpt lat="42.95112" lon="0.28054">
        <ele>1290.23</ele>
        <time>2013-11-26T10:17:01Z</time>
      </trkpt>
      <trkpt lat="42.95113" lon="0.28061">
        <ele>1291.67</ele>
        <time>2013-11-26T10:17:13Z</time>
      </trkpt>
      <trkpt lat="42.95115" lon="0.28064">
        <ele>1291.67</ele>
        <time>2013-11-26T10:17:26Z</time>
      </trkpt>
      <trkpt lat="42.95118" lon="0.2807">
        <ele>1292.63</ele>
        <time>2013-11-26T10:17:40Z</time>
      </trkpt>
      <trkpt lat="42.95122" lon="0.28077">
        <ele>1293.59</ele>
        <time>2013-11-26T10:17:52Z</time>
      </trkpt>
      <trkpt lat="42.95124" lon="0.28079">
        <ele>1294.07</ele>
        <time>2013-11-26T10:18:07Z</time>
      </trkpt>
      <trkpt lat="42.95124" lon="0.28088">
        <ele>1296.48</ele>
        <time>2013-11-26T10:18:30Z</time>
      </trkpt>
      <trkpt lat="42.95122" lon="0.28096">
        <ele>1297.92</ele>
        <time>2013-11-26T10:18:43Z</time>
      </trkpt>
      <trkpt lat="42.95122" lon="0.28102">
        <ele>1299.36</ele>
        <time>2013-11-26T10:18:56Z</time>
      </trkpt>
      <trkpt lat="42.95124" lon="0.28108">
        <ele>1300.32</ele>
        <time>2013-11-26T10:19:08Z</time>
      </trkpt>
      <trkpt lat="42.95127" lon="0.2811">
        <ele>1300.8</ele>
        <time>2013-11-26T10:19:19Z</time>
      </trkpt>
      <trkpt lat="42.95129" lon="0.28111">
        <ele>1301.28</ele>
        <time>2013-11-26T10:19:30Z</time>
      </trkpt>
      <trkpt lat="42.9513" lon="0.28111">
        <ele>1301.28</ele>
        <time>2013-11-26T10:19:50Z</time>
      </trkpt>
      <trkpt lat="42.95133" lon="0.28114">
        <ele>1303.2</ele>
        <time>2013-11-26T10:20:06Z</time>
      </trkpt>
      <trkpt lat="42.95135" lon="0.28116">
        <ele>1303.69</ele>
        <time>2013-11-26T10:20:18Z</time>
      </trkpt>
      <trkpt lat="42.95136" lon="0.28121">
        <ele>1304.17</ele>
        <time>2013-11-26T10:20:36Z</time>
      </trkpt>
      <trkpt lat="42.95137" lon="0.28122">
        <ele>1304.65</ele>
        <time>2013-11-26T10:20:54Z</time>
      </trkpt>
      <trkpt lat="42.95135" lon="0.28127">
        <ele>1306.09</ele>
        <time>2013-11-26T10:21:14Z</time>
      </trkpt>
      <trkpt lat="42.95135" lon="0.2813">
        <ele>1306.57</ele>
        <time>2013-11-26T10:21:17Z</time>
      </trkpt>
      <trkpt lat="42.95134" lon="0.28138">
        <ele>1309.45</ele>
        <time>2013-11-26T10:21:30Z</time>
      </trkpt>
      <trkpt lat="42.95135" lon="0.28142">
        <ele>1309.93</ele>
        <time>2013-11-26T10:21:40Z</time>
      </trkpt>
      <trkpt lat="42.95137" lon="0.28145">
        <ele>1310.41</ele>
        <time>2013-11-26T10:21:53Z</time>
      </trkpt>
      <trkpt lat="42.95138" lon="0.28153">
        <ele>1311.38</ele>
        <time>2013-11-26T10:22:09Z</time>
      </trkpt>
      <trkpt lat="42.95139" lon="0.28156">
        <ele>1312.34</ele>
        <time>2013-11-26T10:22:20Z</time>
      </trkpt>
      <trkpt lat="42.9514" lon="0.28167">
        <ele>1314.26</ele>
        <time>2013-11-26T10:22:34Z</time>
      </trkpt>
      <trkpt lat="42.9514" lon="0.28176">
        <ele>1315.22</ele>
        <time>2013-11-26T10:22:48Z</time>
      </trkpt>
      <trkpt lat="42.9514" lon="0.28183">
        <ele>1317.62</ele>
        <time>2013-11-26T10:22:58Z</time>
      </trkpt>
      <trkpt lat="42.9514" lon="0.28186">
        <ele>1318.1</ele>
        <time>2013-11-26T10:23:11Z</time>
      </trkpt>
      <trkpt lat="42.95141" lon="0.28187">
        <ele>1319.07</ele>
        <time>2013-11-26T10:23:23Z</time>
      </trkpt>
      <trkpt lat="42.95141" lon="0.28194">
        <ele>1320.99</ele>
        <time>2013-11-26T10:23:41Z</time>
      </trkpt>
      <trkpt lat="42.95142" lon="0.28201">
        <ele>1322.43</ele>
        <time>2013-11-26T10:23:56Z</time>
      </trkpt>
      <trkpt lat="42.95142" lon="0.28207">
        <ele>1322.91</ele>
        <time>2013-11-26T10:24:06Z</time>
      </trkpt>
      <trkpt lat="42.95144" lon="0.28213">
        <ele>1323.87</ele>
        <time>2013-11-26T10:24:17Z</time>
      </trkpt>
      <trkpt lat="42.95147" lon="0.28217">
        <ele>1325.8</ele>
        <time>2013-11-26T10:24:30Z</time>
      </trkpt>
      <trkpt lat="42.95149" lon="0.28221">
        <ele>1328.2</ele>
        <time>2013-11-26T10:24:46Z</time>
      </trkpt>
      <trkpt lat="42.95152" lon="0.28224">
        <ele>1327.72</ele>
        <time>2013-11-26T10:24:59Z</time>
      </trkpt>
      <trkpt lat="42.95156" lon="0.28227">
        <ele>1328.2</ele>
        <time>2013-11-26T10:25:18Z</time>
      </trkpt>
      <trkpt lat="42.95157" lon="0.28233">
        <ele>1328.68</ele>
        <time>2013-11-26T10:25:34Z</time>
      </trkpt>
      <trkpt lat="42.95156" lon="0.28237">
        <ele>1330.6</ele>
        <time>2013-11-26T10:25:45Z</time>
      </trkpt>
      <trkpt lat="42.95154" lon="0.28241">
        <ele>1331.56</ele>
        <time>2013-11-26T10:25:58Z</time>
      </trkpt>
      <trkpt lat="42.95154" lon="0.28242">
        <ele>1332.04</ele>
        <time>2013-11-26T10:26:09Z</time>
      </trkpt>
      <trkpt lat="42.95154" lon="0.28249">
        <ele>1332.52</ele>
        <time>2013-11-26T10:26:18Z</time>
      </trkpt>
      <trkpt lat="42.95154" lon="0.28259">
        <ele>1335.41</ele>
        <time>2013-11-26T10:26:31Z</time>
      </trkpt>
      <trkpt lat="42.9516" lon="0.28263">
        <ele>1337.33</ele>
        <time>2013-11-26T10:26:45Z</time>
      </trkpt>
      <trkpt lat="42.95162" lon="0.28268">
        <ele>1338.29</ele>
        <time>2013-11-26T10:26:59Z</time>
      </trkpt>
      <trkpt lat="42.95166" lon="0.28273">
        <ele>1339.25</ele>
        <time>2013-11-26T10:27:11Z</time>
      </trkpt>
      <trkpt lat="42.95166" lon="0.2828">
        <ele>1341.66</ele>
        <time>2013-11-26T10:27:25Z</time>
      </trkpt>
      <trkpt lat="42.95169" lon="0.28287">
        <ele>1341.66</ele>
        <time>2013-11-26T10:27:37Z</time>
      </trkpt>
      <trkpt lat="42.95172" lon="0.2829">
        <ele>1341.66</ele>
        <time>2013-11-26T10:27:48Z</time>
      </trkpt>
      <trkpt lat="42.95171" lon="0.28299">
        <ele>1343.1</ele>
        <time>2013-11-26T10:28:04Z</time>
      </trkpt>
      <trkpt lat="42.95173" lon="0.28303">
        <ele>1345.02</ele>
        <time>2013-11-26T10:28:21Z</time>
      </trkpt>
      <trkpt lat="42.95174" lon="0.28315">
        <ele>1347.91</ele>
        <time>2013-11-26T10:28:32Z</time>
      </trkpt>
      <trkpt lat="42.95176" lon="0.28323">
        <ele>1349.35</ele>
        <time>2013-11-26T10:28:45Z</time>
      </trkpt>
      <trkpt lat="42.95178" lon="0.28333">
        <ele>1349.83</ele>
        <time>2013-11-26T10:28:54Z</time>
      </trkpt>
      <trkpt lat="42.95178" lon="0.28342">
        <ele>1350.79</ele>
        <time>2013-11-26T10:29:05Z</time>
      </trkpt>
      <trkpt lat="42.95177" lon="0.28345">
        <ele>1351.75</ele>
        <time>2013-11-26T10:29:16Z</time>
      </trkpt>
      <trkpt lat="42.9518" lon="0.28351">
        <ele>1353.67</ele>
        <time>2013-11-26T10:29:30Z</time>
      </trkpt>
      <trkpt lat="42.95181" lon="0.28352">
        <ele>1353.67</ele>
        <time>2013-11-26T10:29:44Z</time>
      </trkpt>
      <trkpt lat="42.95181" lon="0.28352">
        <ele>1354.15</ele>
        <time>2013-11-26T10:29:59Z</time>
      </trkpt>
      <trkpt lat="42.95182" lon="0.28355">
        <ele>1354.63</ele>
        <time>2013-11-26T10:30:18Z</time>
      </trkpt>
      <trkpt lat="42.95184" lon="0.28367">
        <ele>1356.56</ele>
        <time>2013-11-26T10:30:32Z</time>
      </trkpt>
      <trkpt lat="42.95189" lon="0.28371">
        <ele>1359.44</ele>
        <time>2013-11-26T10:30:47Z</time>
      </trkpt>
      <trkpt lat="42.9519" lon="0.28375">
        <ele>1360.88</ele>
        <time>2013-11-26T10:30:58Z</time>
      </trkpt>
      <trkpt lat="42.95194" lon="0.2838">
        <ele>1361.36</ele>
        <time>2013-11-26T10:31:11Z</time>
      </trkpt>
      <trkpt lat="42.95197" lon="0.28388">
        <ele>1362.81</ele>
        <time>2013-11-26T10:31:23Z</time>
      </trkpt>
      <trkpt lat="42.95202" lon="0.28397">
        <ele>1363.29</ele>
        <time>2013-11-26T10:31:33Z</time>
      </trkpt>
      <trkpt lat="42.95208" lon="0.28403">
        <ele>1366.17</ele>
        <time>2013-11-26T10:31:52Z</time>
      </trkpt>
      <trkpt lat="42.95215" lon="0.28407">
        <ele>1366.17</ele>
        <time>2013-11-26T10:32:02Z</time>
      </trkpt>
      <trkpt lat="42.95217" lon="0.2841">
        <ele>1367.13</ele>
        <time>2013-11-26T10:32:13Z</time>
      </trkpt>
      <trkpt lat="42.95231" lon="0.28415">
        <ele>1366.17</ele>
        <time>2013-11-26T10:32:27Z</time>
      </trkpt>
      <trkpt lat="42.9524" lon="0.28423">
        <ele>1367.13</ele>
        <time>2013-11-26T10:32:40Z</time>
      </trkpt>
      <trkpt lat="42.95248" lon="0.28425">
        <ele>1368.09</ele>
        <time>2013-11-26T10:32:50Z</time>
      </trkpt>
      <trkpt lat="42.95255" lon="0.28431">
        <ele>1369.05</ele>
        <time>2013-11-26T10:33:01Z</time>
      </trkpt>
      <trkpt lat="42.95263" lon="0.28444">
        <ele>1368.57</ele>
        <time>2013-11-26T10:33:15Z</time>
      </trkpt>
      <trkpt lat="42.95268" lon="0.28453">
        <ele>1368.57</ele>
        <time>2013-11-26T10:33:27Z</time>
      </trkpt>
      <trkpt lat="42.95271" lon="0.28466">
        <ele>1369.54</ele>
        <time>2013-11-26T10:33:40Z</time>
      </trkpt>
      <trkpt lat="42.95269" lon="0.28478">
        <ele>1371.46</ele>
        <time>2013-11-26T10:33:53Z</time>
      </trkpt>
      <trkpt lat="42.95269" lon="0.28479">
        <ele>1371.46</ele>
        <time>2013-11-26T10:33:54Z</time>
      </trkpt>
      <trkpt lat="42.95269" lon="0.28494">
        <ele>1373.86</ele>
        <time>2013-11-26T10:34:09Z</time>
      </trkpt>
      <trkpt lat="42.9527" lon="0.28507">
        <ele>1376.26</ele>
        <time>2013-11-26T10:34:22Z</time>
      </trkpt>
      <trkpt lat="42.9527" lon="0.2851">
        <ele>1376.75</ele>
        <time>2013-11-26T10:34:25Z</time>
      </trkpt>
      <trkpt lat="42.95272" lon="0.28523">
        <ele>1377.71</ele>
        <time>2013-11-26T10:34:38Z</time>
      </trkpt>
      <trkpt lat="42.95276" lon="0.28535">
        <ele>1378.67</ele>
        <time>2013-11-26T10:34:50Z</time>
      </trkpt>
      <trkpt lat="42.95279" lon="0.28548">
        <ele>1379.15</ele>
        <time>2013-11-26T10:35:03Z</time>
      </trkpt>
      <trkpt lat="42.95281" lon="0.28563">
        <ele>1380.59</ele>
        <time>2013-11-26T10:35:19Z</time>
      </trkpt>
      <trkpt lat="42.9528" lon="0.28577">
        <ele>1382.99</ele>
        <time>2013-11-26T10:35:35Z</time>
      </trkpt>
      <trkpt lat="42.95281" lon="0.28591">
        <ele>1383.47</ele>
        <time>2013-11-26T10:35:49Z</time>
      </trkpt>
      <trkpt lat="42.95283" lon="0.28604">
        <ele>1384.92</ele>
        <time>2013-11-26T10:36:02Z</time>
      </trkpt>
      <trkpt lat="42.95288" lon="0.28617">
        <ele>1385.88</ele>
        <time>2013-11-26T10:36:16Z</time>
      </trkpt>
      <trkpt lat="42.95295" lon="0.28625">
        <ele>1387.32</ele>
        <time>2013-11-26T10:36:29Z</time>
      </trkpt>
      <trkpt lat="42.95303" lon="0.28631">
        <ele>1389.24</ele>
        <time>2013-11-26T10:36:44Z</time>
      </trkpt>
      <trkpt lat="42.95309" lon="0.28636">
        <ele>1391.17</ele>
        <time>2013-11-26T10:36:58Z</time>
      </trkpt>
      <trkpt lat="42.95309" lon="0.28636">
        <ele>1391.17</ele>
        <time>2013-11-26T10:37:18Z</time>
      </trkpt>
      <trkpt lat="42.9531" lon="0.28638">
        <ele>1391.17</ele>
        <time>2013-11-26T10:37:32Z</time>
      </trkpt>
      <trkpt lat="42.95317" lon="0.28641">
        <ele>1391.17</ele>
        <time>2013-11-26T10:37:46Z</time>
      </trkpt>
      <trkpt lat="42.95322" lon="0.28645">
        <ele>1389.72</ele>
        <time>2013-11-26T10:37:57Z</time>
      </trkpt>
      <trkpt lat="42.95322" lon="0.28645">
        <ele>1390.2</ele>
        <time>2013-11-26T10:38:13Z</time>
      </trkpt>
      <trkpt lat="42.95322" lon="0.28645">
        <ele>1390.2</ele>
        <time>2013-11-26T10:38:25Z</time>
      </trkpt>
      <trkpt lat="42.95322" lon="0.28645">
        <ele>1390.2</ele>
        <time>2013-11-26T10:38:40Z</time>
      </trkpt>
      <trkpt lat="42.95322" lon="0.28645">
        <ele>1390.2</ele>
        <time>2013-11-26T10:39:09Z</time>
      </trkpt>
      <trkpt lat="42.95322" lon="0.28645">
        <ele>1390.2</ele>
        <time>2013-11-26T10:39:34Z</time>
      </trkpt>
      <trkpt lat="42.95322" lon="0.28645">
        <ele>1390.2</ele>
        <time>2013-11-26T10:40:06Z</time>
      </trkpt>
      <trkpt lat="42.95322" lon="0.28645">
        <ele>1390.2</ele>
        <time>2013-11-26T10:40:34Z</time>
      </trkpt>
      <trkpt lat="42.95322" lon="0.28645">
        <ele>1390.2</ele>
        <time>2013-11-26T10:40:55Z</time>
      </trkpt>
      <trkpt lat="42.95322" lon="0.28645">
        <ele>1390.2</ele>
        <time>2013-11-26T10:41:14Z</time>
      </trkpt>
      <trkpt lat="42.95322" lon="0.28645">
        <ele>1390.2</ele>
        <time>2013-11-26T10:41:39Z</time>
      </trkpt>
      <trkpt lat="42.95323" lon="0.28645">
        <ele>1390.68</ele>
        <time>2013-11-26T10:41:57Z</time>
      </trkpt>
      <trkpt lat="42.95322" lon="0.28646">
        <ele>1390.2</ele>
        <time>2013-11-26T10:42:09Z</time>
      </trkpt>
      <trkpt lat="42.95322" lon="0.28646">
        <ele>1390.2</ele>
        <time>2013-11-26T10:42:23Z</time>
      </trkpt>
      <trkpt lat="42.95322" lon="0.28645">
        <ele>1390.2</ele>
        <time>2013-11-26T10:42:53Z</time>
      </trkpt>
      <trkpt lat="42.95322" lon="0.28645">
        <ele>1390.2</ele>
        <time>2013-11-26T10:43:20Z</time>
      </trkpt>
      <trkpt lat="42.95322" lon="0.28645">
        <ele>1390.2</ele>
        <time>2013-11-26T10:43:39Z</time>
      </trkpt>
      <trkpt lat="42.95322" lon="0.28645">
        <ele>1390.2</ele>
        <time>2013-11-26T10:43:41Z</time>
      </trkpt>
      <trkpt lat="42.95322" lon="0.28644">
        <ele>1390.2</ele>
        <time>2013-11-26T10:43:53Z</time>
      </trkpt>
      <trkpt lat="42.95322" lon="0.28644">
        <ele>1390.2</ele>
        <time>2013-11-26T10:44:13Z</time>
      </trkpt>
      <trkpt lat="42.95322" lon="0.28644">
        <ele>1390.68</ele>
        <time>2013-11-26T10:44:33Z</time>
      </trkpt>
      <trkpt lat="42.95322" lon="0.28644">
        <ele>1390.68</ele>
        <time>2013-11-26T10:44:56Z</time>
      </trkpt>
      <trkpt lat="42.95324" lon="0.28646">
        <ele>1390.2</ele>
        <time>2013-11-26T10:45:04Z</time>
      </trkpt>
      <trkpt lat="42.95334" lon="0.28661">
        <ele>1390.2</ele>
        <time>2013-11-26T10:45:17Z</time>
      </trkpt>
      <trkpt lat="42.95341" lon="0.28679">
        <ele>1389.72</ele>
        <time>2013-11-26T10:45:31Z</time>
      </trkpt>
      <trkpt lat="42.95347" lon="0.28697">
        <ele>1389.72</ele>
        <time>2013-11-26T10:45:45Z</time>
      </trkpt>
      <trkpt lat="42.95356" lon="0.28715">
        <ele>1389.24</ele>
        <time>2013-11-26T10:46:00Z</time>
      </trkpt>
      <trkpt lat="42.95367" lon="0.28729">
        <ele>1389.24</ele>
        <time>2013-11-26T10:46:17Z</time>
      </trkpt>
      <trkpt lat="42.9537" lon="0.28731">
        <ele>1389.24</ele>
        <time>2013-11-26T10:46:23Z</time>
      </trkpt>
      <trkpt lat="42.95381" lon="0.28737">
        <ele>1389.24</ele>
        <time>2013-11-26T10:46:35Z</time>
      </trkpt>
      <trkpt lat="42.9539" lon="0.28743">
        <ele>1389.24</ele>
        <time>2013-11-26T10:46:48Z</time>
      </trkpt>
      <trkpt lat="42.95397" lon="0.28746">
        <ele>1388.76</ele>
        <time>2013-11-26T10:47:00Z</time>
      </trkpt>
      <trkpt lat="42.95406" lon="0.28751">
        <ele>1390.2</ele>
        <time>2013-11-26T10:47:13Z</time>
      </trkpt>
      <trkpt lat="42.95407" lon="0.28751">
        <ele>1390.2</ele>
        <time>2013-11-26T10:47:26Z</time>
      </trkpt>
      <trkpt lat="42.95407" lon="0.28751">
        <ele>1390.2</ele>
        <time>2013-11-26T10:47:44Z</time>
      </trkpt>
      <trkpt lat="42.95407" lon="0.28751">
        <ele>1390.68</ele>
        <time>2013-11-26T10:48:12Z</time>
      </trkpt>
      <trkpt lat="42.95408" lon="0.28751">
        <ele>1390.2</ele>
        <time>2013-11-26T10:48:39Z</time>
      </trkpt>
      <trkpt lat="42.95408" lon="0.28751">
        <ele>1390.2</ele>
        <time>2013-11-26T10:48:58Z</time>
      </trkpt>
      <trkpt lat="42.95408" lon="0.28751">
        <ele>1390.2</ele>
        <time>2013-11-26T10:49:04Z</time>
      </trkpt>
      <trkpt lat="42.95416" lon="0.28756">
        <ele>1390.2</ele>
        <time>2013-11-26T10:49:13Z</time>
      </trkpt>
      <trkpt lat="42.95421" lon="0.28762">
        <ele>1391.17</ele>
        <time>2013-11-26T10:49:26Z</time>
      </trkpt>
      <trkpt lat="42.95431" lon="0.28773">
        <ele>1392.61</ele>
        <time>2013-11-26T10:49:38Z</time>
      </trkpt>
      <trkpt lat="42.95439" lon="0.28781">
        <ele>1395.01</ele>
        <time>2013-11-26T10:49:50Z</time>
      </trkpt>
      <trkpt lat="42.95449" lon="0.28787">
        <ele>1396.45</ele>
        <time>2013-11-26T10:50:03Z</time>
      </trkpt>
      <trkpt lat="42.95451" lon="0.28788">
        <ele>1396.45</ele>
        <time>2013-11-26T10:50:06Z</time>
      </trkpt>
      <trkpt lat="42.95454" lon="0.2879">
        <ele>1396.93</ele>
        <time>2013-11-26T10:50:12Z</time>
      </trkpt>
      <trkpt lat="42.95463" lon="0.28794">
        <ele>1399.34</ele>
        <time>2013-11-26T10:50:26Z</time>
      </trkpt>
      <trkpt lat="42.95473" lon="0.28795">
        <ele>1402.22</ele>
        <time>2013-11-26T10:50:41Z</time>
      </trkpt>
      <trkpt lat="42.95475" lon="0.28795">
        <ele>1402.22</ele>
        <time>2013-11-26T10:50:43Z</time>
      </trkpt>
      <trkpt lat="42.95477" lon="0.28794">
        <ele>1403.18</ele>
        <time>2013-11-26T10:50:59Z</time>
      </trkpt>
      <trkpt lat="42.95481" lon="0.28787">
        <ele>1404.62</ele>
        <time>2013-11-26T10:51:12Z</time>
      </trkpt>
      <trkpt lat="42.95487" lon="0.28785">
        <ele>1407.51</ele>
        <time>2013-11-26T10:51:25Z</time>
      </trkpt>
      <trkpt lat="42.95487" lon="0.28785">
        <ele>1407.51</ele>
        <time>2013-11-26T10:51:39Z</time>
      </trkpt>
      <trkpt lat="42.95486" lon="0.28787">
        <ele>1407.51</ele>
        <time>2013-11-26T10:51:52Z</time>
      </trkpt>
      <trkpt lat="42.95486" lon="0.28788">
        <ele>1407.51</ele>
        <time>2013-11-26T10:52:11Z</time>
      </trkpt>
      <trkpt lat="42.95486" lon="0.28788">
        <ele>1407.51</ele>
        <time>2013-11-26T10:52:27Z</time>
      </trkpt>
      <trkpt lat="42.95487" lon="0.28787">
        <ele>1407.99</ele>
        <time>2013-11-26T10:52:44Z</time>
      </trkpt>
      <trkpt lat="42.95487" lon="0.28787">
        <ele>1407.99</ele>
        <time>2013-11-26T10:53:08Z</time>
      </trkpt>
      <trkpt lat="42.95487" lon="0.28786">
        <ele>1407.99</ele>
        <time>2013-11-26T10:53:36Z</time>
      </trkpt>
      <trkpt lat="42.95487" lon="0.28786">
        <ele>1407.99</ele>
        <time>2013-11-26T10:53:58Z</time>
      </trkpt>
      <trkpt lat="42.95487" lon="0.28785">
        <ele>1407.99</ele>
        <time>2013-11-26T10:54:21Z</time>
      </trkpt>
      <trkpt lat="42.95487" lon="0.28785">
        <ele>1407.51</ele>
        <time>2013-11-26T10:54:58Z</time>
      </trkpt>
      <trkpt lat="42.95487" lon="0.28785">
        <ele>1407.51</ele>
        <time>2013-11-26T10:55:26Z</time>
      </trkpt>
      <trkpt lat="42.95487" lon="0.28785">
        <ele>1407.51</ele>
        <time>2013-11-26T10:55:56Z</time>
      </trkpt>
      <trkpt lat="42.95487" lon="0.28785">
        <ele>1407.51</ele>
        <time>2013-11-26T10:56:25Z</time>
      </trkpt>
      <trkpt lat="42.95487" lon="0.28784">
        <ele>1407.51</ele>
        <time>2013-11-26T10:56:58Z</time>
      </trkpt>
      <trkpt lat="42.95487" lon="0.28784">
        <ele>1407.03</ele>
        <time>2013-11-26T10:57:37Z</time>
      </trkpt>
      <trkpt lat="42.95487" lon="0.28785">
        <ele>1407.03</ele>
        <time>2013-11-26T10:58:16Z</time>
      </trkpt>
      <trkpt lat="42.95487" lon="0.28785">
        <ele>1407.03</ele>
        <time>2013-11-26T10:58:53Z</time>
      </trkpt>
      <trkpt lat="42.95487" lon="0.28784">
        <ele>1407.51</ele>
        <time>2013-11-26T10:59:30Z</time>
      </trkpt>
      <trkpt lat="42.95487" lon="0.28784">
        <ele>1407.51</ele>
        <time>2013-11-26T11:00:08Z</time>
      </trkpt>
      <trkpt lat="42.95487" lon="0.28784">
        <ele>1407.51</ele>
        <time>2013-11-26T11:00:44Z</time>
      </trkpt>
      <trkpt lat="42.95487" lon="0.28783">
        <ele>1407.51</ele>
        <time>2013-11-26T11:01:25Z</time>
      </trkpt>
      <trkpt lat="42.95487" lon="0.28783">
        <ele>1407.51</ele>
        <time>2013-11-26T11:02:12Z</time>
      </trkpt>
      <trkpt lat="42.95487" lon="0.28783">
        <ele>1407.51</ele>
        <time>2013-11-26T11:02:51Z</time>
      </trkpt>
      <trkpt lat="42.95487" lon="0.28784">
        <ele>1407.51</ele>
        <time>2013-11-26T11:03:30Z</time>
      </trkpt>
      <trkpt lat="42.95486" lon="0.28783">
        <ele>1407.51</ele>
        <time>2013-11-26T11:04:11Z</time>
      </trkpt>
      <trkpt lat="42.95486" lon="0.28783">
        <ele>1407.51</ele>
        <time>2013-11-26T11:04:53Z</time>
      </trkpt>
      <trkpt lat="42.95486" lon="0.28783">
        <ele>1407.51</ele>
        <time>2013-11-26T11:05:38Z</time>
      </trkpt>
      <trkpt lat="42.95486" lon="0.28783">
        <ele>1407.51</ele>
        <time>2013-11-26T11:06:20Z</time>
      </trkpt>
      <trkpt lat="42.95486" lon="0.28783">
        <ele>1407.51</ele>
        <time>2013-11-26T11:06:58Z</time>
      </trkpt>
      <trkpt lat="42.95486" lon="0.28783">
        <ele>1407.03</ele>
        <time>2013-11-26T11:07:37Z</time>
      </trkpt>
      <trkpt lat="42.95486" lon="0.28783">
        <ele>1407.03</ele>
        <time>2013-11-26T11:08:20Z</time>
      </trkpt>
      <trkpt lat="42.95486" lon="0.28783">
        <ele>1407.03</ele>
        <time>2013-11-26T11:08:47Z</time>
      </trkpt>
      <trkpt lat="42.95486" lon="0.28783">
        <ele>1407.51</ele>
        <time>2013-11-26T11:09:26Z</time>
      </trkpt>
      <trkpt lat="42.95485" lon="0.28783">
        <ele>1407.03</ele>
        <time>2013-11-26T11:10:05Z</time>
      </trkpt>
      <trkpt lat="42.95486" lon="0.28783">
        <ele>1407.03</ele>
        <time>2013-11-26T11:10:38Z</time>
      </trkpt>
      <trkpt lat="42.95486" lon="0.28783">
        <ele>1407.03</ele>
        <time>2013-11-26T11:11:20Z</time>
      </trkpt>
      <trkpt lat="42.95485" lon="0.28783">
        <ele>1407.03</ele>
        <time>2013-11-26T11:11:56Z</time>
      </trkpt>
      <trkpt lat="42.95486" lon="0.28783">
        <ele>1407.03</ele>
        <time>2013-11-26T11:12:38Z</time>
      </trkpt>
      <trkpt lat="42.95486" lon="0.28783">
        <ele>1407.03</ele>
        <time>2013-11-26T11:13:13Z</time>
      </trkpt>
      <trkpt lat="42.95486" lon="0.28782">
        <ele>1407.03</ele>
        <time>2013-11-26T11:13:43Z</time>
      </trkpt>
      <trkpt lat="42.95485" lon="0.28781">
        <ele>1407.03</ele>
        <time>2013-11-26T11:14:20Z</time>
      </trkpt>
      <trkpt lat="42.95485" lon="0.28781">
        <ele>1407.03</ele>
        <time>2013-11-26T11:15:01Z</time>
      </trkpt>
      <trkpt lat="42.95485" lon="0.28782">
        <ele>1407.03</ele>
        <time>2013-11-26T11:15:41Z</time>
      </trkpt>
      <trkpt lat="42.95485" lon="0.28781">
        <ele>1406.55</ele>
        <time>2013-11-26T11:16:22Z</time>
      </trkpt>
      <trkpt lat="42.95486" lon="0.28781">
        <ele>1406.07</ele>
        <time>2013-11-26T11:16:55Z</time>
      </trkpt>
      <trkpt lat="42.95486" lon="0.28781">
        <ele>1406.07</ele>
        <time>2013-11-26T11:17:20Z</time>
      </trkpt>
      <trkpt lat="42.95486" lon="0.28781">
        <ele>1406.55</ele>
        <time>2013-11-26T11:17:51Z</time>
      </trkpt>
      <trkpt lat="42.95486" lon="0.28781">
        <ele>1406.55</ele>
        <time>2013-11-26T11:18:12Z</time>
      </trkpt>
      <trkpt lat="42.95487" lon="0.28781">
        <ele>1406.55</ele>
        <time>2013-11-26T11:18:27Z</time>
      </trkpt>
      <trkpt lat="42.95485" lon="0.28783">
        <ele>1408.95</ele>
        <time>2013-11-26T11:18:43Z</time>
      </trkpt>
      <trkpt lat="42.95485" lon="0.28784">
        <ele>1409.91</ele>
        <time>2013-11-26T11:18:58Z</time>
      </trkpt>
      <trkpt lat="42.95485" lon="0.28784">
        <ele>1409.91</ele>
        <time>2013-11-26T11:19:20Z</time>
      </trkpt>
      <trkpt lat="42.95485" lon="0.28785">
        <ele>1407.99</ele>
        <time>2013-11-26T11:19:36Z</time>
      </trkpt>
      <trkpt lat="42.95485" lon="0.28786">
        <ele>1407.51</ele>
        <time>2013-11-26T11:19:56Z</time>
      </trkpt>
      <trkpt lat="42.95485" lon="0.28786">
        <ele>1407.51</ele>
        <time>2013-11-26T11:20:14Z</time>
      </trkpt>
      <trkpt lat="42.95483" lon="0.28787">
        <ele>1407.51</ele>
        <time>2013-11-26T11:20:31Z</time>
      </trkpt>
      <trkpt lat="42.95482" lon="0.28786">
        <ele>1406.55</ele>
        <time>2013-11-26T11:20:42Z</time>
      </trkpt>
      <trkpt lat="42.95482" lon="0.28786">
        <ele>1406.55</ele>
        <time>2013-11-26T11:21:00Z</time>
      </trkpt>
      <trkpt lat="42.95485" lon="0.28788">
        <ele>1407.51</ele>
        <time>2013-11-26T11:21:18Z</time>
      </trkpt>
      <trkpt lat="42.95485" lon="0.28789">
        <ele>1407.51</ele>
        <time>2013-11-26T11:21:28Z</time>
      </trkpt>
      <trkpt lat="42.95485" lon="0.28789">
        <ele>1407.51</ele>
        <time>2013-11-26T11:21:45Z</time>
      </trkpt>
      <trkpt lat="42.95485" lon="0.28789">
        <ele>1407.99</ele>
        <time>2013-11-26T11:22:01Z</time>
      </trkpt>
      <trkpt lat="42.95485" lon="0.28789">
        <ele>1407.99</ele>
        <time>2013-11-26T11:22:20Z</time>
      </trkpt>
      <trkpt lat="42.95485" lon="0.28789">
        <ele>1408.47</ele>
        <time>2013-11-26T11:22:44Z</time>
      </trkpt>
      <trkpt lat="42.95485" lon="0.28789">
        <ele>1408.47</ele>
        <time>2013-11-26T11:23:06Z</time>
      </trkpt>
      <trkpt lat="42.95485" lon="0.28789">
        <ele>1408.47</ele>
        <time>2013-11-26T11:23:31Z</time>
      </trkpt>
      <trkpt lat="42.95484" lon="0.28789">
        <ele>1408.47</ele>
        <time>2013-11-26T11:23:53Z</time>
      </trkpt>
      <trkpt lat="42.95484" lon="0.2879">
        <ele>1407.51</ele>
        <time>2013-11-26T11:24:07Z</time>
      </trkpt>
      <trkpt lat="42.95484" lon="0.2879">
        <ele>1407.51</ele>
        <time>2013-11-26T11:24:26Z</time>
      </trkpt>
      <trkpt lat="42.95483" lon="0.28788">
        <ele>1408.47</ele>
        <time>2013-11-26T11:24:36Z</time>
      </trkpt>
      <trkpt lat="42.95483" lon="0.28788">
        <ele>1408.47</ele>
        <time>2013-11-26T11:24:49Z</time>
      </trkpt>
      <trkpt lat="42.95483" lon="0.28788">
        <ele>1408.47</ele>
        <time>2013-11-26T11:25:09Z</time>
      </trkpt>
      <trkpt lat="42.95483" lon="0.28787">
        <ele>1408.95</ele>
        <time>2013-11-26T11:25:23Z</time>
      </trkpt>
      <trkpt lat="42.95486" lon="0.28784">
        <ele>1409.43</ele>
        <time>2013-11-26T11:25:36Z</time>
      </trkpt>
      <trkpt lat="42.95489" lon="0.28774">
        <ele>1409.91</ele>
        <time>2013-11-26T11:25:47Z</time>
      </trkpt>
      <trkpt lat="42.95493" lon="0.28763">
        <ele>1410.87</ele>
        <time>2013-11-26T11:26:00Z</time>
      </trkpt>
      <trkpt lat="42.95495" lon="0.28758">
        <ele>1411.83</ele>
        <time>2013-11-26T11:26:14Z</time>
      </trkpt>
      <trkpt lat="42.95498" lon="0.28754">
        <ele>1412.79</ele>
        <time>2013-11-26T11:26:28Z</time>
      </trkpt>
      <trkpt lat="42.95499" lon="0.28753">
        <ele>1412.79</ele>
        <time>2013-11-26T11:26:41Z</time>
      </trkpt>
      <trkpt lat="42.95501" lon="0.28748">
        <ele>1413.76</ele>
        <time>2013-11-26T11:26:53Z</time>
      </trkpt>
      <trkpt lat="42.95503" lon="0.28745">
        <ele>1413.76</ele>
        <time>2013-11-26T11:26:56Z</time>
      </trkpt>
      <trkpt lat="42.95505" lon="0.28741">
        <ele>1413.76</ele>
        <time>2013-11-26T11:26:59Z</time>
      </trkpt>
      <trkpt lat="42.9551" lon="0.28732">
        <ele>1412.79</ele>
        <time>2013-11-26T11:27:12Z</time>
      </trkpt>
      <trkpt lat="42.95511" lon="0.2873">
        <ele>1413.28</ele>
        <time>2013-11-26T11:27:25Z</time>
      </trkpt>
      <trkpt lat="42.95516" lon="0.28724">
        <ele>1414.72</ele>
        <time>2013-11-26T11:27:38Z</time>
      </trkpt>
      <trkpt lat="42.95518" lon="0.28722">
        <ele>1414.24</ele>
        <time>2013-11-26T11:27:51Z</time>
      </trkpt>
      <trkpt lat="42.95518" lon="0.28722">
        <ele>1414.24</ele>
        <time>2013-11-26T11:28:10Z</time>
      </trkpt>
      <trkpt lat="42.95524" lon="0.28716">
        <ele>1416.16</ele>
        <time>2013-11-26T11:28:22Z</time>
      </trkpt>
      <trkpt lat="42.95526" lon="0.28714">
        <ele>1415.68</ele>
        <time>2013-11-26T11:28:32Z</time>
      </trkpt>
      <trkpt lat="42.95526" lon="0.28714">
        <ele>1415.68</ele>
        <time>2013-11-26T11:28:49Z</time>
      </trkpt>
      <trkpt lat="42.95526" lon="0.28713">
        <ele>1416.16</ele>
        <time>2013-11-26T11:29:05Z</time>
      </trkpt>
      <trkpt lat="42.9553" lon="0.28709">
        <ele>1416.16</ele>
        <time>2013-11-26T11:29:21Z</time>
      </trkpt>
      <trkpt lat="42.9553" lon="0.28709">
        <ele>1416.16</ele>
        <time>2013-11-26T11:29:42Z</time>
      </trkpt>
      <trkpt lat="42.9553" lon="0.28709">
        <ele>1416.64</ele>
        <time>2013-11-26T11:30:01Z</time>
      </trkpt>
      <trkpt lat="42.95532" lon="0.28707">
        <ele>1418.08</ele>
        <time>2013-11-26T11:30:21Z</time>
      </trkpt>
      <trkpt lat="42.95534" lon="0.28705">
        <ele>1418.08</ele>
        <time>2013-11-26T11:30:35Z</time>
      </trkpt>
      <trkpt lat="42.95535" lon="0.28704">
        <ele>1418.08</ele>
        <time>2013-11-26T11:30:45Z</time>
      </trkpt>
      <trkpt lat="42.9554" lon="0.28698">
        <ele>1419.04</ele>
        <time>2013-11-26T11:30:58Z</time>
      </trkpt>
      <trkpt lat="42.95547" lon="0.28692">
        <ele>1420.97</ele>
        <time>2013-11-26T11:31:11Z</time>
      </trkpt>
      <trkpt lat="42.95548" lon="0.28691">
        <ele>1421.45</ele>
        <time>2013-11-26T11:31:25Z</time>
      </trkpt>
      <trkpt lat="42.95549" lon="0.28691">
        <ele>1421.93</ele>
        <time>2013-11-26T11:31:45Z</time>
      </trkpt>
      <trkpt lat="42.95556" lon="0.28683">
        <ele>1423.85</ele>
        <time>2013-11-26T11:32:01Z</time>
      </trkpt>
      <trkpt lat="42.95562" lon="0.28678">
        <ele>1424.81</ele>
        <time>2013-11-26T11:32:12Z</time>
      </trkpt>
      <trkpt lat="42.95569" lon="0.28672">
        <ele>1428.18</ele>
        <time>2013-11-26T11:32:24Z</time>
      </trkpt>
      <trkpt lat="42.95575" lon="0.28665">
        <ele>1429.62</ele>
        <time>2013-11-26T11:32:36Z</time>
      </trkpt>
      <trkpt lat="42.95576" lon="0.28664">
        <ele>1429.62</ele>
        <time>2013-11-26T11:32:38Z</time>
      </trkpt>
      <trkpt lat="42.95585" lon="0.28656">
        <ele>1430.58</ele>
        <time>2013-11-26T11:32:53Z</time>
      </trkpt>
      <trkpt lat="42.95588" lon="0.28653">
        <ele>1431.06</ele>
        <time>2013-11-26T11:33:03Z</time>
      </trkpt>
      <trkpt lat="42.95594" lon="0.28647">
        <ele>1432.02</ele>
        <time>2013-11-26T11:33:17Z</time>
      </trkpt>
      <trkpt lat="42.95599" lon="0.28643">
        <ele>1433.46</ele>
        <time>2013-11-26T11:33:30Z</time>
      </trkpt>
      <trkpt lat="42.95604" lon="0.28637">
        <ele>1434.91</ele>
        <time>2013-11-26T11:33:40Z</time>
      </trkpt>
      <trkpt lat="42.95607" lon="0.28634">
        <ele>1436.35</ele>
        <time>2013-11-26T11:33:55Z</time>
      </trkpt>
      <trkpt lat="42.95609" lon="0.28633">
        <ele>1436.83</ele>
        <time>2013-11-26T11:34:05Z</time>
      </trkpt>
      <trkpt lat="42.95609" lon="0.28632">
        <ele>1436.83</ele>
        <time>2013-11-26T11:34:25Z</time>
      </trkpt>
      <trkpt lat="42.9561" lon="0.28632">
        <ele>1436.83</ele>
        <time>2013-11-26T11:34:45Z</time>
      </trkpt>
      <trkpt lat="42.95611" lon="0.2863">
        <ele>1436.83</ele>
        <time>2013-11-26T11:34:58Z</time>
      </trkpt>
      <trkpt lat="42.95613" lon="0.28627">
        <ele>1436.35</ele>
        <time>2013-11-26T11:35:15Z</time>
      </trkpt>
      <trkpt lat="42.95614" lon="0.28627">
        <ele>1436.35</ele>
        <time>2013-11-26T11:35:19Z</time>
      </trkpt>
      <trkpt lat="42.95619" lon="0.2862">
        <ele>1438.75</ele>
        <time>2013-11-26T11:35:29Z</time>
      </trkpt>
      <trkpt lat="42.95622" lon="0.28617">
        <ele>1439.71</ele>
        <time>2013-11-26T11:35:34Z</time>
      </trkpt>
      <trkpt lat="42.9563" lon="0.2861">
        <ele>1437.79</ele>
        <time>2013-11-26T11:35:46Z</time>
      </trkpt>
      <trkpt lat="42.95637" lon="0.28602">
        <ele>1439.23</ele>
        <time>2013-11-26T11:35:58Z</time>
      </trkpt>
      <trkpt lat="42.95644" lon="0.28595">
        <ele>1438.75</ele>
        <time>2013-11-26T11:36:10Z</time>
      </trkpt>
      <trkpt lat="42.9565" lon="0.28587">
        <ele>1437.79</ele>
        <time>2013-11-26T11:36:21Z</time>
      </trkpt>
      <trkpt lat="42.95656" lon="0.28576">
        <ele>1438.27</ele>
        <time>2013-11-26T11:36:34Z</time>
      </trkpt>
      <trkpt lat="42.95657" lon="0.28571">
        <ele>1438.75</ele>
        <time>2013-11-26T11:36:47Z</time>
      </trkpt>
      <trkpt lat="42.9566" lon="0.28569">
        <ele>1437.31</ele>
        <time>2013-11-26T11:36:58Z</time>
      </trkpt>
      <trkpt lat="42.95661" lon="0.28567">
        <ele>1435.87</ele>
        <time>2013-11-26T11:37:16Z</time>
      </trkpt>
      <trkpt lat="42.95663" lon="0.28565">
        <ele>1435.39</ele>
        <time>2013-11-26T11:37:31Z</time>
      </trkpt>
      <trkpt lat="42.95665" lon="0.28562">
        <ele>1435.39</ele>
        <time>2013-11-26T11:37:41Z</time>
      </trkpt>
      <trkpt lat="42.95672" lon="0.28554">
        <ele>1436.35</ele>
        <time>2013-11-26T11:37:53Z</time>
      </trkpt>
      <trkpt lat="42.95673" lon="0.28552">
        <ele>1436.83</ele>
        <time>2013-11-26T11:37:55Z</time>
      </trkpt>
      <trkpt lat="42.95676" lon="0.28548">
        <ele>1437.31</ele>
        <time>2013-11-26T11:38:00Z</time>
      </trkpt>
      <trkpt lat="42.95685" lon="0.28538">
        <ele>1436.83</ele>
        <time>2013-11-26T11:38:13Z</time>
      </trkpt>
      <trkpt lat="42.95691" lon="0.2853">
        <ele>1437.31</ele>
        <time>2013-11-26T11:38:23Z</time>
      </trkpt>
      <trkpt lat="42.95697" lon="0.28519">
        <ele>1437.79</ele>
        <time>2013-11-26T11:38:35Z</time>
      </trkpt>
      <trkpt lat="42.95701" lon="0.28515">
        <ele>1437.31</ele>
        <time>2013-11-26T11:38:40Z</time>
      </trkpt>
      <trkpt lat="42.9571" lon="0.28506">
        <ele>1433.94</ele>
        <time>2013-11-26T11:38:52Z</time>
      </trkpt>
      <trkpt lat="42.95712" lon="0.28504">
        <ele>1434.42</ele>
        <time>2013-11-26T11:38:54Z</time>
      </trkpt>
      <trkpt lat="42.95713" lon="0.28502">
        <ele>1434.91</ele>
        <time>2013-11-26T11:38:56Z</time>
      </trkpt>
      <trkpt lat="42.95726" lon="0.28495">
        <ele>1435.39</ele>
        <time>2013-11-26T11:39:10Z</time>
      </trkpt>
      <trkpt lat="42.95737" lon="0.28489">
        <ele>1435.87</ele>
        <time>2013-11-26T11:39:23Z</time>
      </trkpt>
      <trkpt lat="42.95742" lon="0.28485">
        <ele>1435.87</ele>
        <time>2013-11-26T11:39:33Z</time>
      </trkpt>
      <trkpt lat="42.95744" lon="0.28484">
        <ele>1435.39</ele>
        <time>2013-11-26T11:39:48Z</time>
      </trkpt>
      <trkpt lat="42.95745" lon="0.28483">
        <ele>1435.39</ele>
        <time>2013-11-26T11:40:06Z</time>
      </trkpt>
      <trkpt lat="42.95746" lon="0.28482">
        <ele>1436.35</ele>
        <time>2013-11-26T11:40:23Z</time>
      </trkpt>
      <trkpt lat="42.95746" lon="0.28483">
        <ele>1436.35</ele>
        <time>2013-11-26T11:40:40Z</time>
      </trkpt>
      <trkpt lat="42.95748" lon="0.28482">
        <ele>1436.35</ele>
        <time>2013-11-26T11:40:56Z</time>
      </trkpt>
      <trkpt lat="42.95748" lon="0.28482">
        <ele>1436.35</ele>
        <time>2013-11-26T11:41:10Z</time>
      </trkpt>
      <trkpt lat="42.95748" lon="0.28482">
        <ele>1436.35</ele>
        <time>2013-11-26T11:41:34Z</time>
      </trkpt>
      <trkpt lat="42.95748" lon="0.28482">
        <ele>1436.35</ele>
        <time>2013-11-26T11:41:57Z</time>
      </trkpt>
      <trkpt lat="42.95749" lon="0.28482">
        <ele>1436.83</ele>
        <time>2013-11-26T11:42:16Z</time>
      </trkpt>
      <trkpt lat="42.95751" lon="0.2848">
        <ele>1435.87</ele>
        <time>2013-11-26T11:42:32Z</time>
      </trkpt>
      <trkpt lat="42.95752" lon="0.2848">
        <ele>1435.87</ele>
        <time>2013-11-26T11:42:49Z</time>
      </trkpt>
      <trkpt lat="42.95753" lon="0.2848">
        <ele>1435.87</ele>
        <time>2013-11-26T11:43:01Z</time>
      </trkpt>
      <trkpt lat="42.95753" lon="0.2848">
        <ele>1435.87</ele>
        <time>2013-11-26T11:43:25Z</time>
      </trkpt>
      <trkpt lat="42.95753" lon="0.28479">
        <ele>1435.39</ele>
        <time>2013-11-26T11:43:38Z</time>
      </trkpt>
      <trkpt lat="42.95753" lon="0.28479">
        <ele>1435.39</ele>
        <time>2013-11-26T11:44:06Z</time>
      </trkpt>
      <trkpt lat="42.95753" lon="0.28479">
        <ele>1434.91</ele>
        <time>2013-11-26T11:44:27Z</time>
      </trkpt>
      <trkpt lat="42.95753" lon="0.2848">
        <ele>1434.91</ele>
        <time>2013-11-26T11:44:55Z</time>
      </trkpt>
      <trkpt lat="42.95753" lon="0.2848">
        <ele>1434.91</ele>
        <time>2013-11-26T11:45:22Z</time>
      </trkpt>
      <trkpt lat="42.95754" lon="0.2848">
        <ele>1434.91</ele>
        <time>2013-11-26T11:45:39Z</time>
      </trkpt>
      <trkpt lat="42.95754" lon="0.2848">
        <ele>1434.91</ele>
        <time>2013-11-26T11:45:58Z</time>
      </trkpt>
      <trkpt lat="42.95754" lon="0.28479">
        <ele>1433.94</ele>
        <time>2013-11-26T11:46:16Z</time>
      </trkpt>
      <trkpt lat="42.95754" lon="0.28479">
        <ele>1433.94</ele>
        <time>2013-11-26T11:46:38Z</time>
      </trkpt>
      <trkpt lat="42.95755" lon="0.28479">
        <ele>1433.94</ele>
        <time>2013-11-26T11:47:00Z</time>
      </trkpt>
      <trkpt lat="42.95754" lon="0.28481">
        <ele>1435.39</ele>
        <time>2013-11-26T11:47:13Z</time>
      </trkpt>
      <trkpt lat="42.95754" lon="0.28481">
        <ele>1435.39</ele>
        <time>2013-11-26T11:47:31Z</time>
      </trkpt>
      <trkpt lat="42.95754" lon="0.28481">
        <ele>1435.39</ele>
        <time>2013-11-26T11:47:57Z</time>
      </trkpt>
      <trkpt lat="42.95755" lon="0.28482">
        <ele>1435.39</ele>
        <time>2013-11-26T11:48:24Z</time>
      </trkpt>
      <trkpt lat="42.95761" lon="0.28483">
        <ele>1436.35</ele>
        <time>2013-11-26T11:48:37Z</time>
      </trkpt>
      <trkpt lat="42.95763" lon="0.28484">
        <ele>1436.83</ele>
        <time>2013-11-26T11:48:47Z</time>
      </trkpt>
      <trkpt lat="42.95764" lon="0.28484">
        <ele>1435.87</ele>
        <time>2013-11-26T11:48:59Z</time>
      </trkpt>
      <trkpt lat="42.95764" lon="0.28484">
        <ele>1435.39</ele>
        <time>2013-11-26T11:49:13Z</time>
      </trkpt>
      <trkpt lat="42.95766" lon="0.28479">
        <ele>1434.91</ele>
        <time>2013-11-26T11:49:28Z</time>
      </trkpt>
      <trkpt lat="42.95775" lon="0.28475">
        <ele>1434.42</ele>
        <time>2013-11-26T11:49:38Z</time>
      </trkpt>
      <trkpt lat="42.95778" lon="0.28472">
        <ele>1436.35</ele>
        <time>2013-11-26T11:49:42Z</time>
      </trkpt>
      <trkpt lat="42.95786" lon="0.28466">
        <ele>1439.71</ele>
        <time>2013-11-26T11:49:55Z</time>
      </trkpt>
      <trkpt lat="42.95794" lon="0.28461">
        <ele>1441.15</ele>
        <time>2013-11-26T11:50:06Z</time>
      </trkpt>
      <trkpt lat="42.95804" lon="0.28456">
        <ele>1442.11</ele>
        <time>2013-11-26T11:50:17Z</time>
      </trkpt>
      <trkpt lat="42.95815" lon="0.28453">
        <ele>1439.23</ele>
        <time>2013-11-26T11:50:29Z</time>
      </trkpt>
      <trkpt lat="42.95825" lon="0.28452">
        <ele>1437.31</ele>
        <time>2013-11-26T11:50:39Z</time>
      </trkpt>
      <trkpt lat="42.95835" lon="0.2845">
        <ele>1439.23</ele>
        <time>2013-11-26T11:50:51Z</time>
      </trkpt>
      <trkpt lat="42.9584" lon="0.28448">
        <ele>1438.75</ele>
        <time>2013-11-26T11:50:57Z</time>
      </trkpt>
      <trkpt lat="42.95853" lon="0.28443">
        <ele>1438.27</ele>
        <time>2013-11-26T11:51:11Z</time>
      </trkpt>
      <trkpt lat="42.95858" lon="0.28441">
        <ele>1437.79</ele>
        <time>2013-11-26T11:51:16Z</time>
      </trkpt>
      <trkpt lat="42.95871" lon="0.28437">
        <ele>1437.79</ele>
        <time>2013-11-26T11:51:31Z</time>
      </trkpt>
      <trkpt lat="42.95882" lon="0.28434">
        <ele>1437.79</ele>
        <time>2013-11-26T11:51:43Z</time>
      </trkpt>
      <trkpt lat="42.95895" lon="0.2843">
        <ele>1436.83</ele>
        <time>2013-11-26T11:51:57Z</time>
      </trkpt>
      <trkpt lat="42.95898" lon="0.28429">
        <ele>1437.31</ele>
        <time>2013-11-26T11:52:00Z</time>
      </trkpt>
      <trkpt lat="42.95907" lon="0.28426">
        <ele>1436.83</ele>
        <time>2013-11-26T11:52:13Z</time>
      </trkpt>
      <trkpt lat="42.95909" lon="0.28426">
        <ele>1436.35</ele>
        <time>2013-11-26T11:52:29Z</time>
      </trkpt>
      <trkpt lat="42.95918" lon="0.28422">
        <ele>1435.87</ele>
        <time>2013-11-26T11:52:43Z</time>
      </trkpt>
      <trkpt lat="42.95933" lon="0.28416">
        <ele>1436.83</ele>
        <time>2013-11-26T11:52:58Z</time>
      </trkpt>
      <trkpt lat="42.95938" lon="0.28415">
        <ele>1436.35</ele>
        <time>2013-11-26T11:53:02Z</time>
      </trkpt>
      <trkpt lat="42.95953" lon="0.28409">
        <ele>1435.87</ele>
        <time>2013-11-26T11:53:16Z</time>
      </trkpt>
      <trkpt lat="42.95962" lon="0.28405">
        <ele>1435.87</ele>
        <time>2013-11-26T11:53:28Z</time>
      </trkpt>
      <trkpt lat="42.95969" lon="0.28403">
        <ele>1436.35</ele>
        <time>2013-11-26T11:53:38Z</time>
      </trkpt>
      <trkpt lat="42.95975" lon="0.28401">
        <ele>1435.87</ele>
        <time>2013-11-26T11:53:44Z</time>
      </trkpt>
      <trkpt lat="42.95979" lon="0.284">
        <ele>1436.35</ele>
        <time>2013-11-26T11:53:48Z</time>
      </trkpt>
      <trkpt lat="42.95986" lon="0.284">
        <ele>1436.83</ele>
        <time>2013-11-26T11:54:02Z</time>
      </trkpt>
      <trkpt lat="42.95993" lon="0.28398">
        <ele>1436.35</ele>
        <time>2013-11-26T11:54:15Z</time>
      </trkpt>
      <trkpt lat="42.95996" lon="0.28397">
        <ele>1436.35</ele>
        <time>2013-11-26T11:54:28Z</time>
      </trkpt>
      <trkpt lat="42.95996" lon="0.28397">
        <ele>1436.35</ele>
        <time>2013-11-26T11:54:47Z</time>
      </trkpt>
      <trkpt lat="42.95999" lon="0.28398">
        <ele>1435.87</ele>
        <time>2013-11-26T11:55:02Z</time>
      </trkpt>
      <trkpt lat="42.95999" lon="0.28398">
        <ele>1435.87</ele>
        <time>2013-11-26T11:55:23Z</time>
      </trkpt>
      <trkpt lat="42.96" lon="0.28397">
        <ele>1436.35</ele>
        <time>2013-11-26T11:55:37Z</time>
      </trkpt>
      <trkpt lat="42.96" lon="0.28398">
        <ele>1435.39</ele>
        <time>2013-11-26T11:55:52Z</time>
      </trkpt>
      <trkpt lat="42.96" lon="0.28398">
        <ele>1435.39</ele>
        <time>2013-11-26T11:56:14Z</time>
      </trkpt>
      <trkpt lat="42.96" lon="0.284">
        <ele>1435.39</ele>
        <time>2013-11-26T11:56:43Z</time>
      </trkpt>
      <trkpt lat="42.95999" lon="0.28398">
        <ele>1435.87</ele>
        <time>2013-11-26T11:56:57Z</time>
      </trkpt>
      <trkpt lat="42.95999" lon="0.28398">
        <ele>1436.83</ele>
        <time>2013-11-26T11:57:15Z</time>
      </trkpt>
      <trkpt lat="42.95999" lon="0.28398">
        <ele>1436.83</ele>
        <time>2013-11-26T11:57:29Z</time>
      </trkpt>
      <trkpt lat="42.96" lon="0.28398">
        <ele>1436.35</ele>
        <time>2013-11-26T11:57:40Z</time>
      </trkpt>
      <trkpt lat="42.96" lon="0.28395">
        <ele>1436.83</ele>
        <time>2013-11-26T11:57:57Z</time>
      </trkpt>
      <trkpt lat="42.95999" lon="0.28395">
        <ele>1436.35</ele>
        <time>2013-11-26T11:58:12Z</time>
      </trkpt>
      <trkpt lat="42.96001" lon="0.28396">
        <ele>1436.35</ele>
        <time>2013-11-26T11:58:30Z</time>
      </trkpt>
      <trkpt lat="42.96001" lon="0.28396">
        <ele>1436.35</ele>
        <time>2013-11-26T11:58:50Z</time>
      </trkpt>
      <trkpt lat="42.96006" lon="0.28395">
        <ele>1437.31</ele>
        <time>2013-11-26T11:58:59Z</time>
      </trkpt>
      <trkpt lat="42.96015" lon="0.28393">
        <ele>1436.35</ele>
        <time>2013-11-26T11:59:12Z</time>
      </trkpt>
      <trkpt lat="42.96025" lon="0.28392">
        <ele>1437.31</ele>
        <time>2013-11-26T11:59:23Z</time>
      </trkpt>
      <trkpt lat="42.96026" lon="0.28391">
        <ele>1436.83</ele>
        <time>2013-11-26T11:59:24Z</time>
      </trkpt>
      <trkpt lat="42.9603" lon="0.28391">
        <ele>1437.31</ele>
        <time>2013-11-26T11:59:37Z</time>
      </trkpt>
      <trkpt lat="42.96033" lon="0.28391">
        <ele>1437.31</ele>
        <time>2013-11-26T11:59:46Z</time>
      </trkpt>
      <trkpt lat="42.96044" lon="0.2839">
        <ele>1437.31</ele>
        <time>2013-11-26T11:59:58Z</time>
      </trkpt>
      <trkpt lat="42.96047" lon="0.2839">
        <ele>1436.83</ele>
        <time>2013-11-26T12:00:01Z</time>
      </trkpt>
      <trkpt lat="42.96049" lon="0.28389">
        <ele>1437.31</ele>
        <time>2013-11-26T12:00:03Z</time>
      </trkpt>
      <trkpt lat="42.96062" lon="0.28389">
        <ele>1439.71</ele>
        <time>2013-11-26T12:00:18Z</time>
      </trkpt>
      <trkpt lat="42.96068" lon="0.28389">
        <ele>1440.19</ele>
        <time>2013-11-26T12:00:26Z</time>
      </trkpt>
      <trkpt lat="42.96077" lon="0.28389">
        <ele>1442.11</ele>
        <time>2013-11-26T12:00:40Z</time>
      </trkpt>
      <trkpt lat="42.96082" lon="0.28388">
        <ele>1442.11</ele>
        <time>2013-11-26T12:00:46Z</time>
      </trkpt>
      <trkpt lat="42.96094" lon="0.2839">
        <ele>1441.15</ele>
        <time>2013-11-26T12:01:00Z</time>
      </trkpt>
      <trkpt lat="42.96103" lon="0.28391">
        <ele>1441.15</ele>
        <time>2013-11-26T12:01:14Z</time>
      </trkpt>
      <trkpt lat="42.96113" lon="0.2839">
        <ele>1441.63</ele>
        <time>2013-11-26T12:01:27Z</time>
      </trkpt>
      <trkpt lat="42.96121" lon="0.28391">
        <ele>1442.6</ele>
        <time>2013-11-26T12:01:38Z</time>
      </trkpt>
      <trkpt lat="42.96128" lon="0.28392">
        <ele>1442.6</ele>
        <time>2013-11-26T12:01:49Z</time>
      </trkpt>
      <trkpt lat="42.96136" lon="0.28394">
        <ele>1445</ele>
        <time>2013-11-26T12:02:02Z</time>
      </trkpt>
      <trkpt lat="42.96146" lon="0.28395">
        <ele>1444.52</ele>
        <time>2013-11-26T12:02:16Z</time>
      </trkpt>
      <trkpt lat="42.96154" lon="0.28399">
        <ele>1443.56</ele>
        <time>2013-11-26T12:02:29Z</time>
      </trkpt>
      <trkpt lat="42.96162" lon="0.28401">
        <ele>1444.04</ele>
        <time>2013-11-26T12:02:41Z</time>
      </trkpt>
      <trkpt lat="42.96171" lon="0.28407">
        <ele>1442.6</ele>
        <time>2013-11-26T12:02:55Z</time>
      </trkpt>
      <trkpt lat="42.96174" lon="0.28408">
        <ele>1442.11</ele>
        <time>2013-11-26T12:03:10Z</time>
      </trkpt>
      <trkpt lat="42.96181" lon="0.28408">
        <ele>1442.11</ele>
        <time>2013-11-26T12:03:22Z</time>
      </trkpt>
      <trkpt lat="42.9619" lon="0.28408">
        <ele>1440.67</ele>
        <time>2013-11-26T12:03:35Z</time>
      </trkpt>
      <trkpt lat="42.96203" lon="0.28405">
        <ele>1438.75</ele>
        <time>2013-11-26T12:03:46Z</time>
      </trkpt>
      <trkpt lat="42.96215" lon="0.284">
        <ele>1438.75</ele>
        <time>2013-11-26T12:03:59Z</time>
      </trkpt>
      <trkpt lat="42.96221" lon="0.28396">
        <ele>1439.23</ele>
        <time>2013-11-26T12:04:06Z</time>
      </trkpt>
      <trkpt lat="42.96227" lon="0.28391">
        <ele>1438.75</ele>
        <time>2013-11-26T12:04:13Z</time>
      </trkpt>
      <trkpt lat="42.96238" lon="0.28383">
        <ele>1439.71</ele>
        <time>2013-11-26T12:04:27Z</time>
      </trkpt>
      <trkpt lat="42.96247" lon="0.28383">
        <ele>1439.71</ele>
        <time>2013-11-26T12:04:39Z</time>
      </trkpt>
      <trkpt lat="42.96257" lon="0.28381">
        <ele>1440.19</ele>
        <time>2013-11-26T12:04:52Z</time>
      </trkpt>
      <trkpt lat="42.96264" lon="0.28382">
        <ele>1439.71</ele>
        <time>2013-11-26T12:05:04Z</time>
      </trkpt>
      <trkpt lat="42.9627" lon="0.28381">
        <ele>1438.27</ele>
        <time>2013-11-26T12:05:11Z</time>
      </trkpt>
      <trkpt lat="42.96284" lon="0.28383">
        <ele>1435.39</ele>
        <time>2013-11-26T12:05:26Z</time>
      </trkpt>
      <trkpt lat="42.96294" lon="0.28387">
        <ele>1434.42</ele>
        <time>2013-11-26T12:05:39Z</time>
      </trkpt>
      <trkpt lat="42.96297" lon="0.2839">
        <ele>1432.98</ele>
        <time>2013-11-26T12:05:43Z</time>
      </trkpt>
      <trkpt lat="42.96306" lon="0.28405">
        <ele>1432.5</ele>
        <time>2013-11-26T12:05:57Z</time>
      </trkpt>
      <trkpt lat="42.96309" lon="0.28418">
        <ele>1431.54</ele>
        <time>2013-11-26T12:06:10Z</time>
      </trkpt>
      <trkpt lat="42.96311" lon="0.28429">
        <ele>1432.02</ele>
        <time>2013-11-26T12:06:19Z</time>
      </trkpt>
      <trkpt lat="42.96313" lon="0.28443">
        <ele>1432.98</ele>
        <time>2013-11-26T12:06:33Z</time>
      </trkpt>
      <trkpt lat="42.96316" lon="0.28458">
        <ele>1432.02</ele>
        <time>2013-11-26T12:06:46Z</time>
      </trkpt>
      <trkpt lat="42.9632" lon="0.28471">
        <ele>1431.06</ele>
        <time>2013-11-26T12:06:59Z</time>
      </trkpt>
      <trkpt lat="42.96323" lon="0.28477">
        <ele>1431.06</ele>
        <time>2013-11-26T12:07:05Z</time>
      </trkpt>
      <trkpt lat="42.9633" lon="0.28488">
        <ele>1428.66</ele>
        <time>2013-11-26T12:07:18Z</time>
      </trkpt>
      <trkpt lat="42.96334" lon="0.28496">
        <ele>1427.7</ele>
        <time>2013-11-26T12:07:27Z</time>
      </trkpt>
      <trkpt lat="42.96336" lon="0.28506">
        <ele>1427.7</ele>
        <time>2013-11-26T12:07:39Z</time>
      </trkpt>
      <trkpt lat="42.96337" lon="0.28514">
        <ele>1429.14</ele>
        <time>2013-11-26T12:07:50Z</time>
      </trkpt>
      <trkpt lat="42.96337" lon="0.28519">
        <ele>1429.62</ele>
        <time>2013-11-26T12:07:56Z</time>
      </trkpt>
      <trkpt lat="42.96341" lon="0.28532">
        <ele>1431.06</ele>
        <time>2013-11-26T12:08:10Z</time>
      </trkpt>
      <trkpt lat="42.96344" lon="0.28542">
        <ele>1431.06</ele>
        <time>2013-11-26T12:08:23Z</time>
      </trkpt>
      <trkpt lat="42.96347" lon="0.28552">
        <ele>1431.54</ele>
        <time>2013-11-26T12:08:37Z</time>
      </trkpt>
      <trkpt lat="42.96351" lon="0.28562">
        <ele>1432.5</ele>
        <time>2013-11-26T12:08:50Z</time>
      </trkpt>
      <trkpt lat="42.96353" lon="0.28568">
        <ele>1432.98</ele>
        <time>2013-11-26T12:09:03Z</time>
      </trkpt>
      <trkpt lat="42.96354" lon="0.28572">
        <ele>1433.46</ele>
        <time>2013-11-26T12:09:16Z</time>
      </trkpt>
      <trkpt lat="42.96354" lon="0.28573">
        <ele>1432.98</ele>
        <time>2013-11-26T12:09:40Z</time>
      </trkpt>
      <trkpt lat="42.96355" lon="0.28574">
        <ele>1432.5</ele>
        <time>2013-11-26T12:09:54Z</time>
      </trkpt>
      <trkpt lat="42.96357" lon="0.28575">
        <ele>1432.5</ele>
        <time>2013-11-26T12:10:08Z</time>
      </trkpt>
      <trkpt lat="42.96357" lon="0.28576">
        <ele>1432.5</ele>
        <time>2013-11-26T12:10:13Z</time>
      </trkpt>
      <trkpt lat="42.96358" lon="0.28579">
        <ele>1432.5</ele>
        <time>2013-11-26T12:10:25Z</time>
      </trkpt>
      <trkpt lat="42.96358" lon="0.28581">
        <ele>1432.5</ele>
        <time>2013-11-26T12:10:38Z</time>
      </trkpt>
      <trkpt lat="42.96357" lon="0.28582">
        <ele>1432.98</ele>
        <time>2013-11-26T12:10:49Z</time>
      </trkpt>
      <trkpt lat="42.96357" lon="0.28582">
        <ele>1432.98</ele>
        <time>2013-11-26T12:11:18Z</time>
      </trkpt>
      <trkpt lat="42.96357" lon="0.28583">
        <ele>1432.98</ele>
        <time>2013-11-26T12:11:44Z</time>
      </trkpt>
      <trkpt lat="42.96357" lon="0.28583">
        <ele>1432.98</ele>
        <time>2013-11-26T12:12:01Z</time>
      </trkpt>
      <trkpt lat="42.96357" lon="0.28582">
        <ele>1433.46</ele>
        <time>2013-11-26T12:12:22Z</time>
      </trkpt>
      <trkpt lat="42.96357" lon="0.28583">
        <ele>1433.46</ele>
        <time>2013-11-26T12:12:46Z</time>
      </trkpt>
      <trkpt lat="42.96357" lon="0.28585">
        <ele>1433.46</ele>
        <time>2013-11-26T12:13:01Z</time>
      </trkpt>
      <trkpt lat="42.96359" lon="0.2859">
        <ele>1433.94</ele>
        <time>2013-11-26T12:13:19Z</time>
      </trkpt>
      <trkpt lat="42.96363" lon="0.28602">
        <ele>1434.91</ele>
        <time>2013-11-26T12:13:31Z</time>
      </trkpt>
      <trkpt lat="42.96367" lon="0.28612">
        <ele>1436.35</ele>
        <time>2013-11-26T12:13:45Z</time>
      </trkpt>
      <trkpt lat="42.96372" lon="0.28626">
        <ele>1437.31</ele>
        <time>2013-11-26T12:14:00Z</time>
      </trkpt>
      <trkpt lat="42.96374" lon="0.28638">
        <ele>1437.31</ele>
        <time>2013-11-26T12:14:14Z</time>
      </trkpt>
      <trkpt lat="42.96376" lon="0.28651">
        <ele>1437.31</ele>
        <time>2013-11-26T12:14:28Z</time>
      </trkpt>
      <trkpt lat="42.96377" lon="0.2866">
        <ele>1440.19</ele>
        <time>2013-11-26T12:14:41Z</time>
      </trkpt>
      <trkpt lat="42.96379" lon="0.28671">
        <ele>1440.19</ele>
        <time>2013-11-26T12:14:52Z</time>
      </trkpt>
      <trkpt lat="42.9638" lon="0.28685">
        <ele>1441.63</ele>
        <time>2013-11-26T12:15:05Z</time>
      </trkpt>
      <trkpt lat="42.9638" lon="0.28696">
        <ele>1442.11</ele>
        <time>2013-11-26T12:15:20Z</time>
      </trkpt>
      <trkpt lat="42.96381" lon="0.28704">
        <ele>1444.04</ele>
        <time>2013-11-26T12:15:31Z</time>
      </trkpt>
      <trkpt lat="42.96381" lon="0.28716">
        <ele>1445.96</ele>
        <time>2013-11-26T12:15:45Z</time>
      </trkpt>
      <trkpt lat="42.96381" lon="0.28726">
        <ele>1445.96</ele>
        <time>2013-11-26T12:15:55Z</time>
      </trkpt>
      <trkpt lat="42.96381" lon="0.28734">
        <ele>1447.4</ele>
        <time>2013-11-26T12:16:11Z</time>
      </trkpt>
      <trkpt lat="42.9638" lon="0.28745">
        <ele>1448.84</ele>
        <time>2013-11-26T12:16:23Z</time>
      </trkpt>
      <trkpt lat="42.96381" lon="0.28753">
        <ele>1449.32</ele>
        <time>2013-11-26T12:16:36Z</time>
      </trkpt>
      <trkpt lat="42.96381" lon="0.28765">
        <ele>1448.84</ele>
        <time>2013-11-26T12:16:55Z</time>
      </trkpt>
      <trkpt lat="42.96382" lon="0.28768">
        <ele>1448.84</ele>
        <time>2013-11-26T12:17:09Z</time>
      </trkpt>
      <trkpt lat="42.96383" lon="0.2879">
        <ele>1447.88</ele>
        <time>2013-11-26T12:17:25Z</time>
      </trkpt>
      <trkpt lat="42.96385" lon="0.28801">
        <ele>1449.81</ele>
        <time>2013-11-26T12:17:35Z</time>
      </trkpt>
      <trkpt lat="42.96385" lon="0.28803">
        <ele>1450.29</ele>
        <time>2013-11-26T12:17:36Z</time>
      </trkpt>
      <trkpt lat="42.96385" lon="0.28814">
        <ele>1452.69</ele>
        <time>2013-11-26T12:17:48Z</time>
      </trkpt>
      <trkpt lat="42.96387" lon="0.28823">
        <ele>1453.65</ele>
        <time>2013-11-26T12:18:01Z</time>
      </trkpt>
      <trkpt lat="42.96387" lon="0.28828">
        <ele>1453.17</ele>
        <time>2013-11-26T12:18:13Z</time>
      </trkpt>
      <trkpt lat="42.96387" lon="0.28828">
        <ele>1453.17</ele>
        <time>2013-11-26T12:18:29Z</time>
      </trkpt>
      <trkpt lat="42.96387" lon="0.28827">
        <ele>1453.17</ele>
        <time>2013-11-26T12:18:41Z</time>
      </trkpt>
      <trkpt lat="42.96385" lon="0.28826">
        <ele>1452.69</ele>
        <time>2013-11-26T12:18:53Z</time>
      </trkpt>
      <trkpt lat="42.96385" lon="0.28827">
        <ele>1452.69</ele>
        <time>2013-11-26T12:19:17Z</time>
      </trkpt>
      <trkpt lat="42.96383" lon="0.2883">
        <ele>1453.17</ele>
        <time>2013-11-26T12:19:26Z</time>
      </trkpt>
      <trkpt lat="42.96384" lon="0.28834">
        <ele>1454.61</ele>
        <time>2013-11-26T12:19:49Z</time>
      </trkpt>
      <trkpt lat="42.96389" lon="0.28843">
        <ele>1454.13</ele>
        <time>2013-11-26T12:20:00Z</time>
      </trkpt>
      <trkpt lat="42.96389" lon="0.28846">
        <ele>1453.65</ele>
        <time>2013-11-26T12:20:03Z</time>
      </trkpt>
      <trkpt lat="42.96391" lon="0.28859">
        <ele>1455.09</ele>
        <time>2013-11-26T12:20:16Z</time>
      </trkpt>
      <trkpt lat="42.96393" lon="0.28871">
        <ele>1457.02</ele>
        <time>2013-11-26T12:20:27Z</time>
      </trkpt>
      <trkpt lat="42.96396" lon="0.28878">
        <ele>1457.5</ele>
        <time>2013-11-26T12:20:38Z</time>
      </trkpt>
      <trkpt lat="42.96398" lon="0.28887">
        <ele>1457.02</ele>
        <time>2013-11-26T12:20:51Z</time>
      </trkpt>
      <trkpt lat="42.96397" lon="0.28894">
        <ele>1456.53</ele>
        <time>2013-11-26T12:21:01Z</time>
      </trkpt>
      <trkpt lat="42.96398" lon="0.28901">
        <ele>1456.53</ele>
        <time>2013-11-26T12:21:18Z</time>
      </trkpt>
      <trkpt lat="42.96398" lon="0.28901">
        <ele>1456.53</ele>
        <time>2013-11-26T12:21:41Z</time>
      </trkpt>
      <trkpt lat="42.96399" lon="0.28901">
        <ele>1456.53</ele>
        <time>2013-11-26T12:22:02Z</time>
      </trkpt>
      <trkpt lat="42.96399" lon="0.28901">
        <ele>1456.53</ele>
        <time>2013-11-26T12:22:27Z</time>
      </trkpt>
      <trkpt lat="42.96399" lon="0.289">
        <ele>1456.53</ele>
        <time>2013-11-26T12:22:52Z</time>
      </trkpt>
      <trkpt lat="42.96399" lon="0.28901">
        <ele>1456.53</ele>
        <time>2013-11-26T12:23:05Z</time>
      </trkpt>
      <trkpt lat="42.96398" lon="0.28902">
        <ele>1456.05</ele>
        <time>2013-11-26T12:23:15Z</time>
      </trkpt>
      <trkpt lat="42.96398" lon="0.28902">
        <ele>1456.05</ele>
        <time>2013-11-26T12:23:36Z</time>
      </trkpt>
      <trkpt lat="42.96398" lon="0.28902">
        <ele>1456.05</ele>
        <time>2013-11-26T12:23:56Z</time>
      </trkpt>
      <trkpt lat="42.96398" lon="0.28901">
        <ele>1456.53</ele>
        <time>2013-11-26T12:24:30Z</time>
      </trkpt>
      <trkpt lat="42.96398" lon="0.28901">
        <ele>1456.53</ele>
        <time>2013-11-26T12:24:47Z</time>
      </trkpt>
      <trkpt lat="42.96399" lon="0.28902">
        <ele>1456.53</ele>
        <time>2013-11-26T12:25:18Z</time>
      </trkpt>
      <trkpt lat="42.96398" lon="0.28901">
        <ele>1457.5</ele>
        <time>2013-11-26T12:25:30Z</time>
      </trkpt>
      <trkpt lat="42.96398" lon="0.28901">
        <ele>1457.5</ele>
        <time>2013-11-26T12:26:07Z</time>
      </trkpt>
      <trkpt lat="42.96398" lon="0.28901">
        <ele>1457.5</ele>
        <time>2013-11-26T12:26:34Z</time>
      </trkpt>
      <trkpt lat="42.96398" lon="0.28901">
        <ele>1457.5</ele>
        <time>2013-11-26T12:27:01Z</time>
      </trkpt>
      <trkpt lat="42.96399" lon="0.289">
        <ele>1456.53</ele>
        <time>2013-11-26T12:27:31Z</time>
      </trkpt>
      <trkpt lat="42.96399" lon="0.289">
        <ele>1456.53</ele>
        <time>2013-11-26T12:27:54Z</time>
      </trkpt>
      <trkpt lat="42.96399" lon="0.28899">
        <ele>1456.05</ele>
        <time>2013-11-26T12:28:07Z</time>
      </trkpt>
      <trkpt lat="42.96399" lon="0.28899">
        <ele>1456.05</ele>
        <time>2013-11-26T12:28:40Z</time>
      </trkpt>
      <trkpt lat="42.96399" lon="0.28899">
        <ele>1456.05</ele>
        <time>2013-11-26T12:29:01Z</time>
      </trkpt>
      <trkpt lat="42.96398" lon="0.289">
        <ele>1456.53</ele>
        <time>2013-11-26T12:29:15Z</time>
      </trkpt>
      <trkpt lat="42.96398" lon="0.289">
        <ele>1456.53</ele>
        <time>2013-11-26T12:29:38Z</time>
      </trkpt>
      <trkpt lat="42.96398" lon="0.289">
        <ele>1456.53</ele>
        <time>2013-11-26T12:30:05Z</time>
      </trkpt>
      <trkpt lat="42.96398" lon="0.289">
        <ele>1456.53</ele>
        <time>2013-11-26T12:30:20Z</time>
      </trkpt>
      <trkpt lat="42.96398" lon="0.28901">
        <ele>1456.05</ele>
        <time>2013-11-26T12:30:37Z</time>
      </trkpt>
      <trkpt lat="42.96398" lon="0.28901">
        <ele>1456.05</ele>
        <time>2013-11-26T12:31:07Z</time>
      </trkpt>
      <trkpt lat="42.96398" lon="0.28901">
        <ele>1456.05</ele>
        <time>2013-11-26T12:31:29Z</time>
      </trkpt>
      <trkpt lat="42.96398" lon="0.28901">
        <ele>1456.05</ele>
        <time>2013-11-26T12:31:51Z</time>
      </trkpt>
      <trkpt lat="42.96398" lon="0.28901">
        <ele>1456.05</ele>
        <time>2013-11-26T12:32:12Z</time>
      </trkpt>
      <trkpt lat="42.96398" lon="0.28901">
        <ele>1456.05</ele>
        <time>2013-11-26T12:32:38Z</time>
      </trkpt>
      <trkpt lat="42.96399" lon="0.28901">
        <ele>1455.57</ele>
        <time>2013-11-26T12:33:04Z</time>
      </trkpt>
      <trkpt lat="42.96399" lon="0.28901">
        <ele>1455.57</ele>
        <time>2013-11-26T12:33:30Z</time>
      </trkpt>
      <trkpt lat="42.96399" lon="0.28901">
        <ele>1455.09</ele>
        <time>2013-11-26T12:33:56Z</time>
      </trkpt>
      <trkpt lat="42.96399" lon="0.28901">
        <ele>1455.09</ele>
        <time>2013-11-26T12:34:20Z</time>
      </trkpt>
      <trkpt lat="42.96399" lon="0.289">
        <ele>1455.09</ele>
        <time>2013-11-26T12:34:40Z</time>
      </trkpt>
      <trkpt lat="42.964" lon="0.28905">
        <ele>1454.61</ele>
        <time>2013-11-26T12:34:59Z</time>
      </trkpt>
      <trkpt lat="42.964" lon="0.28906">
        <ele>1454.61</ele>
        <time>2013-11-26T12:35:00Z</time>
      </trkpt>
      <trkpt lat="42.96403" lon="0.28918">
        <ele>1455.09</ele>
        <time>2013-11-26T12:35:16Z</time>
      </trkpt>
      <trkpt lat="42.96404" lon="0.28924">
        <ele>1454.61</ele>
        <time>2013-11-26T12:35:20Z</time>
      </trkpt>
      <trkpt lat="42.96411" lon="0.28937">
        <ele>1454.13</ele>
        <time>2013-11-26T12:35:34Z</time>
      </trkpt>
      <trkpt lat="42.96415" lon="0.28944">
        <ele>1453.65</ele>
        <time>2013-11-26T12:35:46Z</time>
      </trkpt>
      <trkpt lat="42.96415" lon="0.28944">
        <ele>1453.65</ele>
        <time>2013-11-26T12:35:55Z</time>
      </trkpt>
      <trkpt lat="42.96414" lon="0.28952">
        <ele>1453.17</ele>
        <time>2013-11-26T12:36:02Z</time>
      </trkpt>
      <trkpt lat="42.96412" lon="0.28961">
        <ele>1451.25</ele>
        <time>2013-11-26T12:36:09Z</time>
      </trkpt>
      <trkpt lat="42.96409" lon="0.28975">
        <ele>1447.4</ele>
        <time>2013-11-26T12:36:21Z</time>
      </trkpt>
      <trkpt lat="42.96405" lon="0.2899">
        <ele>1442.11</ele>
        <time>2013-11-26T12:36:35Z</time>
      </trkpt>
      <trkpt lat="42.96403" lon="0.28995">
        <ele>1441.63</ele>
        <time>2013-11-26T12:36:40Z</time>
      </trkpt>
      <trkpt lat="42.96397" lon="0.29005">
        <ele>1441.15</ele>
        <time>2013-11-26T12:36:51Z</time>
      </trkpt>
      <trkpt lat="42.96393" lon="0.29013">
        <ele>1440.67</ele>
        <time>2013-11-26T12:37:05Z</time>
      </trkpt>
      <trkpt lat="42.96392" lon="0.29017">
        <ele>1440.19</ele>
        <time>2013-11-26T12:37:09Z</time>
      </trkpt>
      <trkpt lat="42.9639" lon="0.29032">
        <ele>1437.79</ele>
        <time>2013-11-26T12:37:23Z</time>
      </trkpt>
      <trkpt lat="42.96386" lon="0.29048">
        <ele>1437.31</ele>
        <time>2013-11-26T12:37:37Z</time>
      </trkpt>
      <trkpt lat="42.96385" lon="0.29061">
        <ele>1436.83</ele>
        <time>2013-11-26T12:37:47Z</time>
      </trkpt>
      <trkpt lat="42.96384" lon="0.29078">
        <ele>1436.35</ele>
        <time>2013-11-26T12:38:01Z</time>
      </trkpt>
      <trkpt lat="42.96383" lon="0.2908">
        <ele>1435.87</ele>
        <time>2013-11-26T12:38:03Z</time>
      </trkpt>
      <trkpt lat="42.96382" lon="0.29085">
        <ele>1435.87</ele>
        <time>2013-11-26T12:38:07Z</time>
      </trkpt>
      <trkpt lat="42.96387" lon="0.29105">
        <ele>1435.39</ele>
        <time>2013-11-26T12:38:23Z</time>
      </trkpt>
      <trkpt lat="42.96389" lon="0.29111">
        <ele>1435.39</ele>
        <time>2013-11-26T12:38:28Z</time>
      </trkpt>
      <trkpt lat="42.9639" lon="0.29117">
        <ele>1434.42</ele>
        <time>2013-11-26T12:38:32Z</time>
      </trkpt>
      <trkpt lat="42.96389" lon="0.29128">
        <ele>1433.94</ele>
        <time>2013-11-26T12:38:45Z</time>
      </trkpt>
      <trkpt lat="42.96387" lon="0.29144">
        <ele>1434.42</ele>
        <time>2013-11-26T12:38:59Z</time>
      </trkpt>
      <trkpt lat="42.96385" lon="0.29159">
        <ele>1434.42</ele>
        <time>2013-11-26T12:39:12Z</time>
      </trkpt>
      <trkpt lat="42.96385" lon="0.29166">
        <ele>1434.42</ele>
        <time>2013-11-26T12:39:19Z</time>
      </trkpt>
      <trkpt lat="42.96385" lon="0.29174">
        <ele>1434.91</ele>
        <time>2013-11-26T12:39:27Z</time>
      </trkpt>
      <trkpt lat="42.96384" lon="0.29184">
        <ele>1433.94</ele>
        <time>2013-11-26T12:39:34Z</time>
      </trkpt>
      <trkpt lat="42.96384" lon="0.29195">
        <ele>1434.42</ele>
        <time>2013-11-26T12:39:43Z</time>
      </trkpt>
      <trkpt lat="42.96384" lon="0.29202">
        <ele>1434.42</ele>
        <time>2013-11-26T12:39:48Z</time>
      </trkpt>
      <trkpt lat="42.96384" lon="0.29207">
        <ele>1434.42</ele>
        <time>2013-11-26T12:39:52Z</time>
      </trkpt>
      <trkpt lat="42.96381" lon="0.29225">
        <ele>1432.98</ele>
        <time>2013-11-26T12:40:06Z</time>
      </trkpt>
      <trkpt lat="42.96381" lon="0.29242">
        <ele>1431.06</ele>
        <time>2013-11-26T12:40:19Z</time>
      </trkpt>
      <trkpt lat="42.96384" lon="0.29251">
        <ele>1429.62</ele>
        <time>2013-11-26T12:40:29Z</time>
      </trkpt>
      <trkpt lat="42.96385" lon="0.29254">
        <ele>1429.14</ele>
        <time>2013-11-26T12:40:32Z</time>
      </trkpt>
      <trkpt lat="42.96391" lon="0.29262">
        <ele>1428.66</ele>
        <time>2013-11-26T12:40:41Z</time>
      </trkpt>
      <trkpt lat="42.96393" lon="0.29265">
        <ele>1428.66</ele>
        <time>2013-11-26T12:40:45Z</time>
      </trkpt>
      <trkpt lat="42.96405" lon="0.29271">
        <ele>1426.73</ele>
        <time>2013-11-26T12:40:59Z</time>
      </trkpt>
      <trkpt lat="42.9641" lon="0.29276">
        <ele>1426.73</ele>
        <time>2013-11-26T12:41:06Z</time>
      </trkpt>
      <trkpt lat="42.96419" lon="0.29289">
        <ele>1425.29</ele>
        <time>2013-11-26T12:41:20Z</time>
      </trkpt>
      <trkpt lat="42.96425" lon="0.29309">
        <ele>1423.85</ele>
        <time>2013-11-26T12:41:36Z</time>
      </trkpt>
      <trkpt lat="42.96427" lon="0.29324">
        <ele>1423.37</ele>
        <time>2013-11-26T12:41:47Z</time>
      </trkpt>
      <trkpt lat="42.9643" lon="0.29337">
        <ele>1422.89</ele>
        <time>2013-11-26T12:41:57Z</time>
      </trkpt>
      <trkpt lat="42.96431" lon="0.29355">
        <ele>1421.45</ele>
        <time>2013-11-26T12:42:11Z</time>
      </trkpt>
      <trkpt lat="42.96433" lon="0.29373">
        <ele>1420.97</ele>
        <time>2013-11-26T12:42:25Z</time>
      </trkpt>
      <trkpt lat="42.96435" lon="0.29381">
        <ele>1420</ele>
        <time>2013-11-26T12:42:32Z</time>
      </trkpt>
      <trkpt lat="42.96447" lon="0.2939">
        <ele>1419.52</ele>
        <time>2013-11-26T12:42:47Z</time>
      </trkpt>
      <trkpt lat="42.96449" lon="0.29391">
        <ele>1419.52</ele>
        <time>2013-11-26T12:42:50Z</time>
      </trkpt>
      <trkpt lat="42.96459" lon="0.29386">
        <ele>1420</ele>
        <time>2013-11-26T12:43:08Z</time>
      </trkpt>
      <trkpt lat="42.96461" lon="0.29382">
        <ele>1421.93</ele>
        <time>2013-11-26T12:43:15Z</time>
      </trkpt>
      <trkpt lat="42.9647" lon="0.29373">
        <ele>1424.33</ele>
        <time>2013-11-26T12:43:30Z</time>
      </trkpt>
      <trkpt lat="42.96477" lon="0.29366">
        <ele>1426.73</ele>
        <time>2013-11-26T12:43:43Z</time>
      </trkpt>
      <trkpt lat="42.96487" lon="0.29358">
        <ele>1428.18</ele>
        <time>2013-11-26T12:43:56Z</time>
      </trkpt>
      <trkpt lat="42.96496" lon="0.29353">
        <ele>1429.62</ele>
        <time>2013-11-26T12:44:06Z</time>
      </trkpt>
      <trkpt lat="42.96502" lon="0.29343">
        <ele>1431.54</ele>
        <time>2013-11-26T12:44:20Z</time>
      </trkpt>
      <trkpt lat="42.96504" lon="0.29343">
        <ele>1431.06</ele>
        <time>2013-11-26T12:44:24Z</time>
      </trkpt>
      <trkpt lat="42.96516" lon="0.29343">
        <ele>1430.58</ele>
        <time>2013-11-26T12:44:39Z</time>
      </trkpt>
      <trkpt lat="42.96517" lon="0.29343">
        <ele>1430.1</ele>
        <time>2013-11-26T12:44:40Z</time>
      </trkpt>
      <trkpt lat="42.96521" lon="0.2935">
        <ele>1430.58</ele>
        <time>2013-11-26T12:44:53Z</time>
      </trkpt>
      <trkpt lat="42.96519" lon="0.29353">
        <ele>1429.62</ele>
        <time>2013-11-26T12:44:56Z</time>
      </trkpt>
      <trkpt lat="42.96513" lon="0.29366">
        <ele>1425.77</ele>
        <time>2013-11-26T12:45:11Z</time>
      </trkpt>
      <trkpt lat="42.9651" lon="0.29381">
        <ele>1420.97</ele>
        <time>2013-11-26T12:45:26Z</time>
      </trkpt>
      <trkpt lat="42.9651" lon="0.29393">
        <ele>1417.12</ele>
        <time>2013-11-26T12:45:37Z</time>
      </trkpt>
      <trkpt lat="42.96513" lon="0.29402">
        <ele>1413.76</ele>
        <time>2013-11-26T12:45:46Z</time>
      </trkpt>
      <trkpt lat="42.96506" lon="0.29416">
        <ele>1410.87</ele>
        <time>2013-11-26T12:46:01Z</time>
      </trkpt>
      <trkpt lat="42.96505" lon="0.2942">
        <ele>1408.95</ele>
        <time>2013-11-26T12:46:14Z</time>
      </trkpt>
      <trkpt lat="42.96499" lon="0.29436">
        <ele>1402.7</ele>
        <time>2013-11-26T12:46:28Z</time>
      </trkpt>
      <trkpt lat="42.96494" lon="0.29445">
        <ele>1399.82</ele>
        <time>2013-11-26T12:46:37Z</time>
      </trkpt>
      <trkpt lat="42.96489" lon="0.29456">
        <ele>1397.41</ele>
        <time>2013-11-26T12:46:48Z</time>
      </trkpt>
      <trkpt lat="42.96488" lon="0.29459">
        <ele>1396.45</ele>
        <time>2013-11-26T12:46:50Z</time>
      </trkpt>
      <trkpt lat="42.96486" lon="0.29462">
        <ele>1395.49</ele>
        <time>2013-11-26T12:46:53Z</time>
      </trkpt>
      <trkpt lat="42.9648" lon="0.29481">
        <ele>1391.17</ele>
        <time>2013-11-26T12:47:07Z</time>
      </trkpt>
      <trkpt lat="42.96476" lon="0.29488">
        <ele>1390.2</ele>
        <time>2013-11-26T12:47:22Z</time>
      </trkpt>
      <trkpt lat="42.96477" lon="0.29488">
        <ele>1390.68</ele>
        <time>2013-11-26T12:47:45Z</time>
      </trkpt>
      <trkpt lat="42.96477" lon="0.29488">
        <ele>1390.68</ele>
        <time>2013-11-26T12:48:06Z</time>
      </trkpt>
      <trkpt lat="42.96477" lon="0.29497">
        <ele>1390.2</ele>
        <time>2013-11-26T12:48:17Z</time>
      </trkpt>
      <trkpt lat="42.96477" lon="0.29507">
        <ele>1389.24</ele>
        <time>2013-11-26T12:48:32Z</time>
      </trkpt>
      <trkpt lat="42.96476" lon="0.29517">
        <ele>1387.8</ele>
        <time>2013-11-26T12:48:41Z</time>
      </trkpt>
      <trkpt lat="42.96475" lon="0.29526">
        <ele>1386.84</ele>
        <time>2013-11-26T12:48:48Z</time>
      </trkpt>
      <trkpt lat="42.96474" lon="0.29533">
        <ele>1384.92</ele>
        <time>2013-11-26T12:48:59Z</time>
      </trkpt>
      <trkpt lat="42.96473" lon="0.2954">
        <ele>1384.92</ele>
        <time>2013-11-26T12:49:09Z</time>
      </trkpt>
      <trkpt lat="42.96475" lon="0.29558">
        <ele>1383.96</ele>
        <time>2013-11-26T12:49:23Z</time>
      </trkpt>
      <trkpt lat="42.96475" lon="0.29571">
        <ele>1383.96</ele>
        <time>2013-11-26T12:49:33Z</time>
      </trkpt>
      <trkpt lat="42.96472" lon="0.29591">
        <ele>1381.55</ele>
        <time>2013-11-26T12:49:48Z</time>
      </trkpt>
      <trkpt lat="42.9647" lon="0.29597">
        <ele>1381.55</ele>
        <time>2013-11-26T12:49:53Z</time>
      </trkpt>
      <trkpt lat="42.96469" lon="0.29601">
        <ele>1381.55</ele>
        <time>2013-11-26T12:49:57Z</time>
      </trkpt>
      <trkpt lat="42.96463" lon="0.29608">
        <ele>1382.51</ele>
        <time>2013-11-26T12:50:04Z</time>
      </trkpt>
      <trkpt lat="42.96461" lon="0.2961">
        <ele>1382.51</ele>
        <time>2013-11-26T12:50:07Z</time>
      </trkpt>
      <trkpt lat="42.96456" lon="0.29612">
        <ele>1382.51</ele>
        <time>2013-11-26T12:50:12Z</time>
      </trkpt>
      <trkpt lat="42.96445" lon="0.29624">
        <ele>1380.11</ele>
        <time>2013-11-26T12:50:27Z</time>
      </trkpt>
      <trkpt lat="42.96443" lon="0.29627">
        <ele>1380.11</ele>
        <time>2013-11-26T12:50:30Z</time>
      </trkpt>
      <trkpt lat="42.9644" lon="0.29631">
        <ele>1380.11</ele>
        <time>2013-11-26T12:50:34Z</time>
      </trkpt>
      <trkpt lat="42.96429" lon="0.29642">
        <ele>1378.67</ele>
        <time>2013-11-26T12:50:49Z</time>
      </trkpt>
      <trkpt lat="42.96428" lon="0.29646">
        <ele>1378.67</ele>
        <time>2013-11-26T12:50:53Z</time>
      </trkpt>
      <trkpt lat="42.96426" lon="0.29649">
        <ele>1378.19</ele>
        <time>2013-11-26T12:50:55Z</time>
      </trkpt>
      <trkpt lat="42.96423" lon="0.29656">
        <ele>1377.71</ele>
        <time>2013-11-26T12:51:02Z</time>
      </trkpt>
      <trkpt lat="42.96418" lon="0.29672">
        <ele>1376.26</ele>
        <time>2013-11-26T12:51:15Z</time>
      </trkpt>
      <trkpt lat="42.96415" lon="0.29692">
        <ele>1375.3</ele>
        <time>2013-11-26T12:51:30Z</time>
      </trkpt>
      <trkpt lat="42.96413" lon="0.29711">
        <ele>1373.86</ele>
        <time>2013-11-26T12:51:44Z</time>
      </trkpt>
      <trkpt lat="42.96411" lon="0.29728">
        <ele>1373.38</ele>
        <time>2013-11-26T12:51:57Z</time>
      </trkpt>
      <trkpt lat="42.96411" lon="0.29732">
        <ele>1373.86</ele>
        <time>2013-11-26T12:52:00Z</time>
      </trkpt>
      <trkpt lat="42.9641" lon="0.29745">
        <ele>1373.38</ele>
        <time>2013-11-26T12:52:09Z</time>
      </trkpt>
      <trkpt lat="42.96407" lon="0.29755">
        <ele>1373.86</ele>
        <time>2013-11-26T12:52:17Z</time>
      </trkpt>
      <trkpt lat="42.96406" lon="0.29757">
        <ele>1373.38</ele>
        <time>2013-11-26T12:52:19Z</time>
      </trkpt>
      <trkpt lat="42.96404" lon="0.29766">
        <ele>1371.94</ele>
        <time>2013-11-26T12:52:25Z</time>
      </trkpt>
      <trkpt lat="42.96402" lon="0.29788">
        <ele>1371.94</ele>
        <time>2013-11-26T12:52:42Z</time>
      </trkpt>
      <trkpt lat="42.964" lon="0.29804">
        <ele>1372.42</ele>
        <time>2013-11-26T12:52:54Z</time>
      </trkpt>
      <trkpt lat="42.96399" lon="0.2982">
        <ele>1373.86</ele>
        <time>2013-11-26T12:53:08Z</time>
      </trkpt>
      <trkpt lat="42.96397" lon="0.29835">
        <ele>1375.3</ele>
        <time>2013-11-26T12:53:21Z</time>
      </trkpt>
      <trkpt lat="42.96395" lon="0.29843">
        <ele>1373.86</ele>
        <time>2013-11-26T12:53:27Z</time>
      </trkpt>
      <trkpt lat="42.96393" lon="0.2986">
        <ele>1373.38</ele>
        <time>2013-11-26T12:53:40Z</time>
      </trkpt>
      <trkpt lat="42.96392" lon="0.29878">
        <ele>1372.42</ele>
        <time>2013-11-26T12:53:54Z</time>
      </trkpt>
      <trkpt lat="42.96392" lon="0.29883">
        <ele>1371.94</ele>
        <time>2013-11-26T12:53:57Z</time>
      </trkpt>
      <trkpt lat="42.96391" lon="0.29898">
        <ele>1370.98</ele>
        <time>2013-11-26T12:54:08Z</time>
      </trkpt>
      <trkpt lat="42.96389" lon="0.2991">
        <ele>1370.02</ele>
        <time>2013-11-26T12:54:17Z</time>
      </trkpt>
      <trkpt lat="42.96388" lon="0.29915">
        <ele>1370.5</ele>
        <time>2013-11-26T12:54:21Z</time>
      </trkpt>
      <trkpt lat="42.96388" lon="0.29918">
        <ele>1370.5</ele>
        <time>2013-11-26T12:54:23Z</time>
      </trkpt>
      <trkpt lat="42.96387" lon="0.29928">
        <ele>1370.98</ele>
        <time>2013-11-26T12:54:35Z</time>
      </trkpt>
      <trkpt lat="42.96388" lon="0.29945">
        <ele>1371.94</ele>
        <time>2013-11-26T12:54:49Z</time>
      </trkpt>
      <trkpt lat="42.96392" lon="0.2996">
        <ele>1370.5</ele>
        <time>2013-11-26T12:55:03Z</time>
      </trkpt>
      <trkpt lat="42.96394" lon="0.29965">
        <ele>1369.54</ele>
        <time>2013-11-26T12:55:07Z</time>
      </trkpt>
      <trkpt lat="42.96399" lon="0.2998">
        <ele>1368.57</ele>
        <time>2013-11-26T12:55:19Z</time>
      </trkpt>
      <trkpt lat="42.964" lon="0.29982">
        <ele>1368.57</ele>
        <time>2013-11-26T12:55:20Z</time>
      </trkpt>
      <trkpt lat="42.96406" lon="0.30001">
        <ele>1365.69</ele>
        <time>2013-11-26T12:55:33Z</time>
      </trkpt>
      <trkpt lat="42.96412" lon="0.30016">
        <ele>1366.65</ele>
        <time>2013-11-26T12:55:47Z</time>
      </trkpt>
      <trkpt lat="42.96413" lon="0.30025">
        <ele>1366.17</ele>
        <time>2013-11-26T12:55:53Z</time>
      </trkpt>
      <trkpt lat="42.96417" lon="0.30044">
        <ele>1363.77</ele>
        <time>2013-11-26T12:56:06Z</time>
      </trkpt>
      <trkpt lat="42.96418" lon="0.30046">
        <ele>1363.77</ele>
        <time>2013-11-26T12:56:08Z</time>
      </trkpt>
      <trkpt lat="42.96418" lon="0.30065">
        <ele>1361.84</ele>
        <time>2013-11-26T12:56:21Z</time>
      </trkpt>
      <trkpt lat="42.96416" lon="0.30079">
        <ele>1361.36</ele>
        <time>2013-11-26T12:56:29Z</time>
      </trkpt>
      <trkpt lat="42.96417" lon="0.30085">
        <ele>1360.88</ele>
        <time>2013-11-26T12:56:33Z</time>
      </trkpt>
      <trkpt lat="42.96417" lon="0.30092">
        <ele>1359.92</ele>
        <time>2013-11-26T12:56:38Z</time>
      </trkpt>
      <trkpt lat="42.96417" lon="0.30106">
        <ele>1359.44</ele>
        <time>2013-11-26T12:56:47Z</time>
      </trkpt>
      <trkpt lat="42.96418" lon="0.30109">
        <ele>1358.96</ele>
        <time>2013-11-26T12:56:49Z</time>
      </trkpt>
      <trkpt lat="42.96418" lon="0.30127">
        <ele>1358</ele>
        <time>2013-11-26T12:57:03Z</time>
      </trkpt>
      <trkpt lat="42.96421" lon="0.30146">
        <ele>1356.08</ele>
        <time>2013-11-26T12:57:16Z</time>
      </trkpt>
      <trkpt lat="42.96423" lon="0.30159">
        <ele>1354.15</ele>
        <time>2013-11-26T12:57:25Z</time>
      </trkpt>
      <trkpt lat="42.96424" lon="0.30163">
        <ele>1353.67</ele>
        <time>2013-11-26T12:57:28Z</time>
      </trkpt>
      <trkpt lat="42.96428" lon="0.30186">
        <ele>1351.75</ele>
        <time>2013-11-26T12:57:44Z</time>
      </trkpt>
      <trkpt lat="42.96431" lon="0.30197">
        <ele>1351.27</ele>
        <time>2013-11-26T12:57:52Z</time>
      </trkpt>
      <trkpt lat="42.96432" lon="0.30203">
        <ele>1350.79</ele>
        <time>2013-11-26T12:57:56Z</time>
      </trkpt>
      <trkpt lat="42.96434" lon="0.30212">
        <ele>1350.31</ele>
        <time>2013-11-26T12:58:03Z</time>
      </trkpt>
      <trkpt lat="42.96441" lon="0.30235">
        <ele>1347.43</ele>
        <time>2013-11-26T12:58:19Z</time>
      </trkpt>
      <trkpt lat="42.96441" lon="0.30247">
        <ele>1345.02</ele>
        <time>2013-11-26T12:58:27Z</time>
      </trkpt>
      <trkpt lat="42.96441" lon="0.30268">
        <ele>1343.58</ele>
        <time>2013-11-26T12:58:41Z</time>
      </trkpt>
      <trkpt lat="42.96441" lon="0.30273">
        <ele>1343.1</ele>
        <time>2013-11-26T12:58:45Z</time>
      </trkpt>
      <trkpt lat="42.9644" lon="0.30296">
        <ele>1339.73</ele>
        <time>2013-11-26T12:59:01Z</time>
      </trkpt>
      <trkpt lat="42.9644" lon="0.30297">
        <ele>1339.73</ele>
        <time>2013-11-26T12:59:02Z</time>
      </trkpt>
      <trkpt lat="42.96439" lon="0.30308">
        <ele>1338.77</ele>
        <time>2013-11-26T12:59:09Z</time>
      </trkpt>
      <trkpt lat="42.96438" lon="0.3033">
        <ele>1337.33</ele>
        <time>2013-11-26T12:59:24Z</time>
      </trkpt>
      <trkpt lat="42.96437" lon="0.3034">
        <ele>1337.81</ele>
        <time>2013-11-26T12:59:36Z</time>
      </trkpt>
      <trkpt lat="42.96441" lon="0.3035">
        <ele>1339.25</ele>
        <time>2013-11-26T12:59:47Z</time>
      </trkpt>
      <trkpt lat="42.96448" lon="0.30356">
        <ele>1340.7</ele>
        <time>2013-11-26T13:00:00Z</time>
      </trkpt>
      <trkpt lat="42.96445" lon="0.30367">
        <ele>1342.14</ele>
        <time>2013-11-26T13:00:11Z</time>
      </trkpt>
      <trkpt lat="42.96442" lon="0.30375">
        <ele>1343.1</ele>
        <time>2013-11-26T13:00:22Z</time>
      </trkpt>
      <trkpt lat="42.96439" lon="0.30382">
        <ele>1344.06</ele>
        <time>2013-11-26T13:00:28Z</time>
      </trkpt>
      <trkpt lat="42.96437" lon="0.30385">
        <ele>1344.06</ele>
        <time>2013-11-26T13:00:31Z</time>
      </trkpt>
      <trkpt lat="42.96434" lon="0.30398">
        <ele>1344.06</ele>
        <time>2013-11-26T13:00:44Z</time>
      </trkpt>
      <trkpt lat="42.96434" lon="0.30398">
        <ele>1344.06</ele>
        <time>2013-11-26T13:00:45Z</time>
      </trkpt>
      <trkpt lat="42.9643" lon="0.30396">
        <ele>1343.1</ele>
        <time>2013-11-26T13:00:49Z</time>
      </trkpt>
      <trkpt lat="42.96426" lon="0.30403">
        <ele>1343.58</ele>
        <time>2013-11-26T13:01:02Z</time>
      </trkpt>
      <trkpt lat="42.96425" lon="0.30403">
        <ele>1343.58</ele>
        <time>2013-11-26T13:01:14Z</time>
      </trkpt>
      <trkpt lat="42.96425" lon="0.30403">
        <ele>1343.58</ele>
        <time>2013-11-26T13:01:15Z</time>
      </trkpt>
      <trkpt lat="42.96421" lon="0.30409">
        <ele>1342.62</ele>
        <time>2013-11-26T13:01:27Z</time>
      </trkpt>
      <trkpt lat="42.96421" lon="0.30409">
        <ele>1343.1</ele>
        <time>2013-11-26T13:01:44Z</time>
      </trkpt>
      <trkpt lat="42.96421" lon="0.30409">
        <ele>1343.1</ele>
        <time>2013-11-26T13:02:01Z</time>
      </trkpt>
      <trkpt lat="42.96423" lon="0.30405">
        <ele>1342.62</ele>
        <time>2013-11-26T13:02:10Z</time>
      </trkpt>
      <trkpt lat="42.9642" lon="0.30413">
        <ele>1343.1</ele>
        <time>2013-11-26T13:02:16Z</time>
      </trkpt>
      <trkpt lat="42.96419" lon="0.30416">
        <ele>1344.06</ele>
        <time>2013-11-26T13:02:19Z</time>
      </trkpt>
      <trkpt lat="42.96417" lon="0.30419">
        <ele>1344.54</ele>
        <time>2013-11-26T13:02:22Z</time>
      </trkpt>
      <trkpt lat="42.96418" lon="0.30426">
        <ele>1344.06</ele>
        <time>2013-11-26T13:02:37Z</time>
      </trkpt>
      <trkpt lat="42.96416" lon="0.30422">
        <ele>1343.58</ele>
        <time>2013-11-26T13:02:41Z</time>
      </trkpt>
      <trkpt lat="42.96415" lon="0.30418">
        <ele>1344.06</ele>
        <time>2013-11-26T13:02:44Z</time>
      </trkpt>
      <trkpt lat="42.96414" lon="0.30416">
        <ele>1344.54</ele>
        <time>2013-11-26T13:02:54Z</time>
      </trkpt>
      <trkpt lat="42.96413" lon="0.3042">
        <ele>1343.1</ele>
        <time>2013-11-26T13:03:02Z</time>
      </trkpt>
      <trkpt lat="42.96412" lon="0.3042">
        <ele>1343.1</ele>
        <time>2013-11-26T13:03:05Z</time>
      </trkpt>
      <trkpt lat="42.96416" lon="0.304">
        <ele>1339.25</ele>
        <time>2013-11-26T13:03:19Z</time>
      </trkpt>
      <trkpt lat="42.96424" lon="0.30375">
        <ele>1337.81</ele>
        <time>2013-11-26T13:03:35Z</time>
      </trkpt>
      <trkpt lat="42.96425" lon="0.30372">
        <ele>1337.33</ele>
        <time>2013-11-26T13:03:37Z</time>
      </trkpt>
      <trkpt lat="42.96424" lon="0.30364">
        <ele>1336.85</ele>
        <time>2013-11-26T13:03:42Z</time>
      </trkpt>
      <trkpt lat="42.96422" lon="0.30344">
        <ele>1335.41</ele>
        <time>2013-11-26T13:03:56Z</time>
      </trkpt>
      <trkpt lat="42.96424" lon="0.30338">
        <ele>1336.85</ele>
        <time>2013-11-26T13:04:09Z</time>
      </trkpt>
      <trkpt lat="42.96424" lon="0.30338">
        <ele>1336.85</ele>
        <time>2013-11-26T13:04:21Z</time>
      </trkpt>
      <trkpt lat="42.96425" lon="0.30338">
        <ele>1337.33</ele>
        <time>2013-11-26T13:04:34Z</time>
      </trkpt>
      <trkpt lat="42.96424" lon="0.30338">
        <ele>1336.85</ele>
        <time>2013-11-26T13:04:50Z</time>
      </trkpt>
      <trkpt lat="42.96424" lon="0.30338">
        <ele>1336.85</ele>
        <time>2013-11-26T13:05:11Z</time>
      </trkpt>
      <trkpt lat="42.96424" lon="0.30338">
        <ele>1337.33</ele>
        <time>2013-11-26T13:05:39Z</time>
      </trkpt>
      <trkpt lat="42.96424" lon="0.30338">
        <ele>1336.85</ele>
        <time>2013-11-26T13:06:12Z</time>
      </trkpt>
      <trkpt lat="42.96424" lon="0.30338">
        <ele>1336.85</ele>
        <time>2013-11-26T13:06:35Z</time>
      </trkpt>
      <trkpt lat="42.96425" lon="0.30339">
        <ele>1336.85</ele>
        <time>2013-11-26T13:06:57Z</time>
      </trkpt>
      <trkpt lat="42.96425" lon="0.30339">
        <ele>1336.85</ele>
        <time>2013-11-26T13:07:14Z</time>
      </trkpt>
      <trkpt lat="42.96424" lon="0.3034">
        <ele>1335.89</ele>
        <time>2013-11-26T13:07:32Z</time>
      </trkpt>
      <trkpt lat="42.96424" lon="0.3034">
        <ele>1335.89</ele>
        <time>2013-11-26T13:07:54Z</time>
      </trkpt>
      <trkpt lat="42.96424" lon="0.3034">
        <ele>1335.41</ele>
        <time>2013-11-26T13:08:12Z</time>
      </trkpt>
      <trkpt lat="42.96424" lon="0.3034">
        <ele>1335.41</ele>
        <time>2013-11-26T13:08:38Z</time>
      </trkpt>
      <trkpt lat="42.96425" lon="0.3034">
        <ele>1335.89</ele>
        <time>2013-11-26T13:09:00Z</time>
      </trkpt>
      <trkpt lat="42.96425" lon="0.3034">
        <ele>1335.89</ele>
        <time>2013-11-26T13:09:25Z</time>
      </trkpt>
      <trkpt lat="42.96425" lon="0.3034">
        <ele>1335.89</ele>
        <time>2013-11-26T13:09:48Z</time>
      </trkpt>
      <trkpt lat="42.96425" lon="0.3034">
        <ele>1335.89</ele>
        <time>2013-11-26T13:10:15Z</time>
      </trkpt>
      <trkpt lat="42.96425" lon="0.3034">
        <ele>1335.89</ele>
        <time>2013-11-26T13:10:36Z</time>
      </trkpt>
      <trkpt lat="42.96425" lon="0.3034">
        <ele>1335.89</ele>
        <time>2013-11-26T13:10:57Z</time>
      </trkpt>
      <trkpt lat="42.96419" lon="0.30335">
        <ele>1334.45</ele>
        <time>2013-11-26T13:11:09Z</time>
      </trkpt>
      <trkpt lat="42.96416" lon="0.30334">
        <ele>1333.97</ele>
        <time>2013-11-26T13:11:12Z</time>
      </trkpt>
      <trkpt lat="42.96403" lon="0.30326">
        <ele>1333.49</ele>
        <time>2013-11-26T13:11:26Z</time>
      </trkpt>
      <trkpt lat="42.96398" lon="0.30323">
        <ele>1333.49</ele>
        <time>2013-11-26T13:11:31Z</time>
      </trkpt>
      <trkpt lat="42.96382" lon="0.30314">
        <ele>1331.08</ele>
        <time>2013-11-26T13:11:46Z</time>
      </trkpt>
      <trkpt lat="42.96368" lon="0.30305">
        <ele>1329.64</ele>
        <time>2013-11-26T13:12:01Z</time>
      </trkpt>
      <trkpt lat="42.96361" lon="0.30301">
        <ele>1329.16</ele>
        <time>2013-11-26T13:12:08Z</time>
      </trkpt>
      <trkpt lat="42.96359" lon="0.303">
        <ele>1328.68</ele>
        <time>2013-11-26T13:12:10Z</time>
      </trkpt>
      <trkpt lat="42.96353" lon="0.30297">
        <ele>1328.68</ele>
        <time>2013-11-26T13:12:16Z</time>
      </trkpt>
      <trkpt lat="42.9635" lon="0.30295">
        <ele>1328.68</ele>
        <time>2013-11-26T13:12:19Z</time>
      </trkpt>
      <trkpt lat="42.96344" lon="0.30292">
        <ele>1328.2</ele>
        <time>2013-11-26T13:12:24Z</time>
      </trkpt>
      <trkpt lat="42.96333" lon="0.30287">
        <ele>1327.72</ele>
        <time>2013-11-26T13:12:34Z</time>
      </trkpt>
      <trkpt lat="42.96329" lon="0.30285">
        <ele>1327.24</ele>
        <time>2013-11-26T13:12:38Z</time>
      </trkpt>
      <trkpt lat="42.96323" lon="0.30282">
        <ele>1326.76</ele>
        <time>2013-11-26T13:12:44Z</time>
      </trkpt>
      <trkpt lat="42.96312" lon="0.3028">
        <ele>1325.8</ele>
        <time>2013-11-26T13:12:53Z</time>
      </trkpt>
      <trkpt lat="42.96306" lon="0.30279">
        <ele>1325.8</ele>
        <time>2013-11-26T13:12:58Z</time>
      </trkpt>
      <trkpt lat="42.96299" lon="0.3028">
        <ele>1325.31</ele>
        <time>2013-11-26T13:13:05Z</time>
      </trkpt>
      <trkpt lat="42.9628" lon="0.30281">
        <ele>1324.83</ele>
        <time>2013-11-26T13:13:21Z</time>
      </trkpt>
      <trkpt lat="42.96276" lon="0.30281">
        <ele>1324.35</ele>
        <time>2013-11-26T13:13:25Z</time>
      </trkpt>
      <trkpt lat="42.96259" lon="0.30283">
        <ele>1323.39</ele>
        <time>2013-11-26T13:13:41Z</time>
      </trkpt>
      <trkpt lat="42.96256" lon="0.30284">
        <ele>1322.91</ele>
        <time>2013-11-26T13:13:44Z</time>
      </trkpt>
      <trkpt lat="42.96241" lon="0.30288">
        <ele>1322.43</ele>
        <time>2013-11-26T13:13:59Z</time>
      </trkpt>
      <trkpt lat="42.96238" lon="0.30289">
        <ele>1322.43</ele>
        <time>2013-11-26T13:14:02Z</time>
      </trkpt>
      <trkpt lat="42.96224" lon="0.30289">
        <ele>1320.99</ele>
        <time>2013-11-26T13:14:16Z</time>
      </trkpt>
      <trkpt lat="42.96218" lon="0.30289">
        <ele>1320.51</ele>
        <time>2013-11-26T13:14:21Z</time>
      </trkpt>
      <trkpt lat="42.96208" lon="0.30286">
        <ele>1320.03</ele>
        <time>2013-11-26T13:14:32Z</time>
      </trkpt>
      <trkpt lat="42.962" lon="0.30283">
        <ele>1318.59</ele>
        <time>2013-11-26T13:14:40Z</time>
      </trkpt>
      <trkpt lat="42.96187" lon="0.30275">
        <ele>1317.14</ele>
        <time>2013-11-26T13:14:54Z</time>
      </trkpt>
      <trkpt lat="42.96183" lon="0.30271">
        <ele>1316.66</ele>
        <time>2013-11-26T13:14:59Z</time>
      </trkpt>
      <trkpt lat="42.96179" lon="0.30265">
        <ele>1315.7</ele>
        <time>2013-11-26T13:15:06Z</time>
      </trkpt>
      <trkpt lat="42.9617" lon="0.30253">
        <ele>1313.78</ele>
        <time>2013-11-26T13:15:20Z</time>
      </trkpt>
      <trkpt lat="42.96161" lon="0.30239">
        <ele>1311.38</ele>
        <time>2013-11-26T13:15:36Z</time>
      </trkpt>
      <trkpt lat="42.9615" lon="0.30224">
        <ele>1308.97</ele>
        <time>2013-11-26T13:15:51Z</time>
      </trkpt>
      <trkpt lat="42.96139" lon="0.30211">
        <ele>1307.53</ele>
        <time>2013-11-26T13:16:06Z</time>
      </trkpt>
      <trkpt lat="42.96136" lon="0.30206">
        <ele>1307.05</ele>
        <time>2013-11-26T13:16:10Z</time>
      </trkpt>
      <trkpt lat="42.96131" lon="0.30197">
        <ele>1304.65</ele>
        <time>2013-11-26T13:16:19Z</time>
      </trkpt>
      <trkpt lat="42.96128" lon="0.30192">
        <ele>1303.69</ele>
        <time>2013-11-26T13:16:23Z</time>
      </trkpt>
      <trkpt lat="42.96124" lon="0.30186">
        <ele>1302.72</ele>
        <time>2013-11-26T13:16:29Z</time>
      </trkpt>
      <trkpt lat="42.96117" lon="0.30175">
        <ele>1301.28</ele>
        <time>2013-11-26T13:16:40Z</time>
      </trkpt>
      <trkpt lat="42.96103" lon="0.30168">
        <ele>1298.88</ele>
        <time>2013-11-26T13:16:55Z</time>
      </trkpt>
      <trkpt lat="42.96101" lon="0.30168">
        <ele>1299.36</ele>
        <time>2013-11-26T13:16:58Z</time>
      </trkpt>
      <trkpt lat="42.96085" lon="0.30171">
        <ele>1297.44</ele>
        <time>2013-11-26T13:17:13Z</time>
      </trkpt>
      <trkpt lat="42.9607" lon="0.30164">
        <ele>1298.4</ele>
        <time>2013-11-26T13:17:28Z</time>
      </trkpt>
      <trkpt lat="42.96063" lon="0.30158">
        <ele>1300.8</ele>
        <time>2013-11-26T13:17:36Z</time>
      </trkpt>
      <trkpt lat="42.96058" lon="0.30152">
        <ele>1301.76</ele>
        <time>2013-11-26T13:17:41Z</time>
      </trkpt>
      <trkpt lat="42.96046" lon="0.30142">
        <ele>1302.72</ele>
        <time>2013-11-26T13:17:55Z</time>
      </trkpt>
      <trkpt lat="42.96034" lon="0.30133">
        <ele>1305.13</ele>
        <time>2013-11-26T13:18:08Z</time>
      </trkpt>
      <trkpt lat="42.96033" lon="0.30132">
        <ele>1305.13</ele>
        <time>2013-11-26T13:18:09Z</time>
      </trkpt>
      <trkpt lat="42.96025" lon="0.30119">
        <ele>1302.72</ele>
        <time>2013-11-26T13:18:21Z</time>
      </trkpt>
      <trkpt lat="42.96021" lon="0.30116">
        <ele>1301.28</ele>
        <time>2013-11-26T13:18:24Z</time>
      </trkpt>
      <trkpt lat="42.9601" lon="0.30104">
        <ele>1296.96</ele>
        <time>2013-11-26T13:18:38Z</time>
      </trkpt>
      <trkpt lat="42.96" lon="0.30094">
        <ele>1292.15</ele>
        <time>2013-11-26T13:18:50Z</time>
      </trkpt>
      <trkpt lat="42.95998" lon="0.30092">
        <ele>1291.67</ele>
        <time>2013-11-26T13:18:53Z</time>
      </trkpt>
      <trkpt lat="42.95994" lon="0.30087">
        <ele>1288.78</ele>
        <time>2013-11-26T13:18:59Z</time>
      </trkpt>
      <trkpt lat="42.95989" lon="0.30082">
        <ele>1286.86</ele>
        <time>2013-11-26T13:19:05Z</time>
      </trkpt>
      <trkpt lat="42.95977" lon="0.30069">
        <ele>1282.54</ele>
        <time>2013-11-26T13:19:20Z</time>
      </trkpt>
      <trkpt lat="42.9597" lon="0.30064">
        <ele>1280.61</ele>
        <time>2013-11-26T13:19:26Z</time>
      </trkpt>
      <trkpt lat="42.95958" lon="0.30054">
        <ele>1275.81</ele>
        <time>2013-11-26T13:19:40Z</time>
      </trkpt>
      <trkpt lat="42.95955" lon="0.30053">
        <ele>1274.36</ele>
        <time>2013-11-26T13:19:43Z</time>
      </trkpt>
      <trkpt lat="42.95944" lon="0.30042">
        <ele>1272.92</ele>
        <time>2013-11-26T13:19:56Z</time>
      </trkpt>
      <trkpt lat="42.95938" lon="0.30034">
        <ele>1274.85</ele>
        <time>2013-11-26T13:20:06Z</time>
      </trkpt>
      <trkpt lat="42.95928" lon="0.30023">
        <ele>1274.85</ele>
        <time>2013-11-26T13:20:20Z</time>
      </trkpt>
      <trkpt lat="42.95924" lon="0.30021">
        <ele>1273.88</ele>
        <time>2013-11-26T13:20:25Z</time>
      </trkpt>
      <trkpt lat="42.9591" lon="0.3001">
        <ele>1274.85</ele>
        <time>2013-11-26T13:20:39Z</time>
      </trkpt>
      <trkpt lat="42.95899" lon="0.30004">
        <ele>1271</ele>
        <time>2013-11-26T13:20:52Z</time>
      </trkpt>
      <trkpt lat="42.95889" lon="0.29998">
        <ele>1269.08</ele>
        <time>2013-11-26T13:21:04Z</time>
      </trkpt>
      <trkpt lat="42.95878" lon="0.29992">
        <ele>1268.6</ele>
        <time>2013-11-26T13:21:16Z</time>
      </trkpt>
      <trkpt lat="42.95867" lon="0.29988">
        <ele>1264.27</ele>
        <time>2013-11-26T13:21:25Z</time>
      </trkpt>
      <trkpt lat="42.95854" lon="0.29978">
        <ele>1263.31</ele>
        <time>2013-11-26T13:21:41Z</time>
      </trkpt>
      <trkpt lat="42.95844" lon="0.29972">
        <ele>1261.87</ele>
        <time>2013-11-26T13:21:53Z</time>
      </trkpt>
      <trkpt lat="42.95841" lon="0.29971">
        <ele>1261.87</ele>
        <time>2013-11-26T13:21:56Z</time>
      </trkpt>
      <trkpt lat="42.9583" lon="0.29961">
        <ele>1259.94</ele>
        <time>2013-11-26T13:22:09Z</time>
      </trkpt>
      <trkpt lat="42.95823" lon="0.29955">
        <ele>1259.46</ele>
        <time>2013-11-26T13:22:17Z</time>
      </trkpt>
      <trkpt lat="42.95821" lon="0.29951">
        <ele>1259.94</ele>
        <time>2013-11-26T13:22:20Z</time>
      </trkpt>
      <trkpt lat="42.95807" lon="0.29942">
        <ele>1259.46</ele>
        <time>2013-11-26T13:22:35Z</time>
      </trkpt>
      <trkpt lat="42.95804" lon="0.29939">
        <ele>1258.02</ele>
        <time>2013-11-26T13:22:40Z</time>
      </trkpt>
      <trkpt lat="42.958" lon="0.29937">
        <ele>1256.58</ele>
        <time>2013-11-26T13:22:44Z</time>
      </trkpt>
      <trkpt lat="42.95797" lon="0.29936">
        <ele>1256.1</ele>
        <time>2013-11-26T13:22:46Z</time>
      </trkpt>
      <trkpt lat="42.95788" lon="0.29933">
        <ele>1253.7</ele>
        <time>2013-11-26T13:22:55Z</time>
      </trkpt>
      <trkpt lat="42.95786" lon="0.29932">
        <ele>1253.7</ele>
        <time>2013-11-26T13:22:57Z</time>
      </trkpt>
      <trkpt lat="42.95775" lon="0.29926">
        <ele>1251.29</ele>
        <time>2013-11-26T13:23:10Z</time>
      </trkpt>
      <trkpt lat="42.95765" lon="0.29921">
        <ele>1249.37</ele>
        <time>2013-11-26T13:23:22Z</time>
      </trkpt>
      <trkpt lat="42.95756" lon="0.29916">
        <ele>1249.37</ele>
        <time>2013-11-26T13:23:29Z</time>
      </trkpt>
      <trkpt lat="42.95749" lon="0.29913">
        <ele>1249.37</ele>
        <time>2013-11-26T13:23:35Z</time>
      </trkpt>
      <trkpt lat="42.95737" lon="0.29903">
        <ele>1243.6</ele>
        <time>2013-11-26T13:23:50Z</time>
      </trkpt>
      <trkpt lat="42.95734" lon="0.29902">
        <ele>1241.2</ele>
        <time>2013-11-26T13:23:53Z</time>
      </trkpt>
      <trkpt lat="42.95725" lon="0.29896">
        <ele>1237.83</ele>
        <time>2013-11-26T13:24:05Z</time>
      </trkpt>
      <trkpt lat="42.95715" lon="0.29889">
        <ele>1237.83</ele>
        <time>2013-11-26T13:24:17Z</time>
      </trkpt>
      <trkpt lat="42.95714" lon="0.29888">
        <ele>1237.83</ele>
        <time>2013-11-26T13:24:18Z</time>
      </trkpt>
      <trkpt lat="42.95702" lon="0.29877">
        <ele>1237.35</ele>
        <time>2013-11-26T13:24:31Z</time>
      </trkpt>
      <trkpt lat="42.95698" lon="0.29875">
        <ele>1236.39</ele>
        <time>2013-11-26T13:24:37Z</time>
      </trkpt>
      <trkpt lat="42.95688" lon="0.29874">
        <ele>1234.47</ele>
        <time>2013-11-26T13:24:45Z</time>
      </trkpt>
      <trkpt lat="42.95677" lon="0.29868">
        <ele>1230.62</ele>
        <time>2013-11-26T13:24:58Z</time>
      </trkpt>
      <trkpt lat="42.95664" lon="0.29864">
        <ele>1227.74</ele>
        <time>2013-11-26T13:25:09Z</time>
      </trkpt>
      <trkpt lat="42.95649" lon="0.29859">
        <ele>1224.86</ele>
        <time>2013-11-26T13:25:23Z</time>
      </trkpt>
      <trkpt lat="42.95636" lon="0.29854">
        <ele>1223.42</ele>
        <time>2013-11-26T13:25:36Z</time>
      </trkpt>
      <trkpt lat="42.95631" lon="0.29851">
        <ele>1222.93</ele>
        <time>2013-11-26T13:25:40Z</time>
      </trkpt>
      <trkpt lat="42.95626" lon="0.2985">
        <ele>1222.93</ele>
        <time>2013-11-26T13:25:44Z</time>
      </trkpt>
      <trkpt lat="42.95615" lon="0.29844">
        <ele>1221.01</ele>
        <time>2013-11-26T13:25:55Z</time>
      </trkpt>
      <trkpt lat="42.95612" lon="0.29845">
        <ele>1220.05</ele>
        <time>2013-11-26T13:25:58Z</time>
      </trkpt>
      <trkpt lat="42.95603" lon="0.29839">
        <ele>1218.61</ele>
        <time>2013-11-26T13:26:07Z</time>
      </trkpt>
      <trkpt lat="42.95586" lon="0.29832">
        <ele>1217.65</ele>
        <time>2013-11-26T13:26:23Z</time>
      </trkpt>
      <trkpt lat="42.95582" lon="0.2983">
        <ele>1216.69</ele>
        <time>2013-11-26T13:26:27Z</time>
      </trkpt>
      <trkpt lat="42.95579" lon="0.29829">
        <ele>1217.17</ele>
        <time>2013-11-26T13:26:29Z</time>
      </trkpt>
      <trkpt lat="42.95566" lon="0.29822">
        <ele>1215.72</ele>
        <time>2013-11-26T13:26:40Z</time>
      </trkpt>
      <trkpt lat="42.95552" lon="0.29817">
        <ele>1208.03</ele>
        <time>2013-11-26T13:26:55Z</time>
      </trkpt>
      <trkpt lat="42.9554" lon="0.29813">
        <ele>1203.23</ele>
        <time>2013-11-26T13:27:09Z</time>
      </trkpt>
      <trkpt lat="42.95527" lon="0.29812">
        <ele>1201.79</ele>
        <time>2013-11-26T13:27:22Z</time>
      </trkpt>
      <trkpt lat="42.95523" lon="0.29814">
        <ele>1201.3</ele>
        <time>2013-11-26T13:27:26Z</time>
      </trkpt>
      <trkpt lat="42.95511" lon="0.29822">
        <ele>1198.42</ele>
        <time>2013-11-26T13:27:40Z</time>
      </trkpt>
      <trkpt lat="42.95501" lon="0.29831">
        <ele>1195.54</ele>
        <time>2013-11-26T13:27:52Z</time>
      </trkpt>
      <trkpt lat="42.95494" lon="0.29837">
        <ele>1194.09</ele>
        <time>2013-11-26T13:28:01Z</time>
      </trkpt>
      <trkpt lat="42.95488" lon="0.29846">
        <ele>1192.17</ele>
        <time>2013-11-26T13:28:09Z</time>
      </trkpt>
      <trkpt lat="42.95475" lon="0.29864">
        <ele>1188.33</ele>
        <time>2013-11-26T13:28:26Z</time>
      </trkpt>
      <trkpt lat="42.95474" lon="0.29867">
        <ele>1188.81</ele>
        <time>2013-11-26T13:28:29Z</time>
      </trkpt>
      <trkpt lat="42.95472" lon="0.29869">
        <ele>1188.33</ele>
        <time>2013-11-26T13:28:31Z</time>
      </trkpt>
      <trkpt lat="42.95467" lon="0.29875">
        <ele>1187.37</ele>
        <time>2013-11-26T13:28:37Z</time>
      </trkpt>
      <trkpt lat="42.95459" lon="0.29881">
        <ele>1186.4</ele>
        <time>2013-11-26T13:28:46Z</time>
      </trkpt>
      <trkpt lat="42.95455" lon="0.29881">
        <ele>1185.92</ele>
        <time>2013-11-26T13:28:50Z</time>
      </trkpt>
      <trkpt lat="42.95452" lon="0.29879">
        <ele>1185.92</ele>
        <time>2013-11-26T13:28:52Z</time>
      </trkpt>
      <trkpt lat="42.95449" lon="0.2987">
        <ele>1186.4</ele>
        <time>2013-11-26T13:28:57Z</time>
      </trkpt>
      <trkpt lat="42.95452" lon="0.29835">
        <ele>1187.85</ele>
        <time>2013-11-26T13:29:15Z</time>
      </trkpt>
      <trkpt lat="42.95459" lon="0.2981">
        <ele>1185.44</ele>
        <time>2013-11-26T13:29:28Z</time>
      </trkpt>
      <trkpt lat="42.9546" lon="0.29804">
        <ele>1184.96</ele>
        <time>2013-11-26T13:29:31Z</time>
      </trkpt>
      <trkpt lat="42.95462" lon="0.29797">
        <ele>1183.04</ele>
        <time>2013-11-26T13:29:35Z</time>
      </trkpt>
      <trkpt lat="42.95466" lon="0.29777">
        <ele>1179.19</ele>
        <time>2013-11-26T13:29:46Z</time>
      </trkpt>
      <trkpt lat="42.95468" lon="0.29763">
        <ele>1178.23</ele>
        <time>2013-11-26T13:29:55Z</time>
      </trkpt>
      <trkpt lat="42.95472" lon="0.29746">
        <ele>1182.08</ele>
        <time>2013-11-26T13:30:05Z</time>
      </trkpt>
      <trkpt lat="42.95473" lon="0.29742">
        <ele>1181.6</ele>
        <time>2013-11-26T13:30:08Z</time>
      </trkpt>
      <trkpt lat="42.95472" lon="0.29735">
        <ele>1180.64</ele>
        <time>2013-11-26T13:30:12Z</time>
      </trkpt>
      <trkpt lat="42.95473" lon="0.29729">
        <ele>1181.12</ele>
        <time>2013-11-26T13:30:16Z</time>
      </trkpt>
      <trkpt lat="42.95473" lon="0.2972">
        <ele>1181.6</ele>
        <time>2013-11-26T13:30:22Z</time>
      </trkpt>
      <trkpt lat="42.95471" lon="0.297">
        <ele>1181.6</ele>
        <time>2013-11-26T13:30:37Z</time>
      </trkpt>
      <trkpt lat="42.95471" lon="0.29695">
        <ele>1181.12</ele>
        <time>2013-11-26T13:30:40Z</time>
      </trkpt>
      <trkpt lat="42.95471" lon="0.29677">
        <ele>1178.71</ele>
        <time>2013-11-26T13:30:54Z</time>
      </trkpt>
      <trkpt lat="42.95471" lon="0.29666">
        <ele>1174.39</ele>
        <time>2013-11-26T13:31:02Z</time>
      </trkpt>
      <trkpt lat="42.95469" lon="0.29648">
        <ele>1170.54</ele>
        <time>2013-11-26T13:31:15Z</time>
      </trkpt>
      <trkpt lat="42.95467" lon="0.29625">
        <ele>1169.1</ele>
        <time>2013-11-26T13:31:31Z</time>
      </trkpt>
      <trkpt lat="42.95467" lon="0.29621">
        <ele>1168.62</ele>
        <time>2013-11-26T13:31:34Z</time>
      </trkpt>
      <trkpt lat="42.95466" lon="0.29618">
        <ele>1168.14</ele>
        <time>2013-11-26T13:31:36Z</time>
      </trkpt>
      <trkpt lat="42.95462" lon="0.29597">
        <ele>1165.74</ele>
        <time>2013-11-26T13:31:52Z</time>
      </trkpt>
      <trkpt lat="42.95461" lon="0.29594">
        <ele>1166.7</ele>
        <time>2013-11-26T13:31:55Z</time>
      </trkpt>
      <trkpt lat="42.95459" lon="0.29578">
        <ele>1168.14</ele>
        <time>2013-11-26T13:32:08Z</time>
      </trkpt>
      <trkpt lat="42.95458" lon="0.29558">
        <ele>1166.7</ele>
        <time>2013-11-26T13:32:22Z</time>
      </trkpt>
      <trkpt lat="42.95456" lon="0.29554">
        <ele>1166.22</ele>
        <time>2013-11-26T13:32:26Z</time>
      </trkpt>
      <trkpt lat="42.95455" lon="0.2955">
        <ele>1165.74</ele>
        <time>2013-11-26T13:32:29Z</time>
      </trkpt>
      <trkpt lat="42.95448" lon="0.29534">
        <ele>1168.14</ele>
        <time>2013-11-26T13:32:43Z</time>
      </trkpt>
      <trkpt lat="42.95439" lon="0.29527">
        <ele>1166.22</ele>
        <time>2013-11-26T13:32:55Z</time>
      </trkpt>
      <trkpt lat="42.95434" lon="0.29524">
        <ele>1165.26</ele>
        <time>2013-11-26T13:33:06Z</time>
      </trkpt>
      <trkpt lat="42.95431" lon="0.29523">
        <ele>1163.81</ele>
        <time>2013-11-26T13:33:22Z</time>
      </trkpt>
      <trkpt lat="42.95431" lon="0.29524">
        <ele>1162.85</ele>
        <time>2013-11-26T13:33:33Z</time>
      </trkpt>
      <trkpt lat="42.9543" lon="0.29521">
        <ele>1161.89</ele>
        <time>2013-11-26T13:33:45Z</time>
      </trkpt>
      <trkpt lat="42.95428" lon="0.2951">
        <ele>1161.89</ele>
        <time>2013-11-26T13:33:58Z</time>
      </trkpt>
      <trkpt lat="42.95421" lon="0.29502">
        <ele>1158.53</ele>
        <time>2013-11-26T13:34:11Z</time>
      </trkpt>
      <trkpt lat="42.95413" lon="0.29494">
        <ele>1153.72</ele>
        <time>2013-11-26T13:34:23Z</time>
      </trkpt>
      <trkpt lat="42.95413" lon="0.29493">
        <ele>1152.28</ele>
        <time>2013-11-26T13:34:42Z</time>
      </trkpt>
      <trkpt lat="42.95413" lon="0.29493">
        <ele>1152.28</ele>
        <time>2013-11-26T13:35:04Z</time>
      </trkpt>
      <trkpt lat="42.95413" lon="0.29493">
        <ele>1152.28</ele>
        <time>2013-11-26T13:35:33Z</time>
      </trkpt>
      <trkpt lat="42.95413" lon="0.29493">
        <ele>1151.32</ele>
        <time>2013-11-26T13:35:51Z</time>
      </trkpt>
      <trkpt lat="42.95413" lon="0.29493">
        <ele>1151.32</ele>
        <time>2013-11-26T13:36:13Z</time>
      </trkpt>
      <trkpt lat="42.95414" lon="0.29492">
        <ele>1151.32</ele>
        <time>2013-11-26T13:36:30Z</time>
      </trkpt>
      <trkpt lat="42.95414" lon="0.29492">
        <ele>1151.32</ele>
        <time>2013-11-26T13:36:53Z</time>
      </trkpt>
      <trkpt lat="42.95414" lon="0.29492">
        <ele>1151.8</ele>
        <time>2013-11-26T13:37:12Z</time>
      </trkpt>
      <trkpt lat="42.95414" lon="0.29495">
        <ele>1152.76</ele>
        <time>2013-11-26T13:37:27Z</time>
      </trkpt>
      <trkpt lat="42.95403" lon="0.29486">
        <ele>1150.84</ele>
        <time>2013-11-26T13:37:39Z</time>
      </trkpt>
      <trkpt lat="42.9539" lon="0.29479">
        <ele>1146.51</ele>
        <time>2013-11-26T13:37:54Z</time>
      </trkpt>
      <trkpt lat="42.95378" lon="0.29479">
        <ele>1147.95</ele>
        <time>2013-11-26T13:38:06Z</time>
      </trkpt>
      <trkpt lat="42.95366" lon="0.29484">
        <ele>1153.24</ele>
        <time>2013-11-26T13:38:18Z</time>
      </trkpt>
      <trkpt lat="42.95363" lon="0.29485">
        <ele>1153.72</ele>
        <time>2013-11-26T13:38:20Z</time>
      </trkpt>
      <trkpt lat="42.9536" lon="0.29488">
        <ele>1154.68</ele>
        <time>2013-11-26T13:38:24Z</time>
      </trkpt>
      <trkpt lat="42.95348" lon="0.29495">
        <ele>1153.72</ele>
        <time>2013-11-26T13:38:36Z</time>
      </trkpt>
      <trkpt lat="42.95343" lon="0.29502">
        <ele>1152.76</ele>
        <time>2013-11-26T13:38:43Z</time>
      </trkpt>
      <trkpt lat="42.95341" lon="0.29507">
        <ele>1151.32</ele>
        <time>2013-11-26T13:38:48Z</time>
      </trkpt>
      <trkpt lat="42.95337" lon="0.2951">
        <ele>1148.91</ele>
        <time>2013-11-26T13:38:52Z</time>
      </trkpt>
      <trkpt lat="42.95335" lon="0.29511">
        <ele>1147.95</ele>
        <time>2013-11-26T13:38:55Z</time>
      </trkpt>
      <trkpt lat="42.95323" lon="0.2952">
        <ele>1146.03</ele>
        <time>2013-11-26T13:39:08Z</time>
      </trkpt>
      <trkpt lat="42.95314" lon="0.29528">
        <ele>1146.51</ele>
        <time>2013-11-26T13:39:20Z</time>
      </trkpt>
      <trkpt lat="42.95302" lon="0.29537">
        <ele>1142.18</ele>
        <time>2013-11-26T13:39:33Z</time>
      </trkpt>
      <trkpt lat="42.95291" lon="0.29541">
        <ele>1136.9</ele>
        <time>2013-11-26T13:39:47Z</time>
      </trkpt>
      <trkpt lat="42.9528" lon="0.29538">
        <ele>1133.53</ele>
        <time>2013-11-26T13:40:00Z</time>
      </trkpt>
      <trkpt lat="42.95268" lon="0.29535">
        <ele>1134.97</ele>
        <time>2013-11-26T13:40:11Z</time>
      </trkpt>
      <trkpt lat="42.9526" lon="0.29532">
        <ele>1135.94</ele>
        <time>2013-11-26T13:40:16Z</time>
      </trkpt>
      <trkpt lat="42.95248" lon="0.29529">
        <ele>1136.9</ele>
        <time>2013-11-26T13:40:26Z</time>
      </trkpt>
      <trkpt lat="42.95242" lon="0.29527">
        <ele>1140.26</ele>
        <time>2013-11-26T13:40:30Z</time>
      </trkpt>
      <trkpt lat="42.95225" lon="0.29519">
        <ele>1142.18</ele>
        <time>2013-11-26T13:40:42Z</time>
      </trkpt>
      <trkpt lat="42.95222" lon="0.29518">
        <ele>1142.18</ele>
        <time>2013-11-26T13:40:44Z</time>
      </trkpt>
      <trkpt lat="42.9521" lon="0.29517">
        <ele>1140.26</ele>
        <time>2013-11-26T13:40:51Z</time>
      </trkpt>
      <trkpt lat="42.95202" lon="0.29513">
        <ele>1135.45</ele>
        <time>2013-11-26T13:41:01Z</time>
      </trkpt>
      <trkpt lat="42.95197" lon="0.29513">
        <ele>1133.53</ele>
        <time>2013-11-26T13:41:14Z</time>
      </trkpt>
      <trkpt lat="42.95195" lon="0.29512">
        <ele>1133.05</ele>
        <time>2013-11-26T13:41:28Z</time>
      </trkpt>
      <trkpt lat="42.9518" lon="0.29506">
        <ele>1129.21</ele>
        <time>2013-11-26T13:41:41Z</time>
      </trkpt>
      <trkpt lat="42.95174" lon="0.29502">
        <ele>1128.24</ele>
        <time>2013-11-26T13:41:47Z</time>
      </trkpt>
      <trkpt lat="42.95164" lon="0.29495">
        <ele>1127.76</ele>
        <time>2013-11-26T13:41:57Z</time>
      </trkpt>
      <trkpt lat="42.9516" lon="0.29492">
        <ele>1128.24</ele>
        <time>2013-11-26T13:42:00Z</time>
      </trkpt>
      <trkpt lat="42.95147" lon="0.29483">
        <ele>1131.13</ele>
        <time>2013-11-26T13:42:12Z</time>
      </trkpt>
      <trkpt lat="42.95133" lon="0.29475">
        <ele>1131.13</ele>
        <time>2013-11-26T13:42:25Z</time>
      </trkpt>
      <trkpt lat="42.95129" lon="0.29473">
        <ele>1131.61</ele>
        <time>2013-11-26T13:42:29Z</time>
      </trkpt>
      <trkpt lat="42.95127" lon="0.2947">
        <ele>1131.61</ele>
        <time>2013-11-26T13:42:32Z</time>
      </trkpt>
      <trkpt lat="42.95125" lon="0.29469">
        <ele>1131.13</ele>
        <time>2013-11-26T13:42:34Z</time>
      </trkpt>
      <trkpt lat="42.95114" lon="0.29459">
        <ele>1128.24</ele>
        <time>2013-11-26T13:42:48Z</time>
      </trkpt>
      <trkpt lat="42.95106" lon="0.29448">
        <ele>1120.55</ele>
        <time>2013-11-26T13:43:01Z</time>
      </trkpt>
      <trkpt lat="42.95105" lon="0.29446">
        <ele>1120.07</ele>
        <time>2013-11-26T13:43:04Z</time>
      </trkpt>
      <trkpt lat="42.95091" lon="0.29435">
        <ele>1119.11</ele>
        <time>2013-11-26T13:43:18Z</time>
      </trkpt>
      <trkpt lat="42.95084" lon="0.29431">
        <ele>1119.11</ele>
        <time>2013-11-26T13:43:25Z</time>
      </trkpt>
      <trkpt lat="42.9508" lon="0.29428">
        <ele>1119.11</ele>
        <time>2013-11-26T13:43:29Z</time>
      </trkpt>
      <trkpt lat="42.95064" lon="0.2942">
        <ele>1120.55</ele>
        <time>2013-11-26T13:43:44Z</time>
      </trkpt>
      <trkpt lat="42.95052" lon="0.29413">
        <ele>1121.03</ele>
        <time>2013-11-26T13:43:54Z</time>
      </trkpt>
      <trkpt lat="42.95037" lon="0.29401">
        <ele>1121.52</ele>
        <time>2013-11-26T13:44:08Z</time>
      </trkpt>
      <trkpt lat="42.95031" lon="0.29398">
        <ele>1122</ele>
        <time>2013-11-26T13:44:13Z</time>
      </trkpt>
      <trkpt lat="42.95016" lon="0.29392">
        <ele>1123.44</ele>
        <time>2013-11-26T13:44:25Z</time>
      </trkpt>
      <trkpt lat="42.95008" lon="0.2939">
        <ele>1122.48</ele>
        <time>2013-11-26T13:44:32Z</time>
      </trkpt>
      <trkpt lat="42.94996" lon="0.29387">
        <ele>1121.52</ele>
        <time>2013-11-26T13:44:42Z</time>
      </trkpt>
      <trkpt lat="42.94994" lon="0.29386">
        <ele>1120.55</ele>
        <time>2013-11-26T13:44:44Z</time>
      </trkpt>
      <trkpt lat="42.94989" lon="0.29384">
        <ele>1118.63</ele>
        <time>2013-11-26T13:44:49Z</time>
      </trkpt>
      <trkpt lat="42.94974" lon="0.29373">
        <ele>1117.67</ele>
        <time>2013-11-26T13:45:03Z</time>
      </trkpt>
      <trkpt lat="42.94962" lon="0.2936">
        <ele>1115.27</ele>
        <time>2013-11-26T13:45:15Z</time>
      </trkpt>
      <trkpt lat="42.94951" lon="0.29347">
        <ele>1112.86</ele>
        <time>2013-11-26T13:45:27Z</time>
      </trkpt>
      <trkpt lat="42.94942" lon="0.29337">
        <ele>1110.46</ele>
        <time>2013-11-26T13:45:37Z</time>
      </trkpt>
      <trkpt lat="42.9494" lon="0.29334">
        <ele>1109.98</ele>
        <time>2013-11-26T13:45:43Z</time>
      </trkpt>
      <trkpt lat="42.94933" lon="0.29329">
        <ele>1109.98</ele>
        <time>2013-11-26T13:45:49Z</time>
      </trkpt>
      <trkpt lat="42.94916" lon="0.29322">
        <ele>1109.5</ele>
        <time>2013-11-26T13:46:03Z</time>
      </trkpt>
      <trkpt lat="42.94905" lon="0.29321">
        <ele>1107.58</ele>
        <time>2013-11-26T13:46:13Z</time>
      </trkpt>
      <trkpt lat="42.94893" lon="0.2932">
        <ele>1103.73</ele>
        <time>2013-11-26T13:46:23Z</time>
      </trkpt>
      <trkpt lat="42.9489" lon="0.29317">
        <ele>1102.29</ele>
        <time>2013-11-26T13:46:27Z</time>
      </trkpt>
      <trkpt lat="42.94883" lon="0.29314">
        <ele>1100.37</ele>
        <time>2013-11-26T13:46:35Z</time>
      </trkpt>
      <trkpt lat="42.94871" lon="0.2931">
        <ele>1100.85</ele>
        <time>2013-11-26T13:46:48Z</time>
      </trkpt>
      <trkpt lat="42.94863" lon="0.29306">
        <ele>1106.61</ele>
        <time>2013-11-26T13:46:55Z</time>
      </trkpt>
      <trkpt lat="42.94853" lon="0.29294">
        <ele>1107.58</ele>
        <time>2013-11-26T13:47:06Z</time>
      </trkpt>
      <trkpt lat="42.9485" lon="0.29286">
        <ele>1107.58</ele>
        <time>2013-11-26T13:47:12Z</time>
      </trkpt>
      <trkpt lat="42.94849" lon="0.29276">
        <ele>1105.65</ele>
        <time>2013-11-26T13:47:18Z</time>
      </trkpt>
      <trkpt lat="42.94849" lon="0.29273">
        <ele>1105.65</ele>
        <time>2013-11-26T13:47:22Z</time>
      </trkpt>
      <trkpt lat="42.94849" lon="0.29253">
        <ele>1105.17</ele>
        <time>2013-11-26T13:47:34Z</time>
      </trkpt>
      <trkpt lat="42.94848" lon="0.29241">
        <ele>1106.61</ele>
        <time>2013-11-26T13:47:42Z</time>
      </trkpt>
      <trkpt lat="42.94844" lon="0.2922">
        <ele>1105.65</ele>
        <time>2013-11-26T13:47:55Z</time>
      </trkpt>
      <trkpt lat="42.9484" lon="0.29206">
        <ele>1105.65</ele>
        <time>2013-11-26T13:48:05Z</time>
      </trkpt>
      <trkpt lat="42.94839" lon="0.29187">
        <ele>1105.65</ele>
        <time>2013-11-26T13:48:17Z</time>
      </trkpt>
      <trkpt lat="42.94838" lon="0.29178">
        <ele>1106.13</ele>
        <time>2013-11-26T13:48:23Z</time>
      </trkpt>
      <trkpt lat="42.94837" lon="0.2916">
        <ele>1103.73</ele>
        <time>2013-11-26T13:48:35Z</time>
      </trkpt>
      <trkpt lat="42.94837" lon="0.29158">
        <ele>1103.25</ele>
        <time>2013-11-26T13:48:37Z</time>
      </trkpt>
      <trkpt lat="42.94836" lon="0.29153">
        <ele>1102.77</ele>
        <time>2013-11-26T13:48:40Z</time>
      </trkpt>
      <trkpt lat="42.94836" lon="0.29148">
        <ele>1100.85</ele>
        <time>2013-11-26T13:48:43Z</time>
      </trkpt>
      <trkpt lat="42.94828" lon="0.29129">
        <ele>1100.85</ele>
        <time>2013-11-26T13:48:58Z</time>
      </trkpt>
      <trkpt lat="42.94827" lon="0.29126">
        <ele>1101.33</ele>
        <time>2013-11-26T13:49:01Z</time>
      </trkpt>
      <trkpt lat="42.94824" lon="0.29118">
        <ele>1102.29</ele>
        <time>2013-11-26T13:49:07Z</time>
      </trkpt>
      <trkpt lat="42.94806" lon="0.29104">
        <ele>1104.69</ele>
        <time>2013-11-26T13:49:23Z</time>
      </trkpt>
      <trkpt lat="42.94797" lon="0.29102">
        <ele>1105.65</ele>
        <time>2013-11-26T13:49:32Z</time>
      </trkpt>
      <trkpt lat="42.94781" lon="0.29102">
        <ele>1104.69</ele>
        <time>2013-11-26T13:49:45Z</time>
      </trkpt>
      <trkpt lat="42.94763" lon="0.29105">
        <ele>1103.25</ele>
        <time>2013-11-26T13:50:01Z</time>
      </trkpt>
      <trkpt lat="42.94752" lon="0.29107">
        <ele>1099.89</ele>
        <time>2013-11-26T13:50:10Z</time>
      </trkpt>
      <trkpt lat="42.94742" lon="0.29106">
        <ele>1095.56</ele>
        <time>2013-11-26T13:50:20Z</time>
      </trkpt>
      <trkpt lat="42.94738" lon="0.29104">
        <ele>1093.16</ele>
        <time>2013-11-26T13:50:24Z</time>
      </trkpt>
      <trkpt lat="42.94736" lon="0.29104">
        <ele>1091.71</ele>
        <time>2013-11-26T13:50:26Z</time>
      </trkpt>
      <trkpt lat="42.94726" lon="0.29102">
        <ele>1091.23</ele>
        <time>2013-11-26T13:50:38Z</time>
      </trkpt>
      <trkpt lat="42.94718" lon="0.29096">
        <ele>1093.64</ele>
        <time>2013-11-26T13:50:48Z</time>
      </trkpt>
      <trkpt lat="42.94717" lon="0.29096">
        <ele>1093.64</ele>
        <time>2013-11-26T13:50:49Z</time>
      </trkpt>
      <trkpt lat="42.94705" lon="0.29084">
        <ele>1092.68</ele>
        <time>2013-11-26T13:51:03Z</time>
      </trkpt>
      <trkpt lat="42.94702" lon="0.29082">
        <ele>1092.2</ele>
        <time>2013-11-26T13:51:06Z</time>
      </trkpt>
      <trkpt lat="42.947" lon="0.29079">
        <ele>1092.68</ele>
        <time>2013-11-26T13:51:08Z</time>
      </trkpt>
      <trkpt lat="42.94686" lon="0.29062">
        <ele>1091.23</ele>
        <time>2013-11-26T13:51:21Z</time>
      </trkpt>
      <trkpt lat="42.94681" lon="0.29056">
        <ele>1090.27</ele>
        <time>2013-11-26T13:51:27Z</time>
      </trkpt>
      <trkpt lat="42.94675" lon="0.2905">
        <ele>1085.95</ele>
        <time>2013-11-26T13:51:36Z</time>
      </trkpt>
      <trkpt lat="42.94666" lon="0.29037">
        <ele>1083.06</ele>
        <time>2013-11-26T13:51:47Z</time>
      </trkpt>
      <trkpt lat="42.94659" lon="0.29028">
        <ele>1080.66</ele>
        <time>2013-11-26T13:51:56Z</time>
      </trkpt>
      <trkpt lat="42.94646" lon="0.29014">
        <ele>1078.74</ele>
        <time>2013-11-26T13:52:10Z</time>
      </trkpt>
      <trkpt lat="42.94645" lon="0.29012">
        <ele>1077.78</ele>
        <time>2013-11-26T13:52:11Z</time>
      </trkpt>
      <trkpt lat="42.94634" lon="0.28996">
        <ele>1079.22</ele>
        <time>2013-11-26T13:52:25Z</time>
      </trkpt>
      <trkpt lat="42.94627" lon="0.28986">
        <ele>1079.22</ele>
        <time>2013-11-26T13:52:34Z</time>
      </trkpt>
      <trkpt lat="42.94616" lon="0.2897">
        <ele>1078.26</ele>
        <time>2013-11-26T13:52:47Z</time>
      </trkpt>
      <trkpt lat="42.94614" lon="0.28968">
        <ele>1077.78</ele>
        <time>2013-11-26T13:52:49Z</time>
      </trkpt>
      <trkpt lat="42.94599" lon="0.2895">
        <ele>1075.37</ele>
        <time>2013-11-26T13:53:06Z</time>
      </trkpt>
      <trkpt lat="42.94598" lon="0.28949">
        <ele>1074.89</ele>
        <time>2013-11-26T13:53:07Z</time>
      </trkpt>
      <trkpt lat="42.94583" lon="0.28937">
        <ele>1074.89</ele>
        <time>2013-11-26T13:53:23Z</time>
      </trkpt>
      <trkpt lat="42.94579" lon="0.28934">
        <ele>1073.93</ele>
        <time>2013-11-26T13:53:27Z</time>
      </trkpt>
      <trkpt lat="42.94571" lon="0.28926">
        <ele>1071.53</ele>
        <time>2013-11-26T13:53:36Z</time>
      </trkpt>
      <trkpt lat="42.94564" lon="0.28918">
        <ele>1069.6</ele>
        <time>2013-11-26T13:53:44Z</time>
      </trkpt>
      <trkpt lat="42.94552" lon="0.28899">
        <ele>1067.68</ele>
        <time>2013-11-26T13:54:01Z</time>
      </trkpt>
      <trkpt lat="42.94551" lon="0.28897">
        <ele>1067.68</ele>
        <time>2013-11-26T13:54:02Z</time>
      </trkpt>
      <trkpt lat="42.9455" lon="0.28891">
        <ele>1064.8</ele>
        <time>2013-11-26T13:54:06Z</time>
      </trkpt>
      <trkpt lat="42.94541" lon="0.28874">
        <ele>1060.95</ele>
        <time>2013-11-26T13:54:19Z</time>
      </trkpt>
      <trkpt lat="42.94527" lon="0.28858">
        <ele>1059.51</ele>
        <time>2013-11-26T13:54:36Z</time>
      </trkpt>
      <trkpt lat="42.94518" lon="0.28844">
        <ele>1058.55</ele>
        <time>2013-11-26T13:54:49Z</time>
      </trkpt>
      <trkpt lat="42.9451" lon="0.28836">
        <ele>1056.63</ele>
        <time>2013-11-26T13:55:01Z</time>
      </trkpt>
      <trkpt lat="42.94499" lon="0.28829">
        <ele>1054.7</ele>
        <time>2013-11-26T13:55:13Z</time>
      </trkpt>
      <trkpt lat="42.94488" lon="0.28817">
        <ele>1054.22</ele>
        <time>2013-11-26T13:55:27Z</time>
      </trkpt>
      <trkpt lat="42.9448" lon="0.28815">
        <ele>1053.74</ele>
        <time>2013-11-26T13:55:37Z</time>
      </trkpt>
      <trkpt lat="42.94472" lon="0.28816">
        <ele>1052.3</ele>
        <time>2013-11-26T13:55:49Z</time>
      </trkpt>
      <trkpt lat="42.9447" lon="0.28817">
        <ele>1052.3</ele>
        <time>2013-11-26T13:56:06Z</time>
      </trkpt>
      <trkpt lat="42.9447" lon="0.28817">
        <ele>1052.3</ele>
        <time>2013-11-26T13:56:30Z</time>
      </trkpt>
      <trkpt lat="42.9447" lon="0.28816">
        <ele>1051.34</ele>
        <time>2013-11-26T13:56:45Z</time>
      </trkpt>
      <trkpt lat="42.9447" lon="0.28816">
        <ele>1051.34</ele>
        <time>2013-11-26T13:57:03Z</time>
      </trkpt>
      <trkpt lat="42.9447" lon="0.28816">
        <ele>1050.86</ele>
        <time>2013-11-26T13:57:21Z</time>
      </trkpt>
      <trkpt lat="42.9447" lon="0.28816">
        <ele>1050.86</ele>
        <time>2013-11-26T13:57:36Z</time>
      </trkpt>
      <trkpt lat="42.9447" lon="0.28814">
        <ele>1048.94</ele>
        <time>2013-11-26T13:57:54Z</time>
      </trkpt>
      <trkpt lat="42.94471" lon="0.28814">
        <ele>1048.94</ele>
        <time>2013-11-26T13:58:04Z</time>
      </trkpt>
      <trkpt lat="42.9447" lon="0.28813">
        <ele>1049.42</ele>
        <time>2013-11-26T13:58:09Z</time>
      </trkpt>
      <trkpt lat="42.94458" lon="0.28808">
        <ele>1048.94</ele>
        <time>2013-11-26T13:58:20Z</time>
      </trkpt>
      <trkpt lat="42.94437" lon="0.28799">
        <ele>1047.01</ele>
        <time>2013-11-26T13:58:38Z</time>
      </trkpt>
      <trkpt lat="42.94427" lon="0.28793">
        <ele>1048.45</ele>
        <time>2013-11-26T13:58:47Z</time>
      </trkpt>
      <trkpt lat="42.94419" lon="0.28767">
        <ele>1047.49</ele>
        <time>2013-11-26T13:59:04Z</time>
      </trkpt>
      <trkpt lat="42.94409" lon="0.28745">
        <ele>1046.53</ele>
        <time>2013-11-26T13:59:20Z</time>
      </trkpt>
      <trkpt lat="42.94396" lon="0.28723">
        <ele>1046.05</ele>
        <time>2013-11-26T13:59:38Z</time>
      </trkpt>
      <trkpt lat="42.94395" lon="0.28722">
        <ele>1045.57</ele>
        <time>2013-11-26T13:59:39Z</time>
      </trkpt>
      <trkpt lat="42.94382" lon="0.287">
        <ele>1046.53</ele>
        <time>2013-11-26T13:59:56Z</time>
      </trkpt>
      <trkpt lat="42.9437" lon="0.28679">
        <ele>1045.57</ele>
        <time>2013-11-26T14:00:12Z</time>
      </trkpt>
      <trkpt lat="42.94365" lon="0.28671">
        <ele>1046.05</ele>
        <time>2013-11-26T14:00:18Z</time>
      </trkpt>
      <trkpt lat="42.94351" lon="0.28644">
        <ele>1046.05</ele>
        <time>2013-11-26T14:00:37Z</time>
      </trkpt>
      <trkpt lat="42.94334" lon="0.28626">
        <ele>1044.13</ele>
        <time>2013-11-26T14:00:56Z</time>
      </trkpt>
      <trkpt lat="42.94334" lon="0.28627">
        <ele>1043.65</ele>
        <time>2013-11-26T14:01:10Z</time>
      </trkpt>
      <trkpt lat="42.94334" lon="0.28627">
        <ele>1042.69</ele>
        <time>2013-11-26T14:01:21Z</time>
      </trkpt>
      <trkpt lat="42.94334" lon="0.28627">
        <ele>1042.69</ele>
        <time>2013-11-26T14:01:34Z</time>
      </trkpt>
      <trkpt lat="42.94334" lon="0.28627">
        <ele>1042.69</ele>
        <time>2013-11-26T14:01:55Z</time>
      </trkpt>
      <trkpt lat="42.94334" lon="0.28627">
        <ele>1042.69</ele>
        <time>2013-11-26T14:02:33Z</time>
      </trkpt>
      <trkpt lat="42.94334" lon="0.28626">
        <ele>1042.69</ele>
        <time>2013-11-26T14:03:01Z</time>
      </trkpt>
      <trkpt lat="42.94334" lon="0.28626">
        <ele>1042.69</ele>
        <time>2013-11-26T14:03:23Z</time>
      </trkpt>
      <trkpt lat="42.94334" lon="0.28626">
        <ele>1042.69</ele>
        <time>2013-11-26T14:03:43Z</time>
      </trkpt>
      <trkpt lat="42.94334" lon="0.28626">
        <ele>1042.69</ele>
        <time>2013-11-26T14:03:44Z</time>
      </trkpt>
    </trkseg>
  </trk>
</gpx>